<?xml version="1.0" encoding="UTF-8" standalone="no" ?>
<gpx xmlns="http://www.topografix.com/GPX/1/1" xmlns:xsi="http://www.w3.org/2001/XMLSchema-instance" xsi:schemaLocation="http://www.topografix.com/GPX/1/1 http://www.topografix.com/GPX/1/1/gpx.xsd" version="1.1" creator="VisuGPX - https://www.visugpx.com">
  <metadata>
    <name>CCC 3 Cuiseaux France133 1900</name>
    <desc><![CDATA[Randonnée au départ de Cuiseaux France]]></desc>
  </metadata>
  <trk>
    <name><![CDATA[4611116-entrainement]]></name>
    <trkseg>
      <trkpt lat="46.49558" lon="5.38794">
        <ele>278.5</ele>
        <time>2019-04-29T08:51:00Z</time>
      </trkpt>
      <trkpt lat="46.49586" lon="5.38794">
        <ele>277</ele>
        <time>2019-04-29T08:52:00Z</time>
      </trkpt>
      <trkpt lat="46.49617" lon="5.38789">
        <ele>277</ele>
        <time>2019-04-29T08:53:00Z</time>
      </trkpt>
      <trkpt lat="46.49679" lon="5.38777">
        <ele>276</ele>
        <time>2019-04-29T08:54:00Z</time>
      </trkpt>
      <trkpt lat="46.49744" lon="5.38764">
        <ele>276</ele>
        <time>2019-04-29T08:55:00Z</time>
      </trkpt>
      <trkpt lat="46.49811" lon="5.3875">
        <ele>278.8</ele>
        <time>2019-04-29T08:56:00Z</time>
      </trkpt>
      <trkpt lat="46.49979" lon="5.3872">
        <ele>278</ele>
        <time>2019-04-29T08:57:00Z</time>
      </trkpt>
      <trkpt lat="46.50065" lon="5.38702">
        <ele>275</ele>
        <time>2019-04-29T08:58:00Z</time>
      </trkpt>
      <trkpt lat="46.50119" lon="5.38695">
        <ele>275</ele>
        <time>2019-04-29T08:59:00Z</time>
      </trkpt>
      <trkpt lat="46.50135" lon="5.38668">
        <ele>274</ele>
        <time>2019-04-29T09:00:00Z</time>
      </trkpt>
      <trkpt lat="46.50136" lon="5.38641">
        <ele>270.6</ele>
        <time>2019-04-29T09:01:00Z</time>
      </trkpt>
      <trkpt lat="46.50143" lon="5.3861">
        <ele>270</ele>
        <time>2019-04-29T09:02:00Z</time>
      </trkpt>
      <trkpt lat="46.50154" lon="5.38575">
        <ele>267</ele>
        <time>2019-04-29T09:03:00Z</time>
      </trkpt>
      <trkpt lat="46.50173" lon="5.38516">
        <ele>265</ele>
        <time>2019-04-29T09:04:00Z</time>
      </trkpt>
      <trkpt lat="46.50196" lon="5.38443">
        <ele>262</ele>
        <time>2019-04-29T09:05:00Z</time>
      </trkpt>
      <trkpt lat="46.50218" lon="5.38372">
        <ele>258.7</ele>
        <time>2019-04-29T09:06:00Z</time>
      </trkpt>
      <trkpt lat="46.50241" lon="5.38403">
        <ele>259</ele>
        <time>2019-04-29T09:07:00Z</time>
      </trkpt>
      <trkpt lat="46.50294" lon="5.3846">
        <ele>262</ele>
        <time>2019-04-29T09:08:00Z</time>
      </trkpt>
      <trkpt lat="46.50347" lon="5.38528">
        <ele>265</ele>
        <time>2019-04-29T09:09:00Z</time>
      </trkpt>
      <trkpt lat="46.5045" lon="5.38609">
        <ele>263.6</ele>
        <time>2019-04-29T09:10:00Z</time>
      </trkpt>
      <trkpt lat="46.50475" lon="5.38626">
        <ele>263</ele>
        <time>2019-04-29T09:11:00Z</time>
      </trkpt>
      <trkpt lat="46.50501" lon="5.38638">
        <ele>258</ele>
        <time>2019-04-29T09:12:00Z</time>
      </trkpt>
      <trkpt lat="46.50554" lon="5.38651">
        <ele>255.5</ele>
        <time>2019-04-29T09:13:00Z</time>
      </trkpt>
      <trkpt lat="46.50619" lon="5.38667">
        <ele>254</ele>
        <time>2019-04-29T09:14:00Z</time>
      </trkpt>
      <trkpt lat="46.50683" lon="5.3869">
        <ele>254</ele>
        <time>2019-04-29T09:15:00Z</time>
      </trkpt>
      <trkpt lat="46.50719" lon="5.38706">
        <ele>254</ele>
        <time>2019-04-29T09:16:00Z</time>
      </trkpt>
      <trkpt lat="46.50814" lon="5.38726">
        <ele>255.1</ele>
        <time>2019-04-29T09:17:00Z</time>
      </trkpt>
      <trkpt lat="46.50913" lon="5.3875">
        <ele>255</ele>
        <time>2019-04-29T09:18:00Z</time>
      </trkpt>
      <trkpt lat="46.51014" lon="5.3877">
        <ele>255</ele>
        <time>2019-04-29T09:19:00Z</time>
      </trkpt>
      <trkpt lat="46.51112" lon="5.3879">
        <ele>259</ele>
        <time>2019-04-29T09:20:00Z</time>
      </trkpt>
      <trkpt lat="46.5121" lon="5.38799">
        <ele>261</ele>
        <time>2019-04-29T09:21:00Z</time>
      </trkpt>
      <trkpt lat="46.51311" lon="5.38803">
        <ele>258.4</ele>
        <time>2019-04-29T09:22:00Z</time>
      </trkpt>
      <trkpt lat="46.51379" lon="5.38808">
        <ele>255</ele>
        <time>2019-04-29T09:23:00Z</time>
      </trkpt>
      <trkpt lat="46.51403" lon="5.38811">
        <ele>255</ele>
        <time>2019-04-29T09:24:00Z</time>
      </trkpt>
      <trkpt lat="46.51427" lon="5.38807">
        <ele>253</ele>
        <time>2019-04-29T09:25:00Z</time>
      </trkpt>
      <trkpt lat="46.51467" lon="5.38801">
        <ele>252</ele>
        <time>2019-04-29T09:26:00Z</time>
      </trkpt>
      <trkpt lat="46.51504" lon="5.38803">
        <ele>252</ele>
        <time>2019-04-29T09:27:00Z</time>
      </trkpt>
      <trkpt lat="46.51549" lon="5.38804">
        <ele>253</ele>
        <time>2019-04-29T09:28:00Z</time>
      </trkpt>
      <trkpt lat="46.51602" lon="5.38794">
        <ele>257</ele>
        <time>2019-04-29T09:29:00Z</time>
      </trkpt>
      <trkpt lat="46.51655" lon="5.38781">
        <ele>257</ele>
        <time>2019-04-29T09:30:00Z</time>
      </trkpt>
      <trkpt lat="46.51692" lon="5.38778">
        <ele>260</ele>
        <time>2019-04-29T09:31:00Z</time>
      </trkpt>
      <trkpt lat="46.51693" lon="5.38796">
        <ele>260</ele>
        <time>2019-04-29T09:32:00Z</time>
      </trkpt>
      <trkpt lat="46.51711" lon="5.38811">
        <ele>260</ele>
        <time>2019-04-29T09:33:00Z</time>
      </trkpt>
      <trkpt lat="46.51731" lon="5.38814">
        <ele>261</ele>
        <time>2019-04-29T09:34:00Z</time>
      </trkpt>
      <trkpt lat="46.51766" lon="5.38816">
        <ele>259.7</ele>
        <time>2019-04-29T09:35:00Z</time>
      </trkpt>
      <trkpt lat="46.51874" lon="5.38819">
        <ele>254</ele>
        <time>2019-04-29T09:36:00Z</time>
      </trkpt>
      <trkpt lat="46.51983" lon="5.38818">
        <ele>249</ele>
        <time>2019-04-29T09:37:00Z</time>
      </trkpt>
      <trkpt lat="46.52025" lon="5.38823">
        <ele>245.9</ele>
        <time>2019-04-29T09:38:00Z</time>
      </trkpt>
      <trkpt lat="46.52089" lon="5.38834">
        <ele>243</ele>
        <time>2019-04-29T09:39:00Z</time>
      </trkpt>
      <trkpt lat="46.52158" lon="5.3884">
        <ele>239</ele>
        <time>2019-04-29T09:40:00Z</time>
      </trkpt>
      <trkpt lat="46.52181" lon="5.38844">
        <ele>239</ele>
        <time>2019-04-29T09:41:00Z</time>
      </trkpt>
      <trkpt lat="46.52205" lon="5.38853">
        <ele>239</ele>
        <time>2019-04-29T09:42:00Z</time>
      </trkpt>
      <trkpt lat="46.52258" lon="5.38878">
        <ele>236.9</ele>
        <time>2019-04-29T09:43:00Z</time>
      </trkpt>
      <trkpt lat="46.52377" lon="5.38933">
        <ele>240</ele>
        <time>2019-04-29T09:44:00Z</time>
      </trkpt>
      <trkpt lat="46.52496" lon="5.3899">
        <ele>236.3</ele>
        <time>2019-04-29T09:45:00Z</time>
      </trkpt>
      <trkpt lat="46.52554" lon="5.39027">
        <ele>234</ele>
        <time>2019-04-29T09:46:00Z</time>
      </trkpt>
      <trkpt lat="46.52619" lon="5.3908">
        <ele>228</ele>
        <time>2019-04-29T09:47:00Z</time>
      </trkpt>
      <trkpt lat="46.52652" lon="5.3911">
        <ele>230</ele>
        <time>2019-04-29T09:48:00Z</time>
      </trkpt>
      <trkpt lat="46.52682" lon="5.39132">
        <ele>226</ele>
        <time>2019-04-29T09:49:00Z</time>
      </trkpt>
      <trkpt lat="46.52717" lon="5.39153">
        <ele>224</ele>
        <time>2019-04-29T09:50:00Z</time>
      </trkpt>
      <trkpt lat="46.52752" lon="5.39166">
        <ele>222</ele>
        <time>2019-04-29T09:51:00Z</time>
      </trkpt>
      <trkpt lat="46.52771" lon="5.39172">
        <ele>223</ele>
        <time>2019-04-29T09:52:00Z</time>
      </trkpt>
      <trkpt lat="46.52794" lon="5.39169">
        <ele>224</ele>
        <time>2019-04-29T09:53:00Z</time>
      </trkpt>
      <trkpt lat="46.52854" lon="5.39149">
        <ele>224.6</ele>
        <time>2019-04-29T09:54:00Z</time>
      </trkpt>
      <trkpt lat="46.52912" lon="5.39131">
        <ele>227</ele>
        <time>2019-04-29T09:55:00Z</time>
      </trkpt>
      <trkpt lat="46.52947" lon="5.39114">
        <ele>235</ele>
        <time>2019-04-29T09:56:00Z</time>
      </trkpt>
      <trkpt lat="46.52962" lon="5.39098">
        <ele>236</ele>
        <time>2019-04-29T09:57:00Z</time>
      </trkpt>
      <trkpt lat="46.5298" lon="5.39071">
        <ele>235.6</ele>
        <time>2019-04-29T09:58:00Z</time>
      </trkpt>
      <trkpt lat="46.52997" lon="5.39053">
        <ele>236</ele>
        <time>2019-04-29T09:59:00Z</time>
      </trkpt>
      <trkpt lat="46.53013" lon="5.39051">
        <ele>238</ele>
        <time>2019-04-29T10:00:00Z</time>
      </trkpt>
      <trkpt lat="46.5305" lon="5.39075">
        <ele>239</ele>
        <time>2019-04-29T10:01:00Z</time>
      </trkpt>
      <trkpt lat="46.5309" lon="5.39086">
        <ele>243</ele>
        <time>2019-04-29T10:02:00Z</time>
      </trkpt>
      <trkpt lat="46.53153" lon="5.39114">
        <ele>244</ele>
        <time>2019-04-29T10:03:00Z</time>
      </trkpt>
      <trkpt lat="46.53286" lon="5.39191">
        <ele>244</ele>
        <time>2019-04-29T10:04:00Z</time>
      </trkpt>
      <trkpt lat="46.53426" lon="5.39281">
        <ele>245.2</ele>
        <time>2019-04-29T10:05:00Z</time>
      </trkpt>
      <trkpt lat="46.5373" lon="5.39471">
        <ele>255.3</ele>
        <time>2019-04-29T10:06:00Z</time>
      </trkpt>
      <trkpt lat="46.53919" lon="5.39593">
        <ele>260.8</ele>
        <time>2019-04-29T10:07:00Z</time>
      </trkpt>
      <trkpt lat="46.53952" lon="5.39614">
        <ele>260</ele>
        <time>2019-04-29T10:08:00Z</time>
      </trkpt>
      <trkpt lat="46.53961" lon="5.39632">
        <ele>261</ele>
        <time>2019-04-29T10:09:00Z</time>
      </trkpt>
      <trkpt lat="46.53971" lon="5.3966">
        <ele>260.8</ele>
        <time>2019-04-29T10:10:00Z</time>
      </trkpt>
      <trkpt lat="46.53969" lon="5.39684">
        <ele>261</ele>
        <time>2019-04-29T10:11:00Z</time>
      </trkpt>
      <trkpt lat="46.53962" lon="5.39705">
        <ele>261</ele>
        <time>2019-04-29T10:12:00Z</time>
      </trkpt>
      <trkpt lat="46.53914" lon="5.39781">
        <ele>262</ele>
        <time>2019-04-29T10:13:00Z</time>
      </trkpt>
      <trkpt lat="46.53888" lon="5.39831">
        <ele>262</ele>
        <time>2019-04-29T10:14:00Z</time>
      </trkpt>
      <trkpt lat="46.53859" lon="5.39911">
        <ele>265</ele>
        <time>2019-04-29T10:15:00Z</time>
      </trkpt>
      <trkpt lat="46.53827" lon="5.40018">
        <ele>272</ele>
        <time>2019-04-29T10:16:00Z</time>
      </trkpt>
      <trkpt lat="46.53812" lon="5.40091">
        <ele>274</ele>
        <time>2019-04-29T10:17:00Z</time>
      </trkpt>
      <trkpt lat="46.53778" lon="5.40225">
        <ele>275</ele>
        <time>2019-04-29T10:18:00Z</time>
      </trkpt>
      <trkpt lat="46.53681" lon="5.40514">
        <ele>289</ele>
        <time>2019-04-29T10:19:00Z</time>
      </trkpt>
      <trkpt lat="46.536" lon="5.40685">
        <ele>295</ele>
        <time>2019-04-29T10:20:00Z</time>
      </trkpt>
      <trkpt lat="46.53577" lon="5.40754">
        <ele>299</ele>
        <time>2019-04-29T10:21:00Z</time>
      </trkpt>
      <trkpt lat="46.53558" lon="5.40801">
        <ele>304</ele>
        <time>2019-04-29T10:22:00Z</time>
      </trkpt>
      <trkpt lat="46.53521" lon="5.40858">
        <ele>306</ele>
        <time>2019-04-29T10:23:00Z</time>
      </trkpt>
      <trkpt lat="46.53497" lon="5.40918">
        <ele>309</ele>
        <time>2019-04-29T10:24:00Z</time>
      </trkpt>
      <trkpt lat="46.5349" lon="5.4098">
        <ele>316</ele>
        <time>2019-04-29T10:25:00Z</time>
      </trkpt>
      <trkpt lat="46.53492" lon="5.41027">
        <ele>320</ele>
        <time>2019-04-29T10:26:00Z</time>
      </trkpt>
      <trkpt lat="46.535" lon="5.4107">
        <ele>324</ele>
        <time>2019-04-29T10:27:00Z</time>
      </trkpt>
      <trkpt lat="46.53526" lon="5.41124">
        <ele>333</ele>
        <time>2019-04-29T10:28:00Z</time>
      </trkpt>
      <trkpt lat="46.53554" lon="5.41166">
        <ele>335</ele>
        <time>2019-04-29T10:29:00Z</time>
      </trkpt>
      <trkpt lat="46.53627" lon="5.41275">
        <ele>349</ele>
        <time>2019-04-29T10:30:00Z</time>
      </trkpt>
      <trkpt lat="46.5365" lon="5.41315">
        <ele>353</ele>
        <time>2019-04-29T10:31:00Z</time>
      </trkpt>
      <trkpt lat="46.53651" lon="5.41339">
        <ele>352</ele>
        <time>2019-04-29T10:32:00Z</time>
      </trkpt>
      <trkpt lat="46.53636" lon="5.4136">
        <ele>353</ele>
        <time>2019-04-29T10:33:00Z</time>
      </trkpt>
      <trkpt lat="46.53584" lon="5.41366">
        <ele>347</ele>
        <time>2019-04-29T10:34:00Z</time>
      </trkpt>
      <trkpt lat="46.53562" lon="5.41374">
        <ele>348</ele>
        <time>2019-04-29T10:35:00Z</time>
      </trkpt>
      <trkpt lat="46.53544" lon="5.414">
        <ele>356</ele>
        <time>2019-04-29T10:36:00Z</time>
      </trkpt>
      <trkpt lat="46.53523" lon="5.41405">
        <ele>356</ele>
        <time>2019-04-29T10:37:00Z</time>
      </trkpt>
      <trkpt lat="46.53486" lon="5.41396">
        <ele>351</ele>
        <time>2019-04-29T10:38:00Z</time>
      </trkpt>
      <trkpt lat="46.53467" lon="5.41389">
        <ele>346</ele>
        <time>2019-04-29T10:39:00Z</time>
      </trkpt>
      <trkpt lat="46.53447" lon="5.41398">
        <ele>345</ele>
        <time>2019-04-29T10:40:00Z</time>
      </trkpt>
      <trkpt lat="46.53436" lon="5.41422">
        <ele>348</ele>
        <time>2019-04-29T10:41:00Z</time>
      </trkpt>
      <trkpt lat="46.53433" lon="5.4148">
        <ele>357</ele>
        <time>2019-04-29T10:42:00Z</time>
      </trkpt>
      <trkpt lat="46.53425" lon="5.41543">
        <ele>367</ele>
        <time>2019-04-29T10:43:00Z</time>
      </trkpt>
      <trkpt lat="46.53385" lon="5.41634">
        <ele>378</ele>
        <time>2019-04-29T10:44:00Z</time>
      </trkpt>
      <trkpt lat="46.53348" lon="5.41661">
        <ele>376</ele>
        <time>2019-04-29T10:45:00Z</time>
      </trkpt>
      <trkpt lat="46.53312" lon="5.41694">
        <ele>375</ele>
        <time>2019-04-29T10:46:00Z</time>
      </trkpt>
      <trkpt lat="46.53285" lon="5.41728">
        <ele>375</ele>
        <time>2019-04-29T10:47:00Z</time>
      </trkpt>
      <trkpt lat="46.5327" lon="5.41777">
        <ele>379</ele>
        <time>2019-04-29T10:48:00Z</time>
      </trkpt>
      <trkpt lat="46.53281" lon="5.41836">
        <ele>393</ele>
        <time>2019-04-29T10:49:00Z</time>
      </trkpt>
      <trkpt lat="46.53271" lon="5.41879">
        <ele>396</ele>
        <time>2019-04-29T10:50:00Z</time>
      </trkpt>
      <trkpt lat="46.53249" lon="5.41922">
        <ele>392</ele>
        <time>2019-04-29T10:51:00Z</time>
      </trkpt>
      <trkpt lat="46.53208" lon="5.42019">
        <ele>383</ele>
        <time>2019-04-29T10:52:00Z</time>
      </trkpt>
      <trkpt lat="46.53208" lon="5.42087">
        <ele>387</ele>
        <time>2019-04-29T10:53:00Z</time>
      </trkpt>
      <trkpt lat="46.53226" lon="5.42134">
        <ele>392</ele>
        <time>2019-04-29T10:54:00Z</time>
      </trkpt>
      <trkpt lat="46.53228" lon="5.42184">
        <ele>392</ele>
        <time>2019-04-29T10:55:00Z</time>
      </trkpt>
      <trkpt lat="46.53256" lon="5.42231">
        <ele>400</ele>
        <time>2019-04-29T10:56:00Z</time>
      </trkpt>
      <trkpt lat="46.5329" lon="5.42351">
        <ele>398</ele>
        <time>2019-04-29T10:57:00Z</time>
      </trkpt>
      <trkpt lat="46.53325" lon="5.42455">
        <ele>392</ele>
        <time>2019-04-29T10:58:00Z</time>
      </trkpt>
      <trkpt lat="46.5336" lon="5.42544">
        <ele>403</ele>
        <time>2019-04-29T11:00:00Z</time>
      </trkpt>
      <trkpt lat="46.5342" lon="5.42649">
        <ele>411</ele>
        <time>2019-04-29T11:01:00Z</time>
      </trkpt>
      <trkpt lat="46.53432" lon="5.42682">
        <ele>412</ele>
        <time>2019-04-29T11:02:00Z</time>
      </trkpt>
      <trkpt lat="46.53439" lon="5.42734">
        <ele>412</ele>
        <time>2019-04-29T11:03:00Z</time>
      </trkpt>
      <trkpt lat="46.53443" lon="5.42915">
        <ele>404.6</ele>
        <time>2019-04-29T11:04:00Z</time>
      </trkpt>
      <trkpt lat="46.53417" lon="5.43278">
        <ele>396</ele>
        <time>2019-04-29T11:05:00Z</time>
      </trkpt>
      <trkpt lat="46.53433" lon="5.43337">
        <ele>393</ele>
        <time>2019-04-29T11:07:00Z</time>
      </trkpt>
      <trkpt lat="46.53425" lon="5.43355">
        <ele>390</ele>
        <time>2019-04-29T11:08:00Z</time>
      </trkpt>
      <trkpt lat="46.53394" lon="5.43358">
        <ele>388</ele>
        <time>2019-04-29T11:09:00Z</time>
      </trkpt>
      <trkpt lat="46.53335" lon="5.43346">
        <ele>387</ele>
        <time>2019-04-29T11:10:00Z</time>
      </trkpt>
      <trkpt lat="46.53276" lon="5.43323">
        <ele>381</ele>
        <time>2019-04-29T11:11:00Z</time>
      </trkpt>
      <trkpt lat="46.53227" lon="5.43302">
        <ele>379.7</ele>
        <time>2019-04-29T11:12:00Z</time>
      </trkpt>
      <trkpt lat="46.53134" lon="5.43276">
        <ele>377</ele>
        <time>2019-04-29T11:13:00Z</time>
      </trkpt>
      <trkpt lat="46.53085" lon="5.43263">
        <ele>375</ele>
        <time>2019-04-29T11:14:00Z</time>
      </trkpt>
      <trkpt lat="46.53056" lon="5.43268">
        <ele>373</ele>
        <time>2019-04-29T11:16:00Z</time>
      </trkpt>
      <trkpt lat="46.53042" lon="5.43286">
        <ele>371</ele>
        <time>2019-04-29T11:17:00Z</time>
      </trkpt>
      <trkpt lat="46.53018" lon="5.4367">
        <ele>369</ele>
        <time>2019-04-29T11:18:00Z</time>
      </trkpt>
      <trkpt lat="46.52989" lon="5.43774">
        <ele>377</ele>
        <time>2019-04-29T11:19:00Z</time>
      </trkpt>
      <trkpt lat="46.52982" lon="5.43829">
        <ele>384</ele>
        <time>2019-04-29T11:20:00Z</time>
      </trkpt>
      <trkpt lat="46.53066" lon="5.44003">
        <ele>388</ele>
        <time>2019-04-29T11:21:00Z</time>
      </trkpt>
      <trkpt lat="46.53111" lon="5.44111">
        <ele>390.9</ele>
        <time>2019-04-29T11:22:00Z</time>
      </trkpt>
      <trkpt lat="46.53117" lon="5.44149">
        <ele>392</ele>
        <time>2019-04-29T11:23:00Z</time>
      </trkpt>
      <trkpt lat="46.53106" lon="5.44169">
        <ele>399</ele>
        <time>2019-04-29T11:24:00Z</time>
      </trkpt>
      <trkpt lat="46.53078" lon="5.44205">
        <ele>402</ele>
        <time>2019-04-29T11:25:00Z</time>
      </trkpt>
      <trkpt lat="46.53018" lon="5.4426">
        <ele>399</ele>
        <time>2019-04-29T11:26:00Z</time>
      </trkpt>
      <trkpt lat="46.52991" lon="5.44346">
        <ele>398</ele>
        <time>2019-04-29T11:27:00Z</time>
      </trkpt>
      <trkpt lat="46.52974" lon="5.44421">
        <ele>401</ele>
        <time>2019-04-29T11:28:00Z</time>
      </trkpt>
      <trkpt lat="46.52967" lon="5.44477">
        <ele>403</ele>
        <time>2019-04-29T11:29:00Z</time>
      </trkpt>
      <trkpt lat="46.5301" lon="5.44881">
        <ele>420</ele>
        <time>2019-04-29T11:30:00Z</time>
      </trkpt>
      <trkpt lat="46.52995" lon="5.44928">
        <ele>423</ele>
        <time>2019-04-29T11:31:00Z</time>
      </trkpt>
      <trkpt lat="46.52972" lon="5.44958">
        <ele>426</ele>
        <time>2019-04-29T11:32:00Z</time>
      </trkpt>
      <trkpt lat="46.52794" lon="5.45085">
        <ele>439</ele>
        <time>2019-04-29T11:33:00Z</time>
      </trkpt>
      <trkpt lat="46.52783" lon="5.45105">
        <ele>442</ele>
        <time>2019-04-29T11:34:00Z</time>
      </trkpt>
      <trkpt lat="46.52801" lon="5.4514">
        <ele>445</ele>
        <time>2019-04-29T11:35:00Z</time>
      </trkpt>
      <trkpt lat="46.52941" lon="5.45249">
        <ele>445</ele>
        <time>2019-04-29T11:36:00Z</time>
      </trkpt>
      <trkpt lat="46.52963" lon="5.4526">
        <ele>446</ele>
        <time>2019-04-29T11:37:00Z</time>
      </trkpt>
      <trkpt lat="46.52968" lon="5.45283">
        <ele>446</ele>
        <time>2019-04-29T11:39:00Z</time>
      </trkpt>
      <trkpt lat="46.52964" lon="5.45347">
        <ele>452</ele>
        <time>2019-04-29T11:40:00Z</time>
      </trkpt>
      <trkpt lat="46.52968" lon="5.45449">
        <ele>462</ele>
        <time>2019-04-29T11:41:00Z</time>
      </trkpt>
      <trkpt lat="46.52988" lon="5.45479">
        <ele>464</ele>
        <time>2019-04-29T11:42:00Z</time>
      </trkpt>
      <trkpt lat="46.53059" lon="5.4552">
        <ele>467</ele>
        <time>2019-04-29T11:43:00Z</time>
      </trkpt>
      <trkpt lat="46.53112" lon="5.45554">
        <ele>473</ele>
        <time>2019-04-29T11:44:00Z</time>
      </trkpt>
      <trkpt lat="46.53211" lon="5.45522">
        <ele>473</ele>
        <time>2019-04-29T11:45:00Z</time>
      </trkpt>
      <trkpt lat="46.53278" lon="5.45507">
        <ele>476</ele>
        <time>2019-04-29T11:46:00Z</time>
      </trkpt>
      <trkpt lat="46.53332" lon="5.45531">
        <ele>481</ele>
        <time>2019-04-29T11:49:00Z</time>
      </trkpt>
      <trkpt lat="46.53447" lon="5.4562">
        <ele>489</ele>
        <time>2019-04-29T11:53:00Z</time>
      </trkpt>
      <trkpt lat="46.53561" lon="5.45724">
        <ele>494.4</ele>
        <time>2019-04-29T11:54:00Z</time>
      </trkpt>
      <trkpt lat="46.53577" lon="5.4576">
        <ele>499</ele>
        <time>2019-04-29T11:55:00Z</time>
      </trkpt>
      <trkpt lat="46.5357" lon="5.45783">
        <ele>508</ele>
        <time>2019-04-29T11:56:00Z</time>
      </trkpt>
      <trkpt lat="46.53544" lon="5.45772">
        <ele>510</ele>
        <time>2019-04-29T11:57:00Z</time>
      </trkpt>
      <trkpt lat="46.53471" lon="5.45726">
        <ele>511</ele>
        <time>2019-04-29T11:58:00Z</time>
      </trkpt>
      <trkpt lat="46.53439" lon="5.45713">
        <ele>512</ele>
        <time>2019-04-29T11:59:00Z</time>
      </trkpt>
      <trkpt lat="46.53324" lon="5.45711">
        <ele>519</ele>
        <time>2019-04-29T12:00:00Z</time>
      </trkpt>
      <trkpt lat="46.53199" lon="5.45742">
        <ele>525</ele>
        <time>2019-04-29T12:02:00Z</time>
      </trkpt>
      <trkpt lat="46.53084" lon="5.45744">
        <ele>531</ele>
        <time>2019-04-29T12:03:00Z</time>
      </trkpt>
      <trkpt lat="46.52936" lon="5.45751">
        <ele>541.9</ele>
        <time>2019-04-29T12:04:00Z</time>
      </trkpt>
      <trkpt lat="46.52834" lon="5.45742">
        <ele>542.3</ele>
        <time>2019-04-29T12:05:00Z</time>
      </trkpt>
      <trkpt lat="46.52815" lon="5.45777">
        <ele>548</ele>
        <time>2019-04-29T12:06:00Z</time>
      </trkpt>
      <trkpt lat="46.52795" lon="5.45801">
        <ele>550</ele>
        <time>2019-04-29T12:07:00Z</time>
      </trkpt>
      <trkpt lat="46.52776" lon="5.45856">
        <ele>549.3</ele>
        <time>2019-04-29T12:08:00Z</time>
      </trkpt>
      <trkpt lat="46.52787" lon="5.45934">
        <ele>539.1</ele>
        <time>2019-04-29T12:11:00Z</time>
      </trkpt>
      <trkpt lat="46.52817" lon="5.45981">
        <ele>533.7</ele>
        <time>2019-04-29T12:12:00Z</time>
      </trkpt>
      <trkpt lat="46.5287" lon="5.46016">
        <ele>527</ele>
        <time>2019-04-29T12:13:00Z</time>
      </trkpt>
      <trkpt lat="46.52913" lon="5.46036">
        <ele>523</ele>
        <time>2019-04-29T12:14:00Z</time>
      </trkpt>
      <trkpt lat="46.52955" lon="5.46069">
        <ele>522</ele>
        <time>2019-04-29T12:15:00Z</time>
      </trkpt>
      <trkpt lat="46.5305" lon="5.46141">
        <ele>512</ele>
        <time>2019-04-29T12:16:00Z</time>
      </trkpt>
      <trkpt lat="46.53121" lon="5.46177">
        <ele>509</ele>
        <time>2019-04-29T12:17:00Z</time>
      </trkpt>
      <trkpt lat="46.53174" lon="5.46211">
        <ele>505</ele>
        <time>2019-04-29T12:18:00Z</time>
      </trkpt>
      <trkpt lat="46.5326" lon="5.46292">
        <ele>497</ele>
        <time>2019-04-29T12:19:00Z</time>
      </trkpt>
      <trkpt lat="46.53347" lon="5.46353">
        <ele>491</ele>
        <time>2019-04-29T12:20:00Z</time>
      </trkpt>
      <trkpt lat="46.5336" lon="5.46372">
        <ele>488</ele>
        <time>2019-04-29T12:21:00Z</time>
      </trkpt>
      <trkpt lat="46.53346" lon="5.46377">
        <ele>487.4</ele>
        <time>2019-04-29T12:22:00Z</time>
      </trkpt>
      <trkpt lat="46.53312" lon="5.46359">
        <ele>486</ele>
        <time>2019-04-29T12:23:00Z</time>
      </trkpt>
      <trkpt lat="46.53135" lon="5.46389">
        <ele>470</ele>
        <time>2019-04-29T12:24:00Z</time>
      </trkpt>
      <trkpt lat="46.52998" lon="5.46405">
        <ele>459</ele>
        <time>2019-04-29T12:25:00Z</time>
      </trkpt>
      <trkpt lat="46.52946" lon="5.46404">
        <ele>456</ele>
        <time>2019-04-29T12:26:00Z</time>
      </trkpt>
      <trkpt lat="46.52903" lon="5.46397">
        <ele>456</ele>
        <time>2019-04-29T12:27:00Z</time>
      </trkpt>
      <trkpt lat="46.52888" lon="5.46417">
        <ele>453</ele>
        <time>2019-04-29T12:30:00Z</time>
      </trkpt>
      <trkpt lat="46.52879" lon="5.4655">
        <ele>447</ele>
        <time>2019-04-29T12:31:00Z</time>
      </trkpt>
      <trkpt lat="46.52868" lon="5.46598">
        <ele>451</ele>
        <time>2019-04-29T12:32:00Z</time>
      </trkpt>
      <trkpt lat="46.52837" lon="5.46619">
        <ele>452.6</ele>
        <time>2019-04-29T12:34:00Z</time>
      </trkpt>
      <trkpt lat="46.52814" lon="5.46631">
        <ele>454.7</ele>
        <time>2019-04-29T12:36:00Z</time>
      </trkpt>
      <trkpt lat="46.52797" lon="5.46634">
        <ele>456</ele>
        <time>2019-04-29T12:37:00Z</time>
      </trkpt>
      <trkpt lat="46.52779" lon="5.46641">
        <ele>457</ele>
        <time>2019-04-29T12:38:00Z</time>
      </trkpt>
      <trkpt lat="46.52776" lon="5.46652">
        <ele>459</ele>
        <time>2019-04-29T12:39:00Z</time>
      </trkpt>
      <trkpt lat="46.52801" lon="5.4667">
        <ele>461</ele>
        <time>2019-04-29T12:40:00Z</time>
      </trkpt>
      <trkpt lat="46.52895" lon="5.46725">
        <ele>467</ele>
        <time>2019-04-29T12:41:00Z</time>
      </trkpt>
      <trkpt lat="46.5295" lon="5.46794">
        <ele>474</ele>
        <time>2019-04-29T12:42:00Z</time>
      </trkpt>
      <trkpt lat="46.52988" lon="5.46827">
        <ele>476</ele>
        <time>2019-04-29T12:43:00Z</time>
      </trkpt>
      <trkpt lat="46.53014" lon="5.4686">
        <ele>478</ele>
        <time>2019-04-29T12:45:00Z</time>
      </trkpt>
      <trkpt lat="46.53015" lon="5.46908">
        <ele>480</ele>
        <time>2019-04-29T12:46:00Z</time>
      </trkpt>
      <trkpt lat="46.52996" lon="5.46993">
        <ele>477</ele>
        <time>2019-04-29T12:47:00Z</time>
      </trkpt>
      <trkpt lat="46.52981" lon="5.4708">
        <ele>471</ele>
        <time>2019-04-29T12:48:00Z</time>
      </trkpt>
      <trkpt lat="46.52963" lon="5.47162">
        <ele>468</ele>
        <time>2019-04-29T12:49:00Z</time>
      </trkpt>
      <trkpt lat="46.52966" lon="5.47188">
        <ele>466</ele>
        <time>2019-04-29T12:50:00Z</time>
      </trkpt>
      <trkpt lat="46.52995" lon="5.47204">
        <ele>465</ele>
        <time>2019-04-29T12:51:00Z</time>
      </trkpt>
      <trkpt lat="46.53065" lon="5.47236">
        <ele>464</ele>
        <time>2019-04-29T12:52:00Z</time>
      </trkpt>
      <trkpt lat="46.53099" lon="5.47249">
        <ele>463</ele>
        <time>2019-04-29T12:53:00Z</time>
      </trkpt>
      <trkpt lat="46.53133" lon="5.47283">
        <ele>459</ele>
        <time>2019-04-29T12:54:00Z</time>
      </trkpt>
      <trkpt lat="46.53188" lon="5.47299">
        <ele>458.5</ele>
        <time>2019-04-29T12:55:00Z</time>
      </trkpt>
      <trkpt lat="46.53187" lon="5.4733">
        <ele>455.6</ele>
        <time>2019-04-29T12:56:00Z</time>
      </trkpt>
      <trkpt lat="46.53146" lon="5.47326">
        <ele>452</ele>
        <time>2019-04-29T12:57:00Z</time>
      </trkpt>
      <trkpt lat="46.53115" lon="5.47328">
        <ele>452</ele>
        <time>2019-04-29T12:58:00Z</time>
      </trkpt>
      <trkpt lat="46.53" lon="5.47406">
        <ele>442</ele>
        <time>2019-04-29T12:59:00Z</time>
      </trkpt>
      <trkpt lat="46.5295" lon="5.47433">
        <ele>439.6</ele>
        <time>2019-04-29T13:00:00Z</time>
      </trkpt>
      <trkpt lat="46.52938" lon="5.47485">
        <ele>437</ele>
        <time>2019-04-29T13:01:00Z</time>
      </trkpt>
      <trkpt lat="46.52938" lon="5.47695">
        <ele>439</ele>
        <time>2019-04-29T13:02:00Z</time>
      </trkpt>
      <trkpt lat="46.52901" lon="5.47848">
        <ele>443</ele>
        <time>2019-04-29T13:03:00Z</time>
      </trkpt>
      <trkpt lat="46.52852" lon="5.48024">
        <ele>450</ele>
        <time>2019-04-29T13:05:00Z</time>
      </trkpt>
      <trkpt lat="46.52827" lon="5.48109">
        <ele>453</ele>
        <time>2019-04-29T13:07:00Z</time>
      </trkpt>
      <trkpt lat="46.52807" lon="5.48144">
        <ele>455</ele>
        <time>2019-04-29T13:08:00Z</time>
      </trkpt>
      <trkpt lat="46.5278" lon="5.48157">
        <ele>456</ele>
        <time>2019-04-29T13:09:00Z</time>
      </trkpt>
      <trkpt lat="46.52584" lon="5.48112">
        <ele>464</ele>
        <time>2019-04-29T13:10:00Z</time>
      </trkpt>
      <trkpt lat="46.52532" lon="5.48105">
        <ele>466</ele>
        <time>2019-04-29T13:11:00Z</time>
      </trkpt>
      <trkpt lat="46.52444" lon="5.48128">
        <ele>475</ele>
        <time>2019-04-29T13:12:00Z</time>
      </trkpt>
      <trkpt lat="46.52352" lon="5.48159">
        <ele>483</ele>
        <time>2019-04-29T13:13:00Z</time>
      </trkpt>
      <trkpt lat="46.52351" lon="5.48175">
        <ele>493</ele>
        <time>2019-04-29T13:14:00Z</time>
      </trkpt>
      <trkpt lat="46.52397" lon="5.4818">
        <ele>495.5</ele>
        <time>2019-04-29T13:15:00Z</time>
      </trkpt>
      <trkpt lat="46.52455" lon="5.48187">
        <ele>492</ele>
        <time>2019-04-29T13:16:00Z</time>
      </trkpt>
      <trkpt lat="46.52529" lon="5.48227">
        <ele>497</ele>
        <time>2019-04-29T13:17:00Z</time>
      </trkpt>
      <trkpt lat="46.52575" lon="5.48268">
        <ele>498</ele>
        <time>2019-04-29T13:18:00Z</time>
      </trkpt>
      <trkpt lat="46.52601" lon="5.4832">
        <ele>500</ele>
        <time>2019-04-29T13:19:00Z</time>
      </trkpt>
      <trkpt lat="46.52612" lon="5.48425">
        <ele>511</ele>
        <time>2019-04-29T13:20:00Z</time>
      </trkpt>
      <trkpt lat="46.52632" lon="5.48478">
        <ele>505</ele>
        <time>2019-04-29T13:21:00Z</time>
      </trkpt>
      <trkpt lat="46.52644" lon="5.48524">
        <ele>503</ele>
        <time>2019-04-29T13:22:00Z</time>
      </trkpt>
      <trkpt lat="46.52622" lon="5.48556">
        <ele>505</ele>
        <time>2019-04-29T13:23:00Z</time>
      </trkpt>
      <trkpt lat="46.52603" lon="5.48599">
        <ele>504</ele>
        <time>2019-04-29T13:24:00Z</time>
      </trkpt>
      <trkpt lat="46.52588" lon="5.48689">
        <ele>504</ele>
        <time>2019-04-29T13:25:00Z</time>
      </trkpt>
      <trkpt lat="46.52569" lon="5.48764">
        <ele>505</ele>
        <time>2019-04-29T13:26:00Z</time>
      </trkpt>
      <trkpt lat="46.52564" lon="5.4882">
        <ele>504</ele>
        <time>2019-04-29T13:27:00Z</time>
      </trkpt>
      <trkpt lat="46.52567" lon="5.48895">
        <ele>504</ele>
        <time>2019-04-29T13:28:00Z</time>
      </trkpt>
      <trkpt lat="46.52588" lon="5.49011">
        <ele>505</ele>
        <time>2019-04-29T13:29:00Z</time>
      </trkpt>
      <trkpt lat="46.52612" lon="5.49069">
        <ele>504</ele>
        <time>2019-04-29T13:30:00Z</time>
      </trkpt>
      <trkpt lat="46.52656" lon="5.49133">
        <ele>503</ele>
        <time>2019-04-29T13:31:00Z</time>
      </trkpt>
      <trkpt lat="46.52866" lon="5.49444">
        <ele>499</ele>
        <time>2019-04-29T13:32:00Z</time>
      </trkpt>
      <trkpt lat="46.52976" lon="5.49579">
        <ele>498</ele>
        <time>2019-04-29T13:33:00Z</time>
      </trkpt>
      <trkpt lat="46.53004" lon="5.4962">
        <ele>498</ele>
        <time>2019-04-29T13:34:00Z</time>
      </trkpt>
      <trkpt lat="46.53032" lon="5.49669">
        <ele>494</ele>
        <time>2019-04-29T13:35:00Z</time>
      </trkpt>
      <trkpt lat="46.53254" lon="5.50111">
        <ele>504</ele>
        <time>2019-04-29T13:36:00Z</time>
      </trkpt>
      <trkpt lat="46.53816" lon="5.51249">
        <ele>532.4</ele>
        <time>2019-04-29T13:37:00Z</time>
      </trkpt>
      <trkpt lat="46.54022" lon="5.51482">
        <ele>522</ele>
        <time>2019-04-29T13:38:00Z</time>
      </trkpt>
      <trkpt lat="46.54232" lon="5.51734">
        <ele>526</ele>
        <time>2019-04-29T13:39:00Z</time>
      </trkpt>
      <trkpt lat="46.54294" lon="5.51767">
        <ele>526.1</ele>
        <time>2019-04-29T13:40:00Z</time>
      </trkpt>
      <trkpt lat="46.54336" lon="5.51784">
        <ele>524</ele>
        <time>2019-04-29T13:41:00Z</time>
      </trkpt>
      <trkpt lat="46.54362" lon="5.51811">
        <ele>525</ele>
        <time>2019-04-29T13:42:00Z</time>
      </trkpt>
      <trkpt lat="46.54424" lon="5.51882">
        <ele>519</ele>
        <time>2019-04-29T13:44:00Z</time>
      </trkpt>
      <trkpt lat="46.5459" lon="5.5206">
        <ele>515</ele>
        <time>2019-04-29T13:46:00Z</time>
      </trkpt>
      <trkpt lat="46.54647" lon="5.52118">
        <ele>510</ele>
        <time>2019-04-29T13:47:00Z</time>
      </trkpt>
      <trkpt lat="46.54786" lon="5.52186">
        <ele>502</ele>
        <time>2019-04-29T13:48:00Z</time>
      </trkpt>
      <trkpt lat="46.54841" lon="5.52227">
        <ele>498</ele>
        <time>2019-04-29T13:49:00Z</time>
      </trkpt>
      <trkpt lat="46.54951" lon="5.52281">
        <ele>492</ele>
        <time>2019-04-29T13:50:00Z</time>
      </trkpt>
      <trkpt lat="46.54994" lon="5.52313">
        <ele>491</ele>
        <time>2019-04-29T13:52:00Z</time>
      </trkpt>
      <trkpt lat="46.55017" lon="5.52365">
        <ele>488</ele>
        <time>2019-04-29T13:53:00Z</time>
      </trkpt>
      <trkpt lat="46.55044" lon="5.52444">
        <ele>484</ele>
        <time>2019-04-29T13:54:00Z</time>
      </trkpt>
      <trkpt lat="46.55075" lon="5.52539">
        <ele>481</ele>
        <time>2019-04-29T13:55:00Z</time>
      </trkpt>
      <trkpt lat="46.55096" lon="5.52614">
        <ele>478</ele>
        <time>2019-04-29T13:56:00Z</time>
      </trkpt>
      <trkpt lat="46.55085" lon="5.52667">
        <ele>476</ele>
        <time>2019-04-29T13:58:00Z</time>
      </trkpt>
      <trkpt lat="46.55042" lon="5.52768">
        <ele>479</ele>
        <time>2019-04-29T13:59:00Z</time>
      </trkpt>
      <trkpt lat="46.55016" lon="5.52811">
        <ele>479</ele>
        <time>2019-04-29T14:00:00Z</time>
      </trkpt>
      <trkpt lat="46.54988" lon="5.52845">
        <ele>479</ele>
        <time>2019-04-29T14:01:00Z</time>
      </trkpt>
      <trkpt lat="46.54963" lon="5.52903">
        <ele>478</ele>
        <time>2019-04-29T14:02:00Z</time>
      </trkpt>
      <trkpt lat="46.54944" lon="5.52985">
        <ele>479</ele>
        <time>2019-04-29T14:03:00Z</time>
      </trkpt>
      <trkpt lat="46.54885" lon="5.53122">
        <ele>483</ele>
        <time>2019-04-29T14:04:00Z</time>
      </trkpt>
      <trkpt lat="46.54827" lon="5.53167">
        <ele>485</ele>
        <time>2019-04-29T14:05:00Z</time>
      </trkpt>
      <trkpt lat="46.54777" lon="5.53195">
        <ele>488</ele>
        <time>2019-04-29T14:06:00Z</time>
      </trkpt>
      <trkpt lat="46.54744" lon="5.53199">
        <ele>489</ele>
        <time>2019-04-29T14:07:00Z</time>
      </trkpt>
      <trkpt lat="46.54659" lon="5.53193">
        <ele>492</ele>
        <time>2019-04-29T14:08:00Z</time>
      </trkpt>
      <trkpt lat="46.54615" lon="5.53212">
        <ele>496</ele>
        <time>2019-04-29T14:09:00Z</time>
      </trkpt>
      <trkpt lat="46.54555" lon="5.53232">
        <ele>500</ele>
        <time>2019-04-29T14:10:00Z</time>
      </trkpt>
      <trkpt lat="46.54409" lon="5.53266">
        <ele>509</ele>
        <time>2019-04-29T14:12:00Z</time>
      </trkpt>
      <trkpt lat="46.54384" lon="5.53281">
        <ele>508</ele>
        <time>2019-04-29T14:13:00Z</time>
      </trkpt>
      <trkpt lat="46.54368" lon="5.53311">
        <ele>509</ele>
        <time>2019-04-29T14:15:00Z</time>
      </trkpt>
      <trkpt lat="46.54353" lon="5.53373">
        <ele>516</ele>
        <time>2019-04-29T14:17:00Z</time>
      </trkpt>
      <trkpt lat="46.54337" lon="5.5342">
        <ele>522</ele>
        <time>2019-04-29T14:23:00Z</time>
      </trkpt>
      <trkpt lat="46.54303" lon="5.53459">
        <ele>520</ele>
        <time>2019-04-29T14:24:00Z</time>
      </trkpt>
      <trkpt lat="46.54259" lon="5.53571">
        <ele>529</ele>
        <time>2019-04-29T14:25:00Z</time>
      </trkpt>
      <trkpt lat="46.54228" lon="5.53633">
        <ele>528</ele>
        <time>2019-04-29T14:26:00Z</time>
      </trkpt>
      <trkpt lat="46.54207" lon="5.53682">
        <ele>527</ele>
        <time>2019-04-29T14:27:00Z</time>
      </trkpt>
      <trkpt lat="46.54201" lon="5.5376">
        <ele>528</ele>
        <time>2019-04-29T14:28:00Z</time>
      </trkpt>
      <trkpt lat="46.54198" lon="5.53948">
        <ele>529</ele>
        <time>2019-04-29T14:29:00Z</time>
      </trkpt>
      <trkpt lat="46.54032" lon="5.54549">
        <ele>539.7</ele>
        <time>2019-04-29T14:30:00Z</time>
      </trkpt>
      <trkpt lat="46.53986" lon="5.54704">
        <ele>540</ele>
        <time>2019-04-29T14:31:00Z</time>
      </trkpt>
      <trkpt lat="46.5395" lon="5.5476">
        <ele>537</ele>
        <time>2019-04-29T14:32:00Z</time>
      </trkpt>
      <trkpt lat="46.53926" lon="5.54775">
        <ele>537</ele>
        <time>2019-04-29T14:33:00Z</time>
      </trkpt>
      <trkpt lat="46.53847" lon="5.54805">
        <ele>535</ele>
        <time>2019-04-29T14:34:00Z</time>
      </trkpt>
      <trkpt lat="46.53785" lon="5.54822">
        <ele>532</ele>
        <time>2019-04-29T14:38:00Z</time>
      </trkpt>
      <trkpt lat="46.53744" lon="5.54815">
        <ele>531</ele>
        <time>2019-04-29T14:39:00Z</time>
      </trkpt>
      <trkpt lat="46.53524" lon="5.54742">
        <ele>527</ele>
        <time>2019-04-29T14:40:00Z</time>
      </trkpt>
      <trkpt lat="46.53242" lon="5.54654">
        <ele>521</ele>
        <time>2019-04-29T14:41:00Z</time>
      </trkpt>
      <trkpt lat="46.53174" lon="5.54641">
        <ele>520.3</ele>
        <time>2019-04-29T14:43:00Z</time>
      </trkpt>
      <trkpt lat="46.53119" lon="5.54631">
        <ele>516</ele>
        <time>2019-04-29T14:44:00Z</time>
      </trkpt>
      <trkpt lat="46.52865" lon="5.54611">
        <ele>507</ele>
        <time>2019-04-29T14:45:00Z</time>
      </trkpt>
      <trkpt lat="46.52799" lon="5.54609">
        <ele>501</ele>
        <time>2019-04-29T14:47:00Z</time>
      </trkpt>
      <trkpt lat="46.52764" lon="5.54605">
        <ele>501</ele>
        <time>2019-04-29T14:49:00Z</time>
      </trkpt>
      <trkpt lat="46.52741" lon="5.54614">
        <ele>498</ele>
        <time>2019-04-29T14:51:00Z</time>
      </trkpt>
      <trkpt lat="46.52728" lon="5.54624">
        <ele>496</ele>
        <time>2019-04-29T14:53:00Z</time>
      </trkpt>
      <trkpt lat="46.52724" lon="5.54684">
        <ele>492</ele>
        <time>2019-04-29T14:54:00Z</time>
      </trkpt>
      <trkpt lat="46.52476" lon="5.57867">
        <ele>480</ele>
        <time>2019-04-29T14:55:00Z</time>
      </trkpt>
      <trkpt lat="46.52265" lon="5.60645">
        <ele>503.5</ele>
        <time>2019-04-29T14:56:00Z</time>
      </trkpt>
      <trkpt lat="46.52254" lon="5.60683">
        <ele>506</ele>
        <time>2019-04-29T14:57:00Z</time>
      </trkpt>
      <trkpt lat="46.52238" lon="5.60699">
        <ele>507</ele>
        <time>2019-04-29T14:58:00Z</time>
      </trkpt>
      <trkpt lat="46.52188" lon="5.60718">
        <ele>508</ele>
        <time>2019-04-29T15:00:00Z</time>
      </trkpt>
      <trkpt lat="46.52168" lon="5.60719">
        <ele>508</ele>
        <time>2019-04-29T15:02:00Z</time>
      </trkpt>
      <trkpt lat="46.52157" lon="5.60739">
        <ele>509</ele>
        <time>2019-04-29T15:03:00Z</time>
      </trkpt>
      <trkpt lat="46.52158" lon="5.60795">
        <ele>511</ele>
        <time>2019-04-29T15:04:00Z</time>
      </trkpt>
      <trkpt lat="46.52148" lon="5.60879">
        <ele>510</ele>
        <time>2019-04-29T15:05:00Z</time>
      </trkpt>
      <trkpt lat="46.52133" lon="5.60975">
        <ele>508</ele>
        <time>2019-04-29T15:06:00Z</time>
      </trkpt>
      <trkpt lat="46.52086" lon="5.61048">
        <ele>507</ele>
        <time>2019-04-29T15:07:00Z</time>
      </trkpt>
      <trkpt lat="46.52079" lon="5.61072">
        <ele>507</ele>
        <time>2019-04-29T15:08:00Z</time>
      </trkpt>
      <trkpt lat="46.52091" lon="5.61121">
        <ele>508</ele>
        <time>2019-04-29T15:09:00Z</time>
      </trkpt>
      <trkpt lat="46.52096" lon="5.61294">
        <ele>505</ele>
        <time>2019-04-29T15:10:00Z</time>
      </trkpt>
      <trkpt lat="46.52111" lon="5.61387">
        <ele>499</ele>
        <time>2019-04-29T15:11:00Z</time>
      </trkpt>
      <trkpt lat="46.52137" lon="5.61431">
        <ele>498</ele>
        <time>2019-04-29T15:12:00Z</time>
      </trkpt>
      <trkpt lat="46.52166" lon="5.61464">
        <ele>498</ele>
        <time>2019-04-29T15:13:00Z</time>
      </trkpt>
      <trkpt lat="46.5222" lon="5.6152">
        <ele>501</ele>
        <time>2019-04-29T15:14:00Z</time>
      </trkpt>
      <trkpt lat="46.52334" lon="5.61628">
        <ele>500</ele>
        <time>2019-04-29T15:15:00Z</time>
      </trkpt>
      <trkpt lat="46.52357" lon="5.61677">
        <ele>496</ele>
        <time>2019-04-29T15:16:00Z</time>
      </trkpt>
      <trkpt lat="46.52375" lon="5.61763">
        <ele>491</ele>
        <time>2019-04-29T15:17:00Z</time>
      </trkpt>
      <trkpt lat="46.52393" lon="5.61929">
        <ele>485.7</ele>
        <time>2019-04-29T15:19:00Z</time>
      </trkpt>
      <trkpt lat="46.52377" lon="5.62147">
        <ele>486</ele>
        <time>2019-04-29T15:20:00Z</time>
      </trkpt>
      <trkpt lat="46.5237" lon="5.62334">
        <ele>488</ele>
        <time>2019-04-29T15:21:00Z</time>
      </trkpt>
      <trkpt lat="46.52384" lon="5.62421">
        <ele>492</ele>
        <time>2019-04-29T15:22:00Z</time>
      </trkpt>
      <trkpt lat="46.52374" lon="5.62438">
        <ele>492.6</ele>
        <time>2019-04-29T15:24:00Z</time>
      </trkpt>
      <trkpt lat="46.52367" lon="5.62457">
        <ele>493</ele>
        <time>2019-04-29T15:25:00Z</time>
      </trkpt>
      <trkpt lat="46.52375" lon="5.62548">
        <ele>494</ele>
        <time>2019-04-29T15:26:00Z</time>
      </trkpt>
      <trkpt lat="46.52372" lon="5.62597">
        <ele>493.1</ele>
        <time>2019-04-29T15:27:00Z</time>
      </trkpt>
      <trkpt lat="46.52349" lon="5.62662">
        <ele>491</ele>
        <time>2019-04-29T15:28:00Z</time>
      </trkpt>
      <trkpt lat="46.5231" lon="5.62699">
        <ele>486.7</ele>
        <time>2019-04-29T15:31:00Z</time>
      </trkpt>
      <trkpt lat="46.52277" lon="5.62709">
        <ele>485</ele>
        <time>2019-04-29T15:34:00Z</time>
      </trkpt>
      <trkpt lat="46.52218" lon="5.62707">
        <ele>479.9</ele>
        <time>2019-04-29T15:35:00Z</time>
      </trkpt>
      <trkpt lat="46.52154" lon="5.62705">
        <ele>480.3</ele>
        <time>2019-04-29T15:42:00Z</time>
      </trkpt>
      <trkpt lat="46.52122" lon="5.62707">
        <ele>481</ele>
        <time>2019-04-29T15:44:00Z</time>
      </trkpt>
      <trkpt lat="46.52092" lon="5.62731">
        <ele>481.8</ele>
        <time>2019-04-29T15:45:00Z</time>
      </trkpt>
      <trkpt lat="46.51918" lon="5.62987">
        <ele>476.9</ele>
        <time>2019-04-29T15:49:00Z</time>
      </trkpt>
      <trkpt lat="46.51897" lon="5.63008">
        <ele>477</ele>
        <time>2019-04-29T15:50:00Z</time>
      </trkpt>
      <trkpt lat="46.51802" lon="5.63056">
        <ele>473.6</ele>
        <time>2019-04-29T15:51:00Z</time>
      </trkpt>
      <trkpt lat="46.51768" lon="5.63097">
        <ele>473</ele>
        <time>2019-04-29T15:52:00Z</time>
      </trkpt>
      <trkpt lat="46.51736" lon="5.63146">
        <ele>467.2</ele>
        <time>2019-04-29T15:53:00Z</time>
      </trkpt>
      <trkpt lat="46.51642" lon="5.63446">
        <ele>459.8</ele>
        <time>2019-04-29T15:56:00Z</time>
      </trkpt>
      <trkpt lat="46.5163" lon="5.63513">
        <ele>457</ele>
        <time>2019-04-29T16:00:00Z</time>
      </trkpt>
      <trkpt lat="46.5163" lon="5.63563">
        <ele>456</ele>
        <time>2019-04-29T16:01:00Z</time>
      </trkpt>
      <trkpt lat="46.51655" lon="5.63641">
        <ele>454</ele>
        <time>2019-04-29T16:02:00Z</time>
      </trkpt>
      <trkpt lat="46.51674" lon="5.63707">
        <ele>456</ele>
        <time>2019-04-29T16:07:00Z</time>
      </trkpt>
      <trkpt lat="46.51671" lon="5.63769">
        <ele>458</ele>
        <time>2019-04-29T16:09:00Z</time>
      </trkpt>
      <trkpt lat="46.51659" lon="5.6384">
        <ele>456</ele>
        <time>2019-04-29T16:17:00Z</time>
      </trkpt>
      <trkpt lat="46.51649" lon="5.63908">
        <ele>458</ele>
        <time>2019-04-29T16:24:00Z</time>
      </trkpt>
      <trkpt lat="46.51643" lon="5.63971">
        <ele>459</ele>
        <time>2019-04-29T16:31:00Z</time>
      </trkpt>
      <trkpt lat="46.5164" lon="5.64042">
        <ele>459</ele>
        <time>2019-04-29T16:34:00Z</time>
      </trkpt>
      <trkpt lat="46.51612" lon="5.64075">
        <ele>457</ele>
        <time>2019-04-29T16:35:00Z</time>
      </trkpt>
      <trkpt lat="46.51573" lon="5.64088">
        <ele>455</ele>
        <time>2019-04-29T16:36:00Z</time>
      </trkpt>
      <trkpt lat="46.51515" lon="5.64108">
        <ele>452</ele>
        <time>2019-04-29T16:38:00Z</time>
      </trkpt>
      <trkpt lat="46.51468" lon="5.64164">
        <ele>450</ele>
        <time>2019-04-29T16:39:00Z</time>
      </trkpt>
      <trkpt lat="46.51393" lon="5.64271">
        <ele>447</ele>
        <time>2019-04-29T16:41:00Z</time>
      </trkpt>
      <trkpt lat="46.51272" lon="5.64437">
        <ele>445</ele>
        <time>2019-04-29T16:42:00Z</time>
      </trkpt>
      <trkpt lat="46.50884" lon="5.64971">
        <ele>447</ele>
        <time>2019-04-29T16:46:00Z</time>
      </trkpt>
      <trkpt lat="46.504" lon="5.65633">
        <ele>462.1</ele>
        <time>2019-04-29T16:47:00Z</time>
      </trkpt>
      <trkpt lat="46.50374" lon="5.65644">
        <ele>465</ele>
        <time>2019-04-29T16:48:00Z</time>
      </trkpt>
      <trkpt lat="46.50347" lon="5.65638">
        <ele>470</ele>
        <time>2019-04-29T16:49:00Z</time>
      </trkpt>
      <trkpt lat="46.50306" lon="5.65604">
        <ele>476</ele>
        <time>2019-04-29T16:50:00Z</time>
      </trkpt>
      <trkpt lat="46.50273" lon="5.65572">
        <ele>469.4</ele>
        <time>2019-04-29T16:53:00Z</time>
      </trkpt>
      <trkpt lat="46.50248" lon="5.65552">
        <ele>473</ele>
        <time>2019-04-29T16:57:00Z</time>
      </trkpt>
      <trkpt lat="46.50212" lon="5.65557">
        <ele>478</ele>
        <time>2019-04-29T16:58:00Z</time>
      </trkpt>
      <trkpt lat="46.50082" lon="5.65471">
        <ele>484</ele>
        <time>2019-04-29T16:59:00Z</time>
      </trkpt>
      <trkpt lat="46.5003" lon="5.65444">
        <ele>487.6</ele>
        <time>2019-04-29T17:00:00Z</time>
      </trkpt>
      <trkpt lat="46.49992" lon="5.65411">
        <ele>482</ele>
        <time>2019-04-29T17:01:00Z</time>
      </trkpt>
      <trkpt lat="46.4993" lon="5.65387">
        <ele>486</ele>
        <time>2019-04-29T17:02:00Z</time>
      </trkpt>
      <trkpt lat="46.49896" lon="5.65383">
        <ele>489</ele>
        <time>2019-04-29T17:04:00Z</time>
      </trkpt>
      <trkpt lat="46.49871" lon="5.65387">
        <ele>493</ele>
        <time>2019-04-29T17:05:00Z</time>
      </trkpt>
      <trkpt lat="46.49843" lon="5.65374">
        <ele>493</ele>
        <time>2019-04-29T17:07:00Z</time>
      </trkpt>
      <trkpt lat="46.49815" lon="5.65376">
        <ele>494</ele>
        <time>2019-04-29T17:08:00Z</time>
      </trkpt>
      <trkpt lat="46.49794" lon="5.65395">
        <ele>496</ele>
        <time>2019-04-29T17:09:00Z</time>
      </trkpt>
      <trkpt lat="46.49728" lon="5.65401">
        <ele>498</ele>
        <time>2019-04-29T17:10:00Z</time>
      </trkpt>
      <trkpt lat="46.49703" lon="5.65418">
        <ele>514.4</ele>
        <time>2019-04-29T17:13:00Z</time>
      </trkpt>
      <trkpt lat="46.49681" lon="5.6542">
        <ele>511.6</ele>
        <time>2019-04-29T17:15:00Z</time>
      </trkpt>
      <trkpt lat="46.49625" lon="5.65418">
        <ele>516</ele>
        <time>2019-04-29T17:16:00Z</time>
      </trkpt>
      <trkpt lat="46.49573" lon="5.6543">
        <ele>512</ele>
        <time>2019-04-29T17:17:00Z</time>
      </trkpt>
      <trkpt lat="46.49539" lon="5.65438">
        <ele>517.3</ele>
        <time>2019-04-29T17:25:00Z</time>
      </trkpt>
      <trkpt lat="46.49471" lon="5.65436">
        <ele>510</ele>
        <time>2019-04-29T17:26:00Z</time>
      </trkpt>
      <trkpt lat="46.49438" lon="5.65454">
        <ele>513</ele>
        <time>2019-04-29T17:32:00Z</time>
      </trkpt>
      <trkpt lat="46.49405" lon="5.65509">
        <ele>522</ele>
        <time>2019-04-29T17:33:00Z</time>
      </trkpt>
      <trkpt lat="46.49373" lon="5.65548">
        <ele>525</ele>
        <time>2019-04-29T17:39:00Z</time>
      </trkpt>
      <trkpt lat="46.49332" lon="5.65576">
        <ele>522</ele>
        <time>2019-04-29T17:40:00Z</time>
      </trkpt>
      <trkpt lat="46.49299" lon="5.65606">
        <ele>524</ele>
        <time>2019-04-29T17:41:00Z</time>
      </trkpt>
      <trkpt lat="46.4927" lon="5.65635">
        <ele>526</ele>
        <time>2019-04-29T17:44:00Z</time>
      </trkpt>
      <trkpt lat="46.4924" lon="5.65664">
        <ele>527</ele>
        <time>2019-04-29T17:46:00Z</time>
      </trkpt>
      <trkpt lat="46.49187" lon="5.657">
        <ele>528</ele>
        <time>2019-04-29T17:49:00Z</time>
      </trkpt>
      <trkpt lat="46.49162" lon="5.65705">
        <ele>528</ele>
        <time>2019-04-29T17:50:00Z</time>
      </trkpt>
      <trkpt lat="46.49138" lon="5.65685">
        <ele>526</ele>
        <time>2019-04-29T17:52:00Z</time>
      </trkpt>
      <trkpt lat="46.49097" lon="5.65668">
        <ele>525</ele>
        <time>2019-04-29T17:53:00Z</time>
      </trkpt>
      <trkpt lat="46.49053" lon="5.65673">
        <ele>527</ele>
        <time>2019-04-29T17:54:00Z</time>
      </trkpt>
      <trkpt lat="46.48964" lon="5.65688">
        <ele>535</ele>
        <time>2019-04-29T17:55:00Z</time>
      </trkpt>
      <trkpt lat="46.48886" lon="5.65653">
        <ele>535</ele>
        <time>2019-04-29T17:56:00Z</time>
      </trkpt>
      <trkpt lat="46.48832" lon="5.6564">
        <ele>537</ele>
        <time>2019-04-29T17:57:00Z</time>
      </trkpt>
      <trkpt lat="46.48791" lon="5.65625">
        <ele>537</ele>
        <time>2019-04-29T17:59:00Z</time>
      </trkpt>
      <trkpt lat="46.48772" lon="5.65608">
        <ele>536</ele>
        <time>2019-04-29T18:04:00Z</time>
      </trkpt>
      <trkpt lat="46.48745" lon="5.65604">
        <ele>537</ele>
        <time>2019-04-29T18:05:00Z</time>
      </trkpt>
      <trkpt lat="46.48704" lon="5.65613">
        <ele>544.6</ele>
        <time>2019-04-29T18:06:00Z</time>
      </trkpt>
      <trkpt lat="46.48674" lon="5.65606">
        <ele>547</ele>
        <time>2019-04-29T18:07:00Z</time>
      </trkpt>
      <trkpt lat="46.48636" lon="5.65587">
        <ele>552</ele>
        <time>2019-04-29T18:08:00Z</time>
      </trkpt>
      <trkpt lat="46.48578" lon="5.65531">
        <ele>552</ele>
        <time>2019-04-29T18:09:00Z</time>
      </trkpt>
      <trkpt lat="46.48552" lon="5.65518">
        <ele>551</ele>
        <time>2019-04-29T18:10:00Z</time>
      </trkpt>
      <trkpt lat="46.48478" lon="5.65555">
        <ele>561.5</ele>
        <time>2019-04-29T18:11:00Z</time>
      </trkpt>
      <trkpt lat="46.48447" lon="5.65552">
        <ele>562</ele>
        <time>2019-04-29T18:12:00Z</time>
      </trkpt>
      <trkpt lat="46.48407" lon="5.65552">
        <ele>563</ele>
        <time>2019-04-29T18:14:00Z</time>
      </trkpt>
      <trkpt lat="46.48388" lon="5.65576">
        <ele>564</ele>
        <time>2019-04-29T18:16:00Z</time>
      </trkpt>
      <trkpt lat="46.48371" lon="5.65582">
        <ele>566</ele>
        <time>2019-04-29T18:17:00Z</time>
      </trkpt>
      <trkpt lat="46.4834" lon="5.65567">
        <ele>566</ele>
        <time>2019-04-29T18:18:00Z</time>
      </trkpt>
      <trkpt lat="46.4833" lon="5.65537">
        <ele>566</ele>
        <time>2019-04-29T18:25:00Z</time>
      </trkpt>
      <trkpt lat="46.48332" lon="5.65513">
        <ele>567</ele>
        <time>2019-04-29T18:26:00Z</time>
      </trkpt>
      <trkpt lat="46.48321" lon="5.65488">
        <ele>567.9</ele>
        <time>2019-04-29T18:28:00Z</time>
      </trkpt>
      <trkpt lat="46.48297" lon="5.65475">
        <ele>570</ele>
        <time>2019-04-29T18:31:00Z</time>
      </trkpt>
      <trkpt lat="46.4827" lon="5.65467">
        <ele>572</ele>
        <time>2019-04-29T18:32:00Z</time>
      </trkpt>
      <trkpt lat="46.4821" lon="5.65441">
        <ele>580</ele>
        <time>2019-04-29T18:37:00Z</time>
      </trkpt>
      <trkpt lat="46.48141" lon="5.65429">
        <ele>584</ele>
        <time>2019-04-29T18:40:00Z</time>
      </trkpt>
      <trkpt lat="46.48012" lon="5.65396">
        <ele>582</ele>
        <time>2019-04-29T18:46:00Z</time>
      </trkpt>
      <trkpt lat="46.47963" lon="5.65392">
        <ele>579</ele>
        <time>2019-04-29T18:50:00Z</time>
      </trkpt>
      <trkpt lat="46.47897" lon="5.65346">
        <ele>574.6</ele>
        <time>2019-04-29T18:53:00Z</time>
      </trkpt>
      <trkpt lat="46.47868" lon="5.6533">
        <ele>578</ele>
        <time>2019-04-29T18:54:00Z</time>
      </trkpt>
      <trkpt lat="46.47841" lon="5.65329">
        <ele>574</ele>
        <time>2019-04-29T19:00:00Z</time>
      </trkpt>
      <trkpt lat="46.4781" lon="5.65364">
        <ele>572</ele>
        <time>2019-04-29T19:02:00Z</time>
      </trkpt>
      <trkpt lat="46.47768" lon="5.65409">
        <ele>571.5</ele>
        <time>2019-04-29T19:03:00Z</time>
      </trkpt>
      <trkpt lat="46.47735" lon="5.65425">
        <ele>573</ele>
        <time>2019-04-29T19:04:00Z</time>
      </trkpt>
      <trkpt lat="46.47698" lon="5.6546">
        <ele>574.7</ele>
        <time>2019-04-29T19:05:00Z</time>
      </trkpt>
      <trkpt lat="46.47644" lon="5.65511">
        <ele>576.5</ele>
        <time>2019-04-29T19:06:00Z</time>
      </trkpt>
      <trkpt lat="46.47601" lon="5.65541">
        <ele>577</ele>
        <time>2019-04-29T19:07:00Z</time>
      </trkpt>
      <trkpt lat="46.47563" lon="5.6555">
        <ele>574.7</ele>
        <time>2019-04-29T19:13:00Z</time>
      </trkpt>
      <trkpt lat="46.47528" lon="5.65529">
        <ele>572.6</ele>
        <time>2019-04-29T19:14:00Z</time>
      </trkpt>
      <trkpt lat="46.47495" lon="5.65517">
        <ele>570</ele>
        <time>2019-04-29T19:19:00Z</time>
      </trkpt>
      <trkpt lat="46.47461" lon="5.65517">
        <ele>570.7</ele>
        <time>2019-04-29T19:20:00Z</time>
      </trkpt>
      <trkpt lat="46.47423" lon="5.65539">
        <ele>571</ele>
        <time>2019-04-29T19:22:00Z</time>
      </trkpt>
      <trkpt lat="46.47401" lon="5.65549">
        <ele>570</ele>
        <time>2019-04-29T19:29:00Z</time>
      </trkpt>
      <trkpt lat="46.4738" lon="5.65575">
        <ele>569.7</ele>
        <time>2019-04-29T19:30:00Z</time>
      </trkpt>
      <trkpt lat="46.47358" lon="5.65617">
        <ele>571</ele>
        <time>2019-04-29T19:32:00Z</time>
      </trkpt>
      <trkpt lat="46.47339" lon="5.65647">
        <ele>570</ele>
        <time>2019-04-29T19:33:00Z</time>
      </trkpt>
      <trkpt lat="46.47314" lon="5.65662">
        <ele>570.4</ele>
        <time>2019-04-29T19:34:00Z</time>
      </trkpt>
      <trkpt lat="46.47285" lon="5.65656">
        <ele>570.6</ele>
        <time>2019-04-29T19:35:00Z</time>
      </trkpt>
      <trkpt lat="46.47253" lon="5.65631">
        <ele>570.1</ele>
        <time>2019-04-29T19:37:00Z</time>
      </trkpt>
      <trkpt lat="46.4723" lon="5.65615">
        <ele>572</ele>
        <time>2019-04-29T19:38:00Z</time>
      </trkpt>
      <trkpt lat="46.47201" lon="5.65606">
        <ele>571</ele>
        <time>2019-04-29T19:39:00Z</time>
      </trkpt>
      <trkpt lat="46.47144" lon="5.65604">
        <ele>574</ele>
        <time>2019-04-29T19:40:00Z</time>
      </trkpt>
      <trkpt lat="46.46994" lon="5.65587">
        <ele>576</ele>
        <time>2019-04-29T19:41:00Z</time>
      </trkpt>
      <trkpt lat="46.46888" lon="5.65604">
        <ele>576</ele>
        <time>2019-04-29T19:42:00Z</time>
      </trkpt>
      <trkpt lat="46.46792" lon="5.6561">
        <ele>574</ele>
        <time>2019-04-29T19:51:00Z</time>
      </trkpt>
      <trkpt lat="46.46661" lon="5.65638">
        <ele>573.9</ele>
        <time>2019-04-29T19:57:00Z</time>
      </trkpt>
      <trkpt lat="46.46551" lon="5.65649">
        <ele>573.6</ele>
        <time>2019-04-29T19:58:00Z</time>
      </trkpt>
      <trkpt lat="46.46508" lon="5.65647">
        <ele>575</ele>
        <time>2019-04-29T19:59:00Z</time>
      </trkpt>
      <trkpt lat="46.46445" lon="5.65603">
        <ele>574.9</ele>
        <time>2019-04-29T20:01:00Z</time>
      </trkpt>
      <trkpt lat="46.46393" lon="5.65599">
        <ele>575</ele>
        <time>2019-04-29T20:04:00Z</time>
      </trkpt>
      <trkpt lat="46.46345" lon="5.65585">
        <ele>573.1</ele>
        <time>2019-04-29T20:06:00Z</time>
      </trkpt>
      <trkpt lat="46.46328" lon="5.65563">
        <ele>570</ele>
        <time>2019-04-29T20:07:00Z</time>
      </trkpt>
      <trkpt lat="46.46311" lon="5.65528">
        <ele>569.4</ele>
        <time>2019-04-29T20:08:00Z</time>
      </trkpt>
      <trkpt lat="46.46291" lon="5.65492">
        <ele>569</ele>
        <time>2019-04-29T20:09:00Z</time>
      </trkpt>
      <trkpt lat="46.46257" lon="5.65479">
        <ele>569</ele>
        <time>2019-04-29T20:11:00Z</time>
      </trkpt>
      <trkpt lat="46.46218" lon="5.65475">
        <ele>569</ele>
        <time>2019-04-29T20:19:00Z</time>
      </trkpt>
      <trkpt lat="46.46022" lon="5.65454">
        <ele>573</ele>
        <time>2019-04-29T20:30:00Z</time>
      </trkpt>
      <trkpt lat="46.45977" lon="5.65444">
        <ele>574.4</ele>
        <time>2019-04-29T20:31:00Z</time>
      </trkpt>
      <trkpt lat="46.4593" lon="5.65406">
        <ele>575.8</ele>
        <time>2019-04-29T20:33:00Z</time>
      </trkpt>
      <trkpt lat="46.4585" lon="5.65383">
        <ele>577</ele>
        <time>2019-04-29T20:36:00Z</time>
      </trkpt>
      <trkpt lat="46.45738" lon="5.65378">
        <ele>582.2</ele>
        <time>2019-04-29T20:37:00Z</time>
      </trkpt>
      <trkpt lat="46.45677" lon="5.65381">
        <ele>585</ele>
        <time>2019-04-29T20:38:00Z</time>
      </trkpt>
      <trkpt lat="46.45606" lon="5.65364">
        <ele>586</ele>
        <time>2019-04-29T20:40:00Z</time>
      </trkpt>
      <trkpt lat="46.45586" lon="5.65357">
        <ele>587</ele>
        <time>2019-04-29T20:41:00Z</time>
      </trkpt>
      <trkpt lat="46.45565" lon="5.65336">
        <ele>587.6</ele>
        <time>2019-04-29T20:43:00Z</time>
      </trkpt>
      <trkpt lat="46.45531" lon="5.65336">
        <ele>588</ele>
        <time>2019-04-29T20:45:00Z</time>
      </trkpt>
      <trkpt lat="46.45485" lon="5.65363">
        <ele>587.5</ele>
        <time>2019-04-29T20:47:00Z</time>
      </trkpt>
      <trkpt lat="46.45435" lon="5.654">
        <ele>589</ele>
        <time>2019-04-29T20:50:00Z</time>
      </trkpt>
      <trkpt lat="46.45357" lon="5.65409">
        <ele>589</ele>
        <time>2019-04-29T20:51:00Z</time>
      </trkpt>
      <trkpt lat="46.45287" lon="5.65428">
        <ele>591</ele>
        <time>2019-04-29T20:55:00Z</time>
      </trkpt>
      <trkpt lat="46.45222" lon="5.65439">
        <ele>590</ele>
        <time>2019-04-29T21:03:00Z</time>
      </trkpt>
      <trkpt lat="46.45124" lon="5.65484">
        <ele>589</ele>
        <time>2019-04-29T21:04:00Z</time>
      </trkpt>
      <trkpt lat="46.45043" lon="5.65514">
        <ele>586</ele>
        <time>2019-04-29T21:07:00Z</time>
      </trkpt>
      <trkpt lat="46.44993" lon="5.65522">
        <ele>583</ele>
        <time>2019-04-29T21:08:00Z</time>
      </trkpt>
      <trkpt lat="46.44873" lon="5.65552">
        <ele>577</ele>
        <time>2019-04-29T21:09:00Z</time>
      </trkpt>
      <trkpt lat="46.44835" lon="5.65567">
        <ele>576.2</ele>
        <time>2019-04-29T21:11:00Z</time>
      </trkpt>
      <trkpt lat="46.4477" lon="5.65558">
        <ele>572.5</ele>
        <time>2019-04-29T21:12:00Z</time>
      </trkpt>
      <trkpt lat="46.44696" lon="5.65544">
        <ele>571.2</ele>
        <time>2019-04-29T21:13:00Z</time>
      </trkpt>
      <trkpt lat="46.44593" lon="5.65519">
        <ele>571</ele>
        <time>2019-04-29T21:14:00Z</time>
      </trkpt>
      <trkpt lat="46.44492" lon="5.65497">
        <ele>568.6</ele>
        <time>2019-04-29T21:16:00Z</time>
      </trkpt>
      <trkpt lat="46.44437" lon="5.6549">
        <ele>564.2</ele>
        <time>2019-04-29T21:17:00Z</time>
      </trkpt>
      <trkpt lat="46.44313" lon="5.65467">
        <ele>558.5</ele>
        <time>2019-04-29T21:20:00Z</time>
      </trkpt>
      <trkpt lat="46.44239" lon="5.65425">
        <ele>553.3</ele>
        <time>2019-04-29T21:22:00Z</time>
      </trkpt>
      <trkpt lat="46.44208" lon="5.65415">
        <ele>547</ele>
        <time>2019-04-29T21:24:00Z</time>
      </trkpt>
      <trkpt lat="46.44171" lon="5.65427">
        <ele>550.3</ele>
        <time>2019-04-29T21:25:00Z</time>
      </trkpt>
      <trkpt lat="46.44146" lon="5.65443">
        <ele>549</ele>
        <time>2019-04-29T21:26:00Z</time>
      </trkpt>
      <trkpt lat="46.44125" lon="5.65468">
        <ele>550.1</ele>
        <time>2019-04-29T21:27:00Z</time>
      </trkpt>
      <trkpt lat="46.44101" lon="5.65479">
        <ele>550</ele>
        <time>2019-04-29T21:31:00Z</time>
      </trkpt>
      <trkpt lat="46.44075" lon="5.65475">
        <ele>548.9</ele>
        <time>2019-04-29T21:35:00Z</time>
      </trkpt>
      <trkpt lat="46.4402" lon="5.65435">
        <ele>548.6</ele>
        <time>2019-04-29T21:37:00Z</time>
      </trkpt>
      <trkpt lat="46.43951" lon="5.65396">
        <ele>554</ele>
        <time>2019-04-29T21:41:00Z</time>
      </trkpt>
      <trkpt lat="46.43911" lon="5.65362">
        <ele>563.1</ele>
        <time>2019-04-29T21:42:00Z</time>
      </trkpt>
      <trkpt lat="46.43884" lon="5.65325">
        <ele>556</ele>
        <time>2019-04-29T21:43:00Z</time>
      </trkpt>
      <trkpt lat="46.43862" lon="5.65301">
        <ele>556</ele>
        <time>2019-04-29T21:44:00Z</time>
      </trkpt>
      <trkpt lat="46.43841" lon="5.65284">
        <ele>554.6</ele>
        <time>2019-04-29T21:45:00Z</time>
      </trkpt>
      <trkpt lat="46.43786" lon="5.65253">
        <ele>565.9</ele>
        <time>2019-04-29T21:47:00Z</time>
      </trkpt>
      <trkpt lat="46.4375" lon="5.6523">
        <ele>564</ele>
        <time>2019-04-29T21:48:00Z</time>
      </trkpt>
      <trkpt lat="46.43714" lon="5.65197">
        <ele>561.4</ele>
        <time>2019-04-29T21:50:00Z</time>
      </trkpt>
      <trkpt lat="46.43677" lon="5.65186">
        <ele>560.8</ele>
        <time>2019-04-29T21:51:00Z</time>
      </trkpt>
      <trkpt lat="46.43622" lon="5.65179">
        <ele>564</ele>
        <time>2019-04-29T21:52:00Z</time>
      </trkpt>
      <trkpt lat="46.43565" lon="5.65173">
        <ele>564.5</ele>
        <time>2019-04-29T21:56:00Z</time>
      </trkpt>
      <trkpt lat="46.43464" lon="5.6516">
        <ele>561.5</ele>
        <time>2019-04-29T21:57:00Z</time>
      </trkpt>
      <trkpt lat="46.433" lon="5.65132">
        <ele>573</ele>
        <time>2019-04-29T21:59:00Z</time>
      </trkpt>
      <trkpt lat="46.43149" lon="5.65075">
        <ele>573</ele>
        <time>2019-04-29T22:02:00Z</time>
      </trkpt>
      <trkpt lat="46.43072" lon="5.65047">
        <ele>575</ele>
        <time>2019-04-29T22:05:00Z</time>
      </trkpt>
      <trkpt lat="46.42998" lon="5.65019">
        <ele>574.5</ele>
        <time>2019-04-29T22:06:00Z</time>
      </trkpt>
      <trkpt lat="46.42945" lon="5.65005">
        <ele>576</ele>
        <time>2019-04-29T22:07:00Z</time>
      </trkpt>
      <trkpt lat="46.42892" lon="5.64999">
        <ele>571</ele>
        <time>2019-04-29T22:17:00Z</time>
      </trkpt>
      <trkpt lat="46.42787" lon="5.64982">
        <ele>574.9</ele>
        <time>2019-04-29T22:18:00Z</time>
      </trkpt>
      <trkpt lat="46.4268" lon="5.64945">
        <ele>578</ele>
        <time>2019-04-29T22:19:00Z</time>
      </trkpt>
      <trkpt lat="46.42597" lon="5.64938">
        <ele>579</ele>
        <time>2019-04-29T22:20:00Z</time>
      </trkpt>
      <trkpt lat="46.42512" lon="5.64937">
        <ele>584</ele>
        <time>2019-04-29T22:21:00Z</time>
      </trkpt>
      <trkpt lat="46.42457" lon="5.64924">
        <ele>589</ele>
        <time>2019-04-29T22:22:00Z</time>
      </trkpt>
      <trkpt lat="46.42418" lon="5.64928">
        <ele>592.7</ele>
        <time>2019-04-29T22:26:00Z</time>
      </trkpt>
      <trkpt lat="46.42396" lon="5.64932">
        <ele>595</ele>
        <time>2019-04-29T22:30:00Z</time>
      </trkpt>
      <trkpt lat="46.42374" lon="5.64933">
        <ele>595</ele>
        <time>2019-04-29T22:36:00Z</time>
      </trkpt>
      <trkpt lat="46.42355" lon="5.64933">
        <ele>595</ele>
        <time>2019-04-29T22:37:00Z</time>
      </trkpt>
      <trkpt lat="46.42337" lon="5.64943">
        <ele>595</ele>
        <time>2019-04-29T22:39:00Z</time>
      </trkpt>
      <trkpt lat="46.42312" lon="5.64959">
        <ele>595</ele>
        <time>2019-04-29T22:46:00Z</time>
      </trkpt>
      <trkpt lat="46.42288" lon="5.64973">
        <ele>593</ele>
        <time>2019-04-29T22:48:00Z</time>
      </trkpt>
      <trkpt lat="46.42246" lon="5.64984">
        <ele>591</ele>
        <time>2019-04-29T22:50:00Z</time>
      </trkpt>
      <trkpt lat="46.42209" lon="5.64988">
        <ele>591.5</ele>
        <time>2019-04-29T22:53:00Z</time>
      </trkpt>
      <trkpt lat="46.42099" lon="5.64979">
        <ele>580</ele>
        <time>2019-04-29T22:54:00Z</time>
      </trkpt>
      <trkpt lat="46.42009" lon="5.64956">
        <ele>575</ele>
        <time>2019-04-29T22:55:00Z</time>
      </trkpt>
      <trkpt lat="46.41983" lon="5.6495">
        <ele>572</ele>
        <time>2019-04-29T22:56:00Z</time>
      </trkpt>
      <trkpt lat="46.41967" lon="5.64938">
        <ele>572</ele>
        <time>2019-04-29T22:59:00Z</time>
      </trkpt>
      <trkpt lat="46.41951" lon="5.64934">
        <ele>574</ele>
        <time>2019-04-29T23:01:00Z</time>
      </trkpt>
      <trkpt lat="46.41876" lon="5.64932">
        <ele>568</ele>
        <time>2019-04-29T23:02:00Z</time>
      </trkpt>
      <trkpt lat="46.41803" lon="5.64925">
        <ele>559.1</ele>
        <time>2019-04-29T23:03:00Z</time>
      </trkpt>
      <trkpt lat="46.41742" lon="5.649">
        <ele>559</ele>
        <time>2019-04-29T23:04:00Z</time>
      </trkpt>
      <trkpt lat="46.4168" lon="5.64887">
        <ele>556</ele>
        <time>2019-04-29T23:07:00Z</time>
      </trkpt>
      <trkpt lat="46.41621" lon="5.64887">
        <ele>554</ele>
        <time>2019-04-29T23:10:00Z</time>
      </trkpt>
      <trkpt lat="46.41595" lon="5.64891">
        <ele>552</ele>
        <time>2019-04-29T23:12:00Z</time>
      </trkpt>
      <trkpt lat="46.41562" lon="5.64902">
        <ele>547</ele>
        <time>2019-04-29T23:13:00Z</time>
      </trkpt>
      <trkpt lat="46.41509" lon="5.64891">
        <ele>547</ele>
        <time>2019-04-29T23:18:00Z</time>
      </trkpt>
      <trkpt lat="46.41465" lon="5.64892">
        <ele>546</ele>
        <time>2019-04-29T23:19:00Z</time>
      </trkpt>
      <trkpt lat="46.41426" lon="5.649">
        <ele>542</ele>
        <time>2019-04-29T23:22:00Z</time>
      </trkpt>
      <trkpt lat="46.41378" lon="5.64916">
        <ele>541.1</ele>
        <time>2019-04-29T23:24:00Z</time>
      </trkpt>
      <trkpt lat="46.41314" lon="5.64901">
        <ele>538.2</ele>
        <time>2019-04-29T23:26:00Z</time>
      </trkpt>
      <trkpt lat="46.41264" lon="5.64903">
        <ele>537</ele>
        <time>2019-04-29T23:28:00Z</time>
      </trkpt>
      <trkpt lat="46.41152" lon="5.64885">
        <ele>535</ele>
        <time>2019-04-29T23:30:00Z</time>
      </trkpt>
      <trkpt lat="46.41036" lon="5.64858">
        <ele>532</ele>
        <time>2019-04-29T23:31:00Z</time>
      </trkpt>
      <trkpt lat="46.40927" lon="5.64839">
        <ele>524.6</ele>
        <time>2019-04-29T23:32:00Z</time>
      </trkpt>
      <trkpt lat="46.40889" lon="5.64837">
        <ele>521</ele>
        <time>2019-04-29T23:35:00Z</time>
      </trkpt>
      <trkpt lat="46.40852" lon="5.64839">
        <ele>518.2</ele>
        <time>2019-04-29T23:38:00Z</time>
      </trkpt>
      <trkpt lat="46.40819" lon="5.64838">
        <ele>515</ele>
        <time>2019-04-29T23:41:00Z</time>
      </trkpt>
      <trkpt lat="46.40788" lon="5.64834">
        <ele>514</ele>
        <time>2019-04-29T23:45:00Z</time>
      </trkpt>
      <trkpt lat="46.40723" lon="5.64835">
        <ele>512.1</ele>
        <time>2019-04-29T23:47:00Z</time>
      </trkpt>
      <trkpt lat="46.40677" lon="5.64835">
        <ele>512</ele>
        <time>2019-04-29T23:48:00Z</time>
      </trkpt>
      <trkpt lat="46.40624" lon="5.64844">
        <ele>513</ele>
        <time>2019-04-29T23:51:00Z</time>
      </trkpt>
      <trkpt lat="46.40556" lon="5.64859">
        <ele>513</ele>
        <time>2019-04-29T23:53:00Z</time>
      </trkpt>
      <trkpt lat="46.4053" lon="5.64862">
        <ele>512</ele>
        <time>2019-04-29T23:56:00Z</time>
      </trkpt>
      <trkpt lat="46.40489" lon="5.64857">
        <ele>512</ele>
        <time>2019-04-29T23:57:00Z</time>
      </trkpt>
      <trkpt lat="46.40432" lon="5.64846">
        <ele>515</ele>
        <time>2019-04-30T00:00:00Z</time>
      </trkpt>
      <trkpt lat="46.404" lon="5.64846">
        <ele>515</ele>
        <time>2019-04-30T00:06:00Z</time>
      </trkpt>
      <trkpt lat="46.40369" lon="5.64855">
        <ele>516</ele>
        <time>2019-04-30T00:11:00Z</time>
      </trkpt>
      <trkpt lat="46.40347" lon="5.64882">
        <ele>515</ele>
        <time>2019-04-30T00:13:00Z</time>
      </trkpt>
      <trkpt lat="46.40327" lon="5.64943">
        <ele>515</ele>
        <time>2019-04-30T00:20:00Z</time>
      </trkpt>
      <trkpt lat="46.40309" lon="5.64998">
        <ele>516</ele>
        <time>2019-04-30T00:21:00Z</time>
      </trkpt>
      <trkpt lat="46.40297" lon="5.65023">
        <ele>515</ele>
        <time>2019-04-30T00:22:00Z</time>
      </trkpt>
      <trkpt lat="46.40287" lon="5.65059">
        <ele>515.1</ele>
        <time>2019-04-30T00:23:00Z</time>
      </trkpt>
      <trkpt lat="46.40273" lon="5.65132">
        <ele>513</ele>
        <time>2019-04-30T00:24:00Z</time>
      </trkpt>
      <trkpt lat="46.40263" lon="5.65192">
        <ele>512</ele>
        <time>2019-04-30T00:25:00Z</time>
      </trkpt>
      <trkpt lat="46.40259" lon="5.65261">
        <ele>511</ele>
        <time>2019-04-30T00:26:00Z</time>
      </trkpt>
      <trkpt lat="46.40236" lon="5.65338">
        <ele>511</ele>
        <time>2019-04-30T00:27:00Z</time>
      </trkpt>
      <trkpt lat="46.40208" lon="5.65376">
        <ele>510</ele>
        <time>2019-04-30T00:28:00Z</time>
      </trkpt>
      <trkpt lat="46.4018" lon="5.6543">
        <ele>508</ele>
        <time>2019-04-30T00:31:00Z</time>
      </trkpt>
      <trkpt lat="46.40075" lon="5.65557">
        <ele>507</ele>
        <time>2019-04-30T00:32:00Z</time>
      </trkpt>
      <trkpt lat="46.40026" lon="5.65627">
        <ele>510</ele>
        <time>2019-04-30T00:33:00Z</time>
      </trkpt>
      <trkpt lat="46.40008" lon="5.65652">
        <ele>509</ele>
        <time>2019-04-30T00:34:00Z</time>
      </trkpt>
      <trkpt lat="46.39993" lon="5.65693">
        <ele>509</ele>
        <time>2019-04-30T00:35:00Z</time>
      </trkpt>
      <trkpt lat="46.39975" lon="5.65761">
        <ele>506.8</ele>
        <time>2019-04-30T00:37:00Z</time>
      </trkpt>
      <trkpt lat="46.39958" lon="5.65793">
        <ele>506</ele>
        <time>2019-04-30T00:40:00Z</time>
      </trkpt>
      <trkpt lat="46.39937" lon="5.65818">
        <ele>504</ele>
        <time>2019-04-30T00:41:00Z</time>
      </trkpt>
      <trkpt lat="46.39891" lon="5.65862">
        <ele>498.2</ele>
        <time>2019-04-30T00:42:00Z</time>
      </trkpt>
      <trkpt lat="46.39878" lon="5.6588">
        <ele>497</ele>
        <time>2019-04-30T00:50:00Z</time>
      </trkpt>
      <trkpt lat="46.39866" lon="5.65909">
        <ele>494</ele>
        <time>2019-04-30T00:51:00Z</time>
      </trkpt>
      <trkpt lat="46.39854" lon="5.66003">
        <ele>489</ele>
        <time>2019-04-30T00:56:00Z</time>
      </trkpt>
      <trkpt lat="46.3985" lon="5.66061">
        <ele>489</ele>
        <time>2019-04-30T00:57:00Z</time>
      </trkpt>
      <trkpt lat="46.39852" lon="5.66112">
        <ele>489</ele>
        <time>2019-04-30T00:58:00Z</time>
      </trkpt>
      <trkpt lat="46.39872" lon="5.6618">
        <ele>494</ele>
        <time>2019-04-30T01:00:00Z</time>
      </trkpt>
      <trkpt lat="46.39896" lon="5.66227">
        <ele>494.8</ele>
        <time>2019-04-30T01:02:00Z</time>
      </trkpt>
      <trkpt lat="46.39966" lon="5.66389">
        <ele>488.9</ele>
        <time>2019-04-30T01:03:00Z</time>
      </trkpt>
      <trkpt lat="46.4002" lon="5.66486">
        <ele>490</ele>
        <time>2019-04-30T01:05:00Z</time>
      </trkpt>
      <trkpt lat="46.40084" lon="5.66579">
        <ele>494</ele>
        <time>2019-04-30T01:10:00Z</time>
      </trkpt>
      <trkpt lat="46.40166" lon="5.66701">
        <ele>476.2</ele>
        <time>2019-04-30T01:11:00Z</time>
      </trkpt>
      <trkpt lat="46.40195" lon="5.66741">
        <ele>484</ele>
        <time>2019-04-30T01:14:00Z</time>
      </trkpt>
      <trkpt lat="46.40221" lon="5.66771">
        <ele>480.4</ele>
        <time>2019-04-30T01:18:00Z</time>
      </trkpt>
      <trkpt lat="46.40251" lon="5.66789">
        <ele>489</ele>
        <time>2019-04-30T01:19:00Z</time>
      </trkpt>
      <trkpt lat="46.40278" lon="5.66796">
        <ele>488.9</ele>
        <time>2019-04-30T01:21:00Z</time>
      </trkpt>
      <trkpt lat="46.40303" lon="5.66796">
        <ele>490</ele>
        <time>2019-04-30T01:22:00Z</time>
      </trkpt>
      <trkpt lat="46.40327" lon="5.66829">
        <ele>490</ele>
        <time>2019-04-30T01:23:00Z</time>
      </trkpt>
      <trkpt lat="46.40327" lon="5.66876">
        <ele>484</ele>
        <time>2019-04-30T01:25:00Z</time>
      </trkpt>
      <trkpt lat="46.40305" lon="5.66899">
        <ele>477.6</ele>
        <time>2019-04-30T01:26:00Z</time>
      </trkpt>
      <trkpt lat="46.4029" lon="5.66898">
        <ele>476</ele>
        <time>2019-04-30T01:29:00Z</time>
      </trkpt>
      <trkpt lat="46.40265" lon="5.66881">
        <ele>475.2</ele>
        <time>2019-04-30T01:30:00Z</time>
      </trkpt>
      <trkpt lat="46.40205" lon="5.66816">
        <ele>474</ele>
        <time>2019-04-30T01:31:00Z</time>
      </trkpt>
      <trkpt lat="46.40146" lon="5.66755">
        <ele>462.7</ele>
        <time>2019-04-30T01:33:00Z</time>
      </trkpt>
      <trkpt lat="46.40052" lon="5.66654">
        <ele>468.2</ele>
        <time>2019-04-30T01:34:00Z</time>
      </trkpt>
      <trkpt lat="46.40018" lon="5.66616">
        <ele>466</ele>
        <time>2019-04-30T01:35:00Z</time>
      </trkpt>
      <trkpt lat="46.39986" lon="5.66593">
        <ele>456</ele>
        <time>2019-04-30T01:36:00Z</time>
      </trkpt>
      <trkpt lat="46.39948" lon="5.66557">
        <ele>450</ele>
        <time>2019-04-30T01:37:00Z</time>
      </trkpt>
      <trkpt lat="46.39908" lon="5.66474">
        <ele>446.8</ele>
        <time>2019-04-30T01:41:00Z</time>
      </trkpt>
      <trkpt lat="46.39873" lon="5.6642">
        <ele>447</ele>
        <time>2019-04-30T01:42:00Z</time>
      </trkpt>
      <trkpt lat="46.39838" lon="5.66374">
        <ele>456.3</ele>
        <time>2019-04-30T01:43:00Z</time>
      </trkpt>
      <trkpt lat="46.39717" lon="5.66249">
        <ele>437.2</ele>
        <time>2019-04-30T01:44:00Z</time>
      </trkpt>
      <trkpt lat="46.39693" lon="5.6623">
        <ele>429</ele>
        <time>2019-04-30T01:45:00Z</time>
      </trkpt>
      <trkpt lat="46.39672" lon="5.66189">
        <ele>428.9</ele>
        <time>2019-04-30T01:47:00Z</time>
      </trkpt>
      <trkpt lat="46.39669" lon="5.66148">
        <ele>431</ele>
        <time>2019-04-30T01:52:00Z</time>
      </trkpt>
      <trkpt lat="46.39671" lon="5.66112">
        <ele>433.8</ele>
        <time>2019-04-30T01:53:00Z</time>
      </trkpt>
      <trkpt lat="46.3966" lon="5.66073">
        <ele>420</ele>
        <time>2019-04-30T01:54:00Z</time>
      </trkpt>
      <trkpt lat="46.39624" lon="5.66015">
        <ele>417</ele>
        <time>2019-04-30T01:59:00Z</time>
      </trkpt>
      <trkpt lat="46.39588" lon="5.65966">
        <ele>415</ele>
        <time>2019-04-30T02:00:00Z</time>
      </trkpt>
      <trkpt lat="46.39557" lon="5.65917">
        <ele>413</ele>
        <time>2019-04-30T02:01:00Z</time>
      </trkpt>
      <trkpt lat="46.39529" lon="5.65863">
        <ele>408</ele>
        <time>2019-04-30T02:02:00Z</time>
      </trkpt>
      <trkpt lat="46.39501" lon="5.6575">
        <ele>402.8</ele>
        <time>2019-04-30T02:03:00Z</time>
      </trkpt>
      <trkpt lat="46.39492" lon="5.65675">
        <ele>397</ele>
        <time>2019-04-30T02:05:00Z</time>
      </trkpt>
      <trkpt lat="46.39497" lon="5.65601">
        <ele>394</ele>
        <time>2019-04-30T02:06:00Z</time>
      </trkpt>
      <trkpt lat="46.39493" lon="5.65534">
        <ele>389.7</ele>
        <time>2019-04-30T02:08:00Z</time>
      </trkpt>
      <trkpt lat="46.39479" lon="5.65411">
        <ele>396</ele>
        <time>2019-04-30T02:10:00Z</time>
      </trkpt>
      <trkpt lat="46.39458" lon="5.65245">
        <ele>390.3</ele>
        <time>2019-04-30T02:16:00Z</time>
      </trkpt>
      <trkpt lat="46.3944" lon="5.65166">
        <ele>386</ele>
        <time>2019-04-30T02:17:00Z</time>
      </trkpt>
      <trkpt lat="46.39355" lon="5.64987">
        <ele>375</ele>
        <time>2019-04-30T02:19:00Z</time>
      </trkpt>
      <trkpt lat="46.39271" lon="5.64817">
        <ele>366.7</ele>
        <time>2019-04-30T02:20:00Z</time>
      </trkpt>
      <trkpt lat="46.39236" lon="5.6474">
        <ele>364.7</ele>
        <time>2019-04-30T02:22:00Z</time>
      </trkpt>
      <trkpt lat="46.39186" lon="5.64722">
        <ele>364</ele>
        <time>2019-04-30T02:25:00Z</time>
      </trkpt>
      <trkpt lat="46.3911" lon="5.64709">
        <ele>361</ele>
        <time>2019-04-30T02:27:00Z</time>
      </trkpt>
      <trkpt lat="46.39043" lon="5.64705">
        <ele>360</ele>
        <time>2019-04-30T02:28:00Z</time>
      </trkpt>
      <trkpt lat="46.38963" lon="5.64717">
        <ele>358.5</ele>
        <time>2019-04-30T02:30:00Z</time>
      </trkpt>
      <trkpt lat="46.38924" lon="5.64724">
        <ele>358</ele>
        <time>2019-04-30T02:32:00Z</time>
      </trkpt>
      <trkpt lat="46.38885" lon="5.64733">
        <ele>356</ele>
        <time>2019-04-30T02:33:00Z</time>
      </trkpt>
      <trkpt lat="46.38876" lon="5.64757">
        <ele>356</ele>
        <time>2019-04-30T02:34:00Z</time>
      </trkpt>
      <trkpt lat="46.38856" lon="5.64782">
        <ele>355</ele>
        <time>2019-04-30T02:35:00Z</time>
      </trkpt>
      <trkpt lat="46.38826" lon="5.64842">
        <ele>352</ele>
        <time>2019-04-30T02:36:00Z</time>
      </trkpt>
      <trkpt lat="46.38807" lon="5.64861">
        <ele>350</ele>
        <time>2019-04-30T02:37:00Z</time>
      </trkpt>
      <trkpt lat="46.38787" lon="5.64868">
        <ele>348</ele>
        <time>2019-04-30T02:38:00Z</time>
      </trkpt>
      <trkpt lat="46.38772" lon="5.64881">
        <ele>348</ele>
        <time>2019-04-30T02:39:00Z</time>
      </trkpt>
      <trkpt lat="46.38759" lon="5.64902">
        <ele>345</ele>
        <time>2019-04-30T02:40:00Z</time>
      </trkpt>
      <trkpt lat="46.38752" lon="5.64959">
        <ele>344.6</ele>
        <time>2019-04-30T02:41:00Z</time>
      </trkpt>
      <trkpt lat="46.38751" lon="5.64988">
        <ele>342</ele>
        <time>2019-04-30T02:42:00Z</time>
      </trkpt>
      <trkpt lat="46.38755" lon="5.65009">
        <ele>340</ele>
        <time>2019-04-30T02:43:00Z</time>
      </trkpt>
      <trkpt lat="46.3877" lon="5.65037">
        <ele>340</ele>
        <time>2019-04-30T02:44:00Z</time>
      </trkpt>
      <trkpt lat="46.38797" lon="5.6505">
        <ele>340.3</ele>
        <time>2019-04-30T02:45:00Z</time>
      </trkpt>
      <trkpt lat="46.38823" lon="5.65057">
        <ele>340</ele>
        <time>2019-04-30T02:46:00Z</time>
      </trkpt>
      <trkpt lat="46.3885" lon="5.65071">
        <ele>343.5</ele>
        <time>2019-04-30T02:47:00Z</time>
      </trkpt>
      <trkpt lat="46.38874" lon="5.65086">
        <ele>341</ele>
        <time>2019-04-30T02:48:00Z</time>
      </trkpt>
      <trkpt lat="46.38891" lon="5.65113">
        <ele>342</ele>
        <time>2019-04-30T02:49:00Z</time>
      </trkpt>
      <trkpt lat="46.3891" lon="5.65162">
        <ele>341</ele>
        <time>2019-04-30T02:50:00Z</time>
      </trkpt>
      <trkpt lat="46.3893" lon="5.65202">
        <ele>343.2</ele>
        <time>2019-04-30T02:51:00Z</time>
      </trkpt>
      <trkpt lat="46.38948" lon="5.6523">
        <ele>343</ele>
        <time>2019-04-30T02:52:00Z</time>
      </trkpt>
      <trkpt lat="46.38957" lon="5.65245">
        <ele>344</ele>
        <time>2019-04-30T02:53:00Z</time>
      </trkpt>
      <trkpt lat="46.38962" lon="5.65269">
        <ele>343</ele>
        <time>2019-04-30T02:54:00Z</time>
      </trkpt>
      <trkpt lat="46.38956" lon="5.65287">
        <ele>342</ele>
        <time>2019-04-30T02:55:00Z</time>
      </trkpt>
      <trkpt lat="46.38935" lon="5.65312">
        <ele>339</ele>
        <time>2019-04-30T02:56:00Z</time>
      </trkpt>
      <trkpt lat="46.38916" lon="5.65334">
        <ele>337</ele>
        <time>2019-04-30T02:57:00Z</time>
      </trkpt>
      <trkpt lat="46.38897" lon="5.65366">
        <ele>342</ele>
        <time>2019-04-30T02:58:00Z</time>
      </trkpt>
      <trkpt lat="46.38894" lon="5.65389">
        <ele>344</ele>
        <time>2019-04-30T02:59:00Z</time>
      </trkpt>
      <trkpt lat="46.38898" lon="5.65424">
        <ele>345</ele>
        <time>2019-04-30T03:00:00Z</time>
      </trkpt>
      <trkpt lat="46.38946" lon="5.65597">
        <ele>355</ele>
        <time>2019-04-30T03:01:00Z</time>
      </trkpt>
      <trkpt lat="46.38961" lon="5.65667">
        <ele>357</ele>
        <time>2019-04-30T03:02:00Z</time>
      </trkpt>
      <trkpt lat="46.38967" lon="5.65709">
        <ele>357</ele>
        <time>2019-04-30T03:03:00Z</time>
      </trkpt>
      <trkpt lat="46.38967" lon="5.65733">
        <ele>357</ele>
        <time>2019-04-30T03:04:00Z</time>
      </trkpt>
      <trkpt lat="46.38958" lon="5.65833">
        <ele>363</ele>
        <time>2019-04-30T03:05:00Z</time>
      </trkpt>
      <trkpt lat="46.38971" lon="5.65886">
        <ele>365</ele>
        <time>2019-04-30T03:06:00Z</time>
      </trkpt>
      <trkpt lat="46.38983" lon="5.65941">
        <ele>366</ele>
        <time>2019-04-30T03:07:00Z</time>
      </trkpt>
      <trkpt lat="46.38969" lon="5.66093">
        <ele>370</ele>
        <time>2019-04-30T03:08:00Z</time>
      </trkpt>
      <trkpt lat="46.38969" lon="5.66138">
        <ele>372</ele>
        <time>2019-04-30T03:09:00Z</time>
      </trkpt>
      <trkpt lat="46.38968" lon="5.66159">
        <ele>372</ele>
        <time>2019-04-30T03:10:00Z</time>
      </trkpt>
      <trkpt lat="46.38962" lon="5.66175">
        <ele>377.1</ele>
        <time>2019-04-30T03:11:00Z</time>
      </trkpt>
      <trkpt lat="46.38935" lon="5.66196">
        <ele>377</ele>
        <time>2019-04-30T03:12:00Z</time>
      </trkpt>
      <trkpt lat="46.38912" lon="5.66218">
        <ele>379</ele>
        <time>2019-04-30T03:13:00Z</time>
      </trkpt>
      <trkpt lat="46.389" lon="5.66234">
        <ele>379</ele>
        <time>2019-04-30T03:14:00Z</time>
      </trkpt>
      <trkpt lat="46.38886" lon="5.66265">
        <ele>386.4</ele>
        <time>2019-04-30T03:15:00Z</time>
      </trkpt>
      <trkpt lat="46.38877" lon="5.66277">
        <ele>387</ele>
        <time>2019-04-30T03:16:00Z</time>
      </trkpt>
      <trkpt lat="46.38854" lon="5.66288">
        <ele>387</ele>
        <time>2019-04-30T03:17:00Z</time>
      </trkpt>
      <trkpt lat="46.38826" lon="5.66303">
        <ele>385</ele>
        <time>2019-04-30T03:18:00Z</time>
      </trkpt>
      <trkpt lat="46.38812" lon="5.66311">
        <ele>384</ele>
        <time>2019-04-30T03:19:00Z</time>
      </trkpt>
      <trkpt lat="46.38805" lon="5.66333">
        <ele>389</ele>
        <time>2019-04-30T03:20:00Z</time>
      </trkpt>
      <trkpt lat="46.38795" lon="5.6635">
        <ele>392</ele>
        <time>2019-04-30T03:21:00Z</time>
      </trkpt>
      <trkpt lat="46.38776" lon="5.66363">
        <ele>391</ele>
        <time>2019-04-30T03:22:00Z</time>
      </trkpt>
      <trkpt lat="46.38768" lon="5.66368">
        <ele>393</ele>
        <time>2019-04-30T03:23:00Z</time>
      </trkpt>
      <trkpt lat="46.38762" lon="5.66384">
        <ele>394</ele>
        <time>2019-04-30T03:24:00Z</time>
      </trkpt>
      <trkpt lat="46.38713" lon="5.6641">
        <ele>389</ele>
        <time>2019-04-30T03:25:00Z</time>
      </trkpt>
      <trkpt lat="46.38647" lon="5.6646">
        <ele>398.5</ele>
        <time>2019-04-30T03:26:00Z</time>
      </trkpt>
      <trkpt lat="46.38614" lon="5.66482">
        <ele>401</ele>
        <time>2019-04-30T03:27:00Z</time>
      </trkpt>
      <trkpt lat="46.38559" lon="5.66496">
        <ele>399.5</ele>
        <time>2019-04-30T03:28:00Z</time>
      </trkpt>
      <trkpt lat="46.38479" lon="5.6653">
        <ele>413</ele>
        <time>2019-04-30T03:29:00Z</time>
      </trkpt>
      <trkpt lat="46.38402" lon="5.66561">
        <ele>412.4</ele>
        <time>2019-04-30T03:30:00Z</time>
      </trkpt>
      <trkpt lat="46.38342" lon="5.66591">
        <ele>420.3</ele>
        <time>2019-04-30T03:31:00Z</time>
      </trkpt>
      <trkpt lat="46.38301" lon="5.66616">
        <ele>418.3</ele>
        <time>2019-04-30T03:32:00Z</time>
      </trkpt>
      <trkpt lat="46.38271" lon="5.66634">
        <ele>418</ele>
        <time>2019-04-30T03:33:00Z</time>
      </trkpt>
      <trkpt lat="46.38246" lon="5.66657">
        <ele>422</ele>
        <time>2019-04-30T03:34:00Z</time>
      </trkpt>
      <trkpt lat="46.38229" lon="5.66689">
        <ele>426.6</ele>
        <time>2019-04-30T03:35:00Z</time>
      </trkpt>
      <trkpt lat="46.38213" lon="5.66724">
        <ele>430</ele>
        <time>2019-04-30T03:36:00Z</time>
      </trkpt>
      <trkpt lat="46.38216" lon="5.6676">
        <ele>436.2</ele>
        <time>2019-04-30T03:37:00Z</time>
      </trkpt>
      <trkpt lat="46.38223" lon="5.66777">
        <ele>437</ele>
        <time>2019-04-30T03:38:00Z</time>
      </trkpt>
      <trkpt lat="46.38237" lon="5.66794">
        <ele>437.6</ele>
        <time>2019-04-30T03:39:00Z</time>
      </trkpt>
      <trkpt lat="46.38286" lon="5.66827">
        <ele>443</ele>
        <time>2019-04-30T03:40:00Z</time>
      </trkpt>
      <trkpt lat="46.38305" lon="5.6684">
        <ele>446</ele>
        <time>2019-04-30T03:41:00Z</time>
      </trkpt>
      <trkpt lat="46.38317" lon="5.66866">
        <ele>448</ele>
        <time>2019-04-30T03:42:00Z</time>
      </trkpt>
      <trkpt lat="46.38317" lon="5.66887">
        <ele>448</ele>
        <time>2019-04-30T03:43:00Z</time>
      </trkpt>
      <trkpt lat="46.38309" lon="5.66909">
        <ele>448.2</ele>
        <time>2019-04-30T03:44:00Z</time>
      </trkpt>
      <trkpt lat="46.38297" lon="5.66923">
        <ele>450</ele>
        <time>2019-04-30T03:45:00Z</time>
      </trkpt>
      <trkpt lat="46.38287" lon="5.66947">
        <ele>450.4</ele>
        <time>2019-04-30T03:46:00Z</time>
      </trkpt>
      <trkpt lat="46.38279" lon="5.66979">
        <ele>450.8</ele>
        <time>2019-04-30T03:47:00Z</time>
      </trkpt>
      <trkpt lat="46.38269" lon="5.67022">
        <ele>452.9</ele>
        <time>2019-04-30T03:48:00Z</time>
      </trkpt>
      <trkpt lat="46.38271" lon="5.67067">
        <ele>453</ele>
        <time>2019-04-30T03:49:00Z</time>
      </trkpt>
      <trkpt lat="46.3829" lon="5.67093">
        <ele>456</ele>
        <time>2019-04-30T03:50:00Z</time>
      </trkpt>
      <trkpt lat="46.38297" lon="5.6714">
        <ele>456.9</ele>
        <time>2019-04-30T03:51:00Z</time>
      </trkpt>
      <trkpt lat="46.38305" lon="5.67224">
        <ele>458.4</ele>
        <time>2019-04-30T03:52:00Z</time>
      </trkpt>
      <trkpt lat="46.38319" lon="5.67275">
        <ele>460</ele>
        <time>2019-04-30T03:53:00Z</time>
      </trkpt>
      <trkpt lat="46.38336" lon="5.67314">
        <ele>460</ele>
        <time>2019-04-30T03:54:00Z</time>
      </trkpt>
      <trkpt lat="46.38374" lon="5.67376">
        <ele>466</ele>
        <time>2019-04-30T03:55:00Z</time>
      </trkpt>
      <trkpt lat="46.3842" lon="5.67422">
        <ele>471.4</ele>
        <time>2019-04-30T03:56:00Z</time>
      </trkpt>
      <trkpt lat="46.38434" lon="5.67437">
        <ele>474</ele>
        <time>2019-04-30T03:57:00Z</time>
      </trkpt>
      <trkpt lat="46.38448" lon="5.67465">
        <ele>476.1</ele>
        <time>2019-04-30T03:58:00Z</time>
      </trkpt>
      <trkpt lat="46.38472" lon="5.67518">
        <ele>480.2</ele>
        <time>2019-04-30T03:59:00Z</time>
      </trkpt>
      <trkpt lat="46.38486" lon="5.67558">
        <ele>481.7</ele>
        <time>2019-04-30T04:00:00Z</time>
      </trkpt>
      <trkpt lat="46.38482" lon="5.67585">
        <ele>484</ele>
        <time>2019-04-30T04:01:00Z</time>
      </trkpt>
      <trkpt lat="46.3848" lon="5.67608">
        <ele>485</ele>
        <time>2019-04-30T04:02:00Z</time>
      </trkpt>
      <trkpt lat="46.38494" lon="5.67623">
        <ele>485.1</ele>
        <time>2019-04-30T04:03:00Z</time>
      </trkpt>
      <trkpt lat="46.38506" lon="5.67617">
        <ele>489</ele>
        <time>2019-04-30T04:04:00Z</time>
      </trkpt>
      <trkpt lat="46.38525" lon="5.67602">
        <ele>490</ele>
        <time>2019-04-30T04:05:00Z</time>
      </trkpt>
      <trkpt lat="46.38558" lon="5.67589">
        <ele>491.8</ele>
        <time>2019-04-30T04:06:00Z</time>
      </trkpt>
      <trkpt lat="46.3861" lon="5.67578">
        <ele>496</ele>
        <time>2019-04-30T04:07:00Z</time>
      </trkpt>
      <trkpt lat="46.38653" lon="5.67572">
        <ele>499.6</ele>
        <time>2019-04-30T04:08:00Z</time>
      </trkpt>
      <trkpt lat="46.38683" lon="5.67559">
        <ele>505</ele>
        <time>2019-04-30T04:09:00Z</time>
      </trkpt>
      <trkpt lat="46.38709" lon="5.67554">
        <ele>506</ele>
        <time>2019-04-30T04:10:00Z</time>
      </trkpt>
      <trkpt lat="46.38765" lon="5.67556">
        <ele>513.3</ele>
        <time>2019-04-30T04:11:00Z</time>
      </trkpt>
      <trkpt lat="46.38787" lon="5.67568">
        <ele>514</ele>
        <time>2019-04-30T04:12:00Z</time>
      </trkpt>
      <trkpt lat="46.38808" lon="5.67588">
        <ele>518.1</ele>
        <time>2019-04-30T04:13:00Z</time>
      </trkpt>
      <trkpt lat="46.38822" lon="5.67603">
        <ele>519</ele>
        <time>2019-04-30T04:14:00Z</time>
      </trkpt>
      <trkpt lat="46.38839" lon="5.67583">
        <ele>520</ele>
        <time>2019-04-30T04:15:00Z</time>
      </trkpt>
      <trkpt lat="46.38858" lon="5.67572">
        <ele>521</ele>
        <time>2019-04-30T04:16:00Z</time>
      </trkpt>
      <trkpt lat="46.3888" lon="5.67551">
        <ele>523</ele>
        <time>2019-04-30T04:17:00Z</time>
      </trkpt>
      <trkpt lat="46.38901" lon="5.67546">
        <ele>525</ele>
        <time>2019-04-30T04:18:00Z</time>
      </trkpt>
      <trkpt lat="46.38914" lon="5.67561">
        <ele>525</ele>
        <time>2019-04-30T04:19:00Z</time>
      </trkpt>
      <trkpt lat="46.38948" lon="5.67627">
        <ele>531.6</ele>
        <time>2019-04-30T04:20:00Z</time>
      </trkpt>
      <trkpt lat="46.38971" lon="5.6765">
        <ele>533</ele>
        <time>2019-04-30T04:21:00Z</time>
      </trkpt>
      <trkpt lat="46.39004" lon="5.67669">
        <ele>535.7</ele>
        <time>2019-04-30T04:22:00Z</time>
      </trkpt>
      <trkpt lat="46.39049" lon="5.6769">
        <ele>539</ele>
        <time>2019-04-30T04:23:00Z</time>
      </trkpt>
      <trkpt lat="46.39076" lon="5.67706">
        <ele>540</ele>
        <time>2019-04-30T04:24:00Z</time>
      </trkpt>
      <trkpt lat="46.39102" lon="5.67726">
        <ele>542.8</ele>
        <time>2019-04-30T04:25:00Z</time>
      </trkpt>
      <trkpt lat="46.39143" lon="5.67753">
        <ele>546.4</ele>
        <time>2019-04-30T04:26:00Z</time>
      </trkpt>
      <trkpt lat="46.39187" lon="5.67776">
        <ele>549.9</ele>
      </trkpt>
      <trkpt lat="46.39253" lon="5.67808">
        <ele>555.9</ele>
      </trkpt>
      <trkpt lat="46.39314" lon="5.6781">
        <ele>557</ele>
      </trkpt>
      <trkpt lat="46.39331" lon="5.67816">
        <ele>560</ele>
      </trkpt>
      <trkpt lat="46.39348" lon="5.67832">
        <ele>561</ele>
      </trkpt>
      <trkpt lat="46.39364" lon="5.67861">
        <ele>563</ele>
      </trkpt>
      <trkpt lat="46.39378" lon="5.67895">
        <ele>564</ele>
      </trkpt>
      <trkpt lat="46.39401" lon="5.67949">
        <ele>567.4</ele>
      </trkpt>
      <trkpt lat="46.3945" lon="5.68005">
        <ele>571</ele>
      </trkpt>
      <trkpt lat="46.39502" lon="5.68078">
        <ele>573</ele>
      </trkpt>
      <trkpt lat="46.39598" lon="5.68168">
        <ele>581</ele>
      </trkpt>
      <trkpt lat="46.3961" lon="5.6819">
        <ele>584</ele>
      </trkpt>
      <trkpt lat="46.39621" lon="5.6822">
        <ele>586</ele>
      </trkpt>
      <trkpt lat="46.39639" lon="5.68271">
        <ele>593</ele>
      </trkpt>
      <trkpt lat="46.39743" lon="5.6831">
        <ele>600</ele>
      </trkpt>
      <trkpt lat="46.39815" lon="5.68326">
        <ele>600</ele>
      </trkpt>
      <trkpt lat="46.3989" lon="5.68337">
        <ele>610.4</ele>
      </trkpt>
      <trkpt lat="46.39917" lon="5.68338">
        <ele>607</ele>
      </trkpt>
      <trkpt lat="46.39945" lon="5.68351">
        <ele>611.8</ele>
      </trkpt>
      <trkpt lat="46.39999" lon="5.68383">
        <ele>615</ele>
      </trkpt>
      <trkpt lat="46.40065" lon="5.68429">
        <ele>619.7</ele>
      </trkpt>
      <trkpt lat="46.40098" lon="5.68476">
        <ele>620.3</ele>
      </trkpt>
      <trkpt lat="46.4012" lon="5.68495">
        <ele>620</ele>
      </trkpt>
      <trkpt lat="46.40143" lon="5.68522">
        <ele>628.3</ele>
      </trkpt>
      <trkpt lat="46.4016" lon="5.68591">
        <ele>634</ele>
      </trkpt>
      <trkpt lat="46.40193" lon="5.68613">
        <ele>635</ele>
      </trkpt>
      <trkpt lat="46.40225" lon="5.68626">
        <ele>635</ele>
      </trkpt>
      <trkpt lat="46.40286" lon="5.68674">
        <ele>637</ele>
      </trkpt>
      <trkpt lat="46.40346" lon="5.68733">
        <ele>639.7</ele>
      </trkpt>
      <trkpt lat="46.40389" lon="5.68779">
        <ele>645.6</ele>
      </trkpt>
      <trkpt lat="46.40412" lon="5.68806">
        <ele>648</ele>
      </trkpt>
      <trkpt lat="46.40448" lon="5.68829">
        <ele>648.5</ele>
      </trkpt>
      <trkpt lat="46.40485" lon="5.68835">
        <ele>652</ele>
      </trkpt>
      <trkpt lat="46.40526" lon="5.68843">
        <ele>651.1</ele>
      </trkpt>
      <trkpt lat="46.40547" lon="5.68852">
        <ele>652</ele>
      </trkpt>
      <trkpt lat="46.40567" lon="5.68872">
        <ele>652</ele>
      </trkpt>
      <trkpt lat="46.40598" lon="5.68935">
        <ele>660</ele>
      </trkpt>
      <trkpt lat="46.40618" lon="5.68969">
        <ele>663</ele>
      </trkpt>
      <trkpt lat="46.40638" lon="5.68992">
        <ele>666</ele>
      </trkpt>
      <trkpt lat="46.40656" lon="5.69004">
        <ele>669</ele>
      </trkpt>
      <trkpt lat="46.40678" lon="5.69006">
        <ele>666.6</ele>
      </trkpt>
      <trkpt lat="46.40701" lon="5.69004">
        <ele>668</ele>
      </trkpt>
      <trkpt lat="46.40728" lon="5.69011">
        <ele>664</ele>
      </trkpt>
      <trkpt lat="46.40754" lon="5.69022">
        <ele>668</ele>
      </trkpt>
      <trkpt lat="46.40781" lon="5.69018">
        <ele>668.6</ele>
      </trkpt>
      <trkpt lat="46.40798" lon="5.69013">
        <ele>669</ele>
      </trkpt>
      <trkpt lat="46.40814" lon="5.69012">
        <ele>668</ele>
      </trkpt>
      <trkpt lat="46.40825" lon="5.69021">
        <ele>669</ele>
      </trkpt>
      <trkpt lat="46.40836" lon="5.69034">
        <ele>667</ele>
      </trkpt>
      <trkpt lat="46.40855" lon="5.69059">
        <ele>669.4</ele>
      </trkpt>
      <trkpt lat="46.40876" lon="5.69098">
        <ele>675.7</ele>
      </trkpt>
      <trkpt lat="46.40881" lon="5.69163">
        <ele>678</ele>
      </trkpt>
      <trkpt lat="46.4088" lon="5.69211">
        <ele>682.8</ele>
      </trkpt>
      <trkpt lat="46.40868" lon="5.69259">
        <ele>686.3</ele>
      </trkpt>
      <trkpt lat="46.40861" lon="5.69303">
        <ele>687</ele>
      </trkpt>
      <trkpt lat="46.40858" lon="5.69342">
        <ele>690</ele>
      </trkpt>
      <trkpt lat="46.40858" lon="5.69371">
        <ele>691</ele>
      </trkpt>
      <trkpt lat="46.40864" lon="5.69389">
        <ele>692</ele>
      </trkpt>
      <trkpt lat="46.40895" lon="5.6943">
        <ele>692.6</ele>
      </trkpt>
      <trkpt lat="46.40901" lon="5.69473">
        <ele>694</ele>
      </trkpt>
      <trkpt lat="46.40904" lon="5.69563">
        <ele>699</ele>
      </trkpt>
      <trkpt lat="46.40925" lon="5.6961">
        <ele>698</ele>
      </trkpt>
      <trkpt lat="46.40934" lon="5.6965">
        <ele>700</ele>
      </trkpt>
      <trkpt lat="46.40946" lon="5.69681">
        <ele>704</ele>
      </trkpt>
      <trkpt lat="46.4098" lon="5.69713">
        <ele>704</ele>
      </trkpt>
      <trkpt lat="46.4103" lon="5.69835">
        <ele>721.2</ele>
      </trkpt>
      <trkpt lat="46.41051" lon="5.69863">
        <ele>721</ele>
      </trkpt>
      <trkpt lat="46.41073" lon="5.69874">
        <ele>718</ele>
      </trkpt>
      <trkpt lat="46.41099" lon="5.69873">
        <ele>713</ele>
      </trkpt>
      <trkpt lat="46.41111" lon="5.69877">
        <ele>713</ele>
      </trkpt>
      <trkpt lat="46.41119" lon="5.69887">
        <ele>714</ele>
      </trkpt>
      <trkpt lat="46.41126" lon="5.69908">
        <ele>713</ele>
      </trkpt>
      <trkpt lat="46.41128" lon="5.69981">
        <ele>720</ele>
      </trkpt>
      <trkpt lat="46.41133" lon="5.7004">
        <ele>722.2</ele>
      </trkpt>
      <trkpt lat="46.41147" lon="5.70119">
        <ele>721</ele>
      </trkpt>
      <trkpt lat="46.41149" lon="5.70163">
        <ele>722</ele>
      </trkpt>
      <trkpt lat="46.41145" lon="5.70192">
        <ele>722</ele>
      </trkpt>
      <trkpt lat="46.41148" lon="5.70218">
        <ele>723</ele>
      </trkpt>
      <trkpt lat="46.41151" lon="5.70241">
        <ele>720</ele>
      </trkpt>
      <trkpt lat="46.41169" lon="5.70267">
        <ele>721</ele>
      </trkpt>
      <trkpt lat="46.41182" lon="5.70299">
        <ele>721.7</ele>
      </trkpt>
      <trkpt lat="46.41221" lon="5.70462">
        <ele>720.9</ele>
      </trkpt>
      <trkpt lat="46.41226" lon="5.70574">
        <ele>721</ele>
      </trkpt>
      <trkpt lat="46.41221" lon="5.70663">
        <ele>723.1</ele>
      </trkpt>
      <trkpt lat="46.4119" lon="5.70753">
        <ele>723</ele>
      </trkpt>
      <trkpt lat="46.41158" lon="5.70826">
        <ele>726.2</ele>
      </trkpt>
      <trkpt lat="46.41149" lon="5.70879">
        <ele>726</ele>
      </trkpt>
      <trkpt lat="46.41095" lon="5.71015">
        <ele>726.1</ele>
      </trkpt>
      <trkpt lat="46.41061" lon="5.71127">
        <ele>722.2</ele>
      </trkpt>
      <trkpt lat="46.41024" lon="5.71196">
        <ele>711.9</ele>
      </trkpt>
      <trkpt lat="46.40986" lon="5.71233">
        <ele>710.5</ele>
      </trkpt>
      <trkpt lat="46.40964" lon="5.71249">
        <ele>711</ele>
      </trkpt>
      <trkpt lat="46.40938" lon="5.7126">
        <ele>705</ele>
      </trkpt>
      <trkpt lat="46.40915" lon="5.71256">
        <ele>706</ele>
      </trkpt>
      <trkpt lat="46.40893" lon="5.71249">
        <ele>710</ele>
      </trkpt>
      <trkpt lat="46.40878" lon="5.71252">
        <ele>704.5</ele>
      </trkpt>
      <trkpt lat="46.40869" lon="5.71268">
        <ele>704.1</ele>
      </trkpt>
      <trkpt lat="46.40874" lon="5.71289">
        <ele>703</ele>
      </trkpt>
      <trkpt lat="46.40891" lon="5.713">
        <ele>702.4</ele>
      </trkpt>
      <trkpt lat="46.40924" lon="5.71297">
        <ele>700</ele>
      </trkpt>
      <trkpt lat="46.40947" lon="5.713">
        <ele>700</ele>
      </trkpt>
      <trkpt lat="46.40975" lon="5.7131">
        <ele>698.1</ele>
      </trkpt>
      <trkpt lat="46.41021" lon="5.71327">
        <ele>692</ele>
      </trkpt>
      <trkpt lat="46.41088" lon="5.71352">
        <ele>687</ele>
      </trkpt>
      <trkpt lat="46.41121" lon="5.7136">
        <ele>685</ele>
      </trkpt>
      <trkpt lat="46.41154" lon="5.71366">
        <ele>684</ele>
      </trkpt>
      <trkpt lat="46.4119" lon="5.7137">
        <ele>680</ele>
      </trkpt>
      <trkpt lat="46.41212" lon="5.71385">
        <ele>678</ele>
      </trkpt>
      <trkpt lat="46.41224" lon="5.71424">
        <ele>674</ele>
      </trkpt>
      <trkpt lat="46.41238" lon="5.71475">
        <ele>673</ele>
      </trkpt>
      <trkpt lat="46.41264" lon="5.71577">
        <ele>670.3</ele>
      </trkpt>
      <trkpt lat="46.41263" lon="5.71633">
        <ele>673</ele>
      </trkpt>
      <trkpt lat="46.41263" lon="5.71659">
        <ele>677</ele>
      </trkpt>
      <trkpt lat="46.41265" lon="5.71681">
        <ele>681</ele>
      </trkpt>
      <trkpt lat="46.41278" lon="5.71707">
        <ele>678</ele>
      </trkpt>
      <trkpt lat="46.41297" lon="5.71729">
        <ele>676.1</ele>
      </trkpt>
      <trkpt lat="46.41342" lon="5.71773">
        <ele>666.9</ele>
      </trkpt>
      <trkpt lat="46.41353" lon="5.71794">
        <ele>667</ele>
      </trkpt>
      <trkpt lat="46.41363" lon="5.71822">
        <ele>669</ele>
      </trkpt>
      <trkpt lat="46.41372" lon="5.71857">
        <ele>669</ele>
      </trkpt>
      <trkpt lat="46.41375" lon="5.71877">
        <ele>669.2</ele>
      </trkpt>
      <trkpt lat="46.41375" lon="5.71899">
        <ele>670</ele>
      </trkpt>
      <trkpt lat="46.41366" lon="5.71921">
        <ele>673</ele>
      </trkpt>
      <trkpt lat="46.41332" lon="5.72024">
        <ele>677</ele>
      </trkpt>
      <trkpt lat="46.41307" lon="5.72161">
        <ele>655</ele>
      </trkpt>
      <trkpt lat="46.41283" lon="5.72245">
        <ele>652</ele>
      </trkpt>
      <trkpt lat="46.41279" lon="5.72276">
        <ele>652</ele>
      </trkpt>
      <trkpt lat="46.41289" lon="5.72303">
        <ele>652</ele>
      </trkpt>
      <trkpt lat="46.41307" lon="5.72334">
        <ele>652.2</ele>
      </trkpt>
      <trkpt lat="46.41305" lon="5.72359">
        <ele>653</ele>
      </trkpt>
      <trkpt lat="46.41314" lon="5.72384">
        <ele>653</ele>
      </trkpt>
      <trkpt lat="46.41329" lon="5.72396">
        <ele>653</ele>
      </trkpt>
      <trkpt lat="46.41353" lon="5.72392">
        <ele>654.4</ele>
      </trkpt>
      <trkpt lat="46.41369" lon="5.72363">
        <ele>653.9</ele>
      </trkpt>
      <trkpt lat="46.41394" lon="5.7236">
        <ele>654</ele>
      </trkpt>
      <trkpt lat="46.41423" lon="5.72358">
        <ele>657</ele>
      </trkpt>
      <trkpt lat="46.41442" lon="5.72352">
        <ele>657</ele>
      </trkpt>
      <trkpt lat="46.41462" lon="5.7234">
        <ele>657</ele>
      </trkpt>
      <trkpt lat="46.41505" lon="5.72316">
        <ele>650.3</ele>
      </trkpt>
      <trkpt lat="46.41556" lon="5.72302">
        <ele>646.7</ele>
      </trkpt>
      <trkpt lat="46.41606" lon="5.72307">
        <ele>642.3</ele>
      </trkpt>
      <trkpt lat="46.41686" lon="5.72329">
        <ele>638.6</ele>
      </trkpt>
      <trkpt lat="46.41796" lon="5.72354">
        <ele>636</ele>
      </trkpt>
      <trkpt lat="46.41887" lon="5.72374">
        <ele>637</ele>
      </trkpt>
      <trkpt lat="46.41979" lon="5.72404">
        <ele>636</ele>
      </trkpt>
      <trkpt lat="46.42162" lon="5.72453">
        <ele>636.6</ele>
      </trkpt>
      <trkpt lat="46.42492" lon="5.72526">
        <ele>628.3</ele>
      </trkpt>
      <trkpt lat="46.42499" lon="5.72551">
        <ele>628</ele>
      </trkpt>
      <trkpt lat="46.42508" lon="5.72579">
        <ele>628</ele>
      </trkpt>
      <trkpt lat="46.4251" lon="5.72599">
        <ele>629</ele>
      </trkpt>
      <trkpt lat="46.42505" lon="5.72617">
        <ele>629</ele>
      </trkpt>
      <trkpt lat="46.42492" lon="5.72792">
        <ele>635.7</ele>
      </trkpt>
      <trkpt lat="46.42506" lon="5.72854">
        <ele>643</ele>
      </trkpt>
      <trkpt lat="46.42534" lon="5.72884">
        <ele>646</ele>
      </trkpt>
      <trkpt lat="46.42568" lon="5.72914">
        <ele>645</ele>
      </trkpt>
      <trkpt lat="46.42635" lon="5.7296">
        <ele>652.1</ele>
      </trkpt>
      <trkpt lat="46.42664" lon="5.7298">
        <ele>654</ele>
      </trkpt>
      <trkpt lat="46.42685" lon="5.73002">
        <ele>660</ele>
      </trkpt>
      <trkpt lat="46.42714" lon="5.73068">
        <ele>664.9</ele>
      </trkpt>
      <trkpt lat="46.42804" lon="5.73172">
        <ele>678.5</ele>
      </trkpt>
      <trkpt lat="46.42861" lon="5.73236">
        <ele>667.4</ele>
      </trkpt>
      <trkpt lat="46.42927" lon="5.73338">
        <ele>676</ele>
      </trkpt>
      <trkpt lat="46.42994" lon="5.73453">
        <ele>698.8</ele>
      </trkpt>
      <trkpt lat="46.43062" lon="5.73572">
        <ele>693</ele>
      </trkpt>
      <trkpt lat="46.43131" lon="5.73681">
        <ele>702</ele>
      </trkpt>
      <trkpt lat="46.43149" lon="5.73705">
        <ele>710</ele>
      </trkpt>
      <trkpt lat="46.43197" lon="5.73747">
        <ele>707</ele>
      </trkpt>
      <trkpt lat="46.43311" lon="5.73817">
        <ele>708.8</ele>
      </trkpt>
      <trkpt lat="46.43363" lon="5.73848">
        <ele>713</ele>
      </trkpt>
      <trkpt lat="46.43528" lon="5.73997">
        <ele>721.4</ele>
      </trkpt>
      <trkpt lat="46.43582" lon="5.74029">
        <ele>737.2</ele>
      </trkpt>
      <trkpt lat="46.43618" lon="5.74044">
        <ele>730</ele>
      </trkpt>
      <trkpt lat="46.43653" lon="5.74062">
        <ele>733</ele>
      </trkpt>
      <trkpt lat="46.43697" lon="5.74086">
        <ele>736</ele>
      </trkpt>
      <trkpt lat="46.43781" lon="5.74157">
        <ele>750</ele>
      </trkpt>
      <trkpt lat="46.43834" lon="5.74179">
        <ele>747.1</ele>
      </trkpt>
      <trkpt lat="46.43882" lon="5.74196">
        <ele>748</ele>
      </trkpt>
      <trkpt lat="46.43948" lon="5.74264">
        <ele>751</ele>
      </trkpt>
      <trkpt lat="46.43969" lon="5.74306">
        <ele>751.8</ele>
      </trkpt>
      <trkpt lat="46.44013" lon="5.74502">
        <ele>765</ele>
      </trkpt>
      <trkpt lat="46.44047" lon="5.74574">
        <ele>766</ele>
      </trkpt>
      <trkpt lat="46.44124" lon="5.7468">
        <ele>774.7</ele>
      </trkpt>
      <trkpt lat="46.44207" lon="5.74779">
        <ele>770</ele>
      </trkpt>
      <trkpt lat="46.44264" lon="5.7485">
        <ele>774.5</ele>
      </trkpt>
      <trkpt lat="46.44364" lon="5.7494">
        <ele>779</ele>
      </trkpt>
      <trkpt lat="46.4439" lon="5.74963">
        <ele>779.7</ele>
      </trkpt>
      <trkpt lat="46.44453" lon="5.7505">
        <ele>783</ele>
      </trkpt>
      <trkpt lat="46.44516" lon="5.75131">
        <ele>783.1</ele>
      </trkpt>
      <trkpt lat="46.44584" lon="5.75208">
        <ele>790</ele>
      </trkpt>
      <trkpt lat="46.4466" lon="5.7529">
        <ele>800</ele>
      </trkpt>
      <trkpt lat="46.44736" lon="5.75378">
        <ele>798</ele>
      </trkpt>
      <trkpt lat="46.44797" lon="5.75456">
        <ele>799.5</ele>
      </trkpt>
      <trkpt lat="46.44892" lon="5.75581">
        <ele>795.5</ele>
      </trkpt>
      <trkpt lat="46.44995" lon="5.75684">
        <ele>803.5</ele>
      </trkpt>
      <trkpt lat="46.45041" lon="5.75728">
        <ele>799</ele>
      </trkpt>
      <trkpt lat="46.45087" lon="5.75764">
        <ele>802</ele>
      </trkpt>
      <trkpt lat="46.45138" lon="5.758">
        <ele>804.9</ele>
      </trkpt>
      <trkpt lat="46.45184" lon="5.7582">
        <ele>803.1</ele>
      </trkpt>
      <trkpt lat="46.45244" lon="5.75842">
        <ele>806</ele>
      </trkpt>
      <trkpt lat="46.45275" lon="5.75846">
        <ele>805</ele>
      </trkpt>
      <trkpt lat="46.45307" lon="5.75864">
        <ele>805</ele>
      </trkpt>
      <trkpt lat="46.4536" lon="5.75889">
        <ele>802.5</ele>
      </trkpt>
      <trkpt lat="46.45403" lon="5.75927">
        <ele>808</ele>
      </trkpt>
      <trkpt lat="46.45434" lon="5.75955">
        <ele>803</ele>
      </trkpt>
      <trkpt lat="46.45451" lon="5.75981">
        <ele>803.4</ele>
      </trkpt>
      <trkpt lat="46.45473" lon="5.76018">
        <ele>804</ele>
      </trkpt>
      <trkpt lat="46.45482" lon="5.76045">
        <ele>805</ele>
      </trkpt>
      <trkpt lat="46.45496" lon="5.76142">
        <ele>803</ele>
      </trkpt>
      <trkpt lat="46.45592" lon="5.7621">
        <ele>809</ele>
      </trkpt>
      <trkpt lat="46.45651" lon="5.76276">
        <ele>806.7</ele>
      </trkpt>
      <trkpt lat="46.457" lon="5.76325">
        <ele>809.3</ele>
      </trkpt>
      <trkpt lat="46.45699" lon="5.76399">
        <ele>812</ele>
      </trkpt>
      <trkpt lat="46.45696" lon="5.76476">
        <ele>818</ele>
      </trkpt>
      <trkpt lat="46.45683" lon="5.76616">
        <ele>830</ele>
      </trkpt>
      <trkpt lat="46.45751" lon="5.76702">
        <ele>832</ele>
      </trkpt>
      <trkpt lat="46.45805" lon="5.76733">
        <ele>834.1</ele>
      </trkpt>
      <trkpt lat="46.45836" lon="5.7672">
        <ele>835.1</ele>
      </trkpt>
      <trkpt lat="46.45856" lon="5.76716">
        <ele>835</ele>
      </trkpt>
      <trkpt lat="46.45873" lon="5.767">
        <ele>835</ele>
      </trkpt>
      <trkpt lat="46.45898" lon="5.76682">
        <ele>836</ele>
      </trkpt>
      <trkpt lat="46.45921" lon="5.76682">
        <ele>837</ele>
      </trkpt>
      <trkpt lat="46.45942" lon="5.76685">
        <ele>837</ele>
      </trkpt>
      <trkpt lat="46.45954" lon="5.76696">
        <ele>837</ele>
      </trkpt>
      <trkpt lat="46.45963" lon="5.76719">
        <ele>838</ele>
      </trkpt>
      <trkpt lat="46.45966" lon="5.76777">
        <ele>842</ele>
      </trkpt>
      <trkpt lat="46.45958" lon="5.76859">
        <ele>845.5</ele>
      </trkpt>
      <trkpt lat="46.45964" lon="5.76906">
        <ele>846</ele>
      </trkpt>
      <trkpt lat="46.45975" lon="5.76936">
        <ele>848</ele>
      </trkpt>
      <trkpt lat="46.45995" lon="5.76972">
        <ele>849</ele>
      </trkpt>
      <trkpt lat="46.46017" lon="5.77002">
        <ele>850</ele>
      </trkpt>
      <trkpt lat="46.46042" lon="5.77022">
        <ele>852</ele>
      </trkpt>
      <trkpt lat="46.46078" lon="5.77021">
        <ele>852.4</ele>
      </trkpt>
      <trkpt lat="46.46112" lon="5.77027">
        <ele>854</ele>
      </trkpt>
      <trkpt lat="46.46161" lon="5.77048">
        <ele>854.3</ele>
      </trkpt>
      <trkpt lat="46.46181" lon="5.77069">
        <ele>855</ele>
      </trkpt>
      <trkpt lat="46.46201" lon="5.77099">
        <ele>854</ele>
      </trkpt>
      <trkpt lat="46.46218" lon="5.77149">
        <ele>853.1</ele>
      </trkpt>
      <trkpt lat="46.46235" lon="5.77183">
        <ele>852.3</ele>
      </trkpt>
      <trkpt lat="46.46393" lon="5.77268">
        <ele>849</ele>
      </trkpt>
      <trkpt lat="46.46472" lon="5.77311">
        <ele>844.2</ele>
      </trkpt>
      <trkpt lat="46.46503" lon="5.77338">
        <ele>841</ele>
      </trkpt>
      <trkpt lat="46.46532" lon="5.77378">
        <ele>840</ele>
      </trkpt>
      <trkpt lat="46.46612" lon="5.77551">
        <ele>845</ele>
      </trkpt>
      <trkpt lat="46.46639" lon="5.77644">
        <ele>851</ele>
      </trkpt>
      <trkpt lat="46.46643" lon="5.77685">
        <ele>853</ele>
      </trkpt>
      <trkpt lat="46.46643" lon="5.77712">
        <ele>853</ele>
      </trkpt>
      <trkpt lat="46.46638" lon="5.77744">
        <ele>854</ele>
      </trkpt>
      <trkpt lat="46.46629" lon="5.77776">
        <ele>854.9</ele>
      </trkpt>
      <trkpt lat="46.46565" lon="5.77906">
        <ele>863.8</ele>
      </trkpt>
      <trkpt lat="46.46537" lon="5.77977">
        <ele>866</ele>
      </trkpt>
      <trkpt lat="46.46502" lon="5.78075">
        <ele>865.3</ele>
      </trkpt>
      <trkpt lat="46.46463" lon="5.78131">
        <ele>872</ele>
      </trkpt>
      <trkpt lat="46.46449" lon="5.78155">
        <ele>874</ele>
      </trkpt>
      <trkpt lat="46.46437" lon="5.78185">
        <ele>872.4</ele>
      </trkpt>
      <trkpt lat="46.46422" lon="5.7824">
        <ele>871.3</ele>
      </trkpt>
      <trkpt lat="46.46411" lon="5.78272">
        <ele>874</ele>
      </trkpt>
      <trkpt lat="46.46395" lon="5.78296">
        <ele>874.3</ele>
      </trkpt>
      <trkpt lat="46.46361" lon="5.78352">
        <ele>874</ele>
      </trkpt>
      <trkpt lat="46.46334" lon="5.78418">
        <ele>874.1</ele>
      </trkpt>
      <trkpt lat="46.46319" lon="5.78449">
        <ele>875</ele>
      </trkpt>
      <trkpt lat="46.46306" lon="5.78478">
        <ele>875</ele>
      </trkpt>
      <trkpt lat="46.46288" lon="5.78502">
        <ele>875</ele>
      </trkpt>
      <trkpt lat="46.46271" lon="5.78519">
        <ele>875.1</ele>
      </trkpt>
      <trkpt lat="46.46255" lon="5.78539">
        <ele>875</ele>
      </trkpt>
      <trkpt lat="46.46248" lon="5.78571">
        <ele>876.2</ele>
      </trkpt>
      <trkpt lat="46.46257" lon="5.7866">
        <ele>879</ele>
      </trkpt>
      <trkpt lat="46.46258" lon="5.78712">
        <ele>881.5</ele>
      </trkpt>
      <trkpt lat="46.46256" lon="5.78766">
        <ele>883</ele>
      </trkpt>
      <trkpt lat="46.46247" lon="5.78805">
        <ele>883</ele>
      </trkpt>
      <trkpt lat="46.46231" lon="5.78863">
        <ele>885</ele>
      </trkpt>
      <trkpt lat="46.46215" lon="5.78901">
        <ele>886</ele>
      </trkpt>
      <trkpt lat="46.4622" lon="5.78941">
        <ele>881</ele>
      </trkpt>
      <trkpt lat="46.46223" lon="5.78967">
        <ele>880</ele>
      </trkpt>
      <trkpt lat="46.46222" lon="5.78993">
        <ele>876</ele>
      </trkpt>
      <trkpt lat="46.46221" lon="5.79036">
        <ele>871</ele>
      </trkpt>
      <trkpt lat="46.46173" lon="5.79161">
        <ele>860</ele>
      </trkpt>
      <trkpt lat="46.4613" lon="5.79275">
        <ele>848</ele>
      </trkpt>
      <trkpt lat="46.46098" lon="5.79335">
        <ele>841</ele>
      </trkpt>
      <trkpt lat="46.46078" lon="5.79354">
        <ele>838.5</ele>
      </trkpt>
      <trkpt lat="46.46058" lon="5.79364">
        <ele>837.1</ele>
      </trkpt>
      <trkpt lat="46.46035" lon="5.79369">
        <ele>837</ele>
      </trkpt>
      <trkpt lat="46.45974" lon="5.79367">
        <ele>836</ele>
      </trkpt>
      <trkpt lat="46.45926" lon="5.79397">
        <ele>831</ele>
      </trkpt>
      <trkpt lat="46.45953" lon="5.79463">
        <ele>827</ele>
      </trkpt>
      <trkpt lat="46.45975" lon="5.795">
        <ele>826</ele>
      </trkpt>
      <trkpt lat="46.45996" lon="5.79528">
        <ele>825.3</ele>
      </trkpt>
      <trkpt lat="46.46017" lon="5.79552">
        <ele>831</ele>
      </trkpt>
      <trkpt lat="46.46074" lon="5.79515">
        <ele>831.4</ele>
      </trkpt>
      <trkpt lat="46.461" lon="5.79505">
        <ele>833</ele>
      </trkpt>
      <trkpt lat="46.46123" lon="5.795">
        <ele>830</ele>
      </trkpt>
      <trkpt lat="46.46151" lon="5.79506">
        <ele>833</ele>
      </trkpt>
      <trkpt lat="46.46178" lon="5.79528">
        <ele>834</ele>
      </trkpt>
      <trkpt lat="46.46209" lon="5.79562">
        <ele>834</ele>
      </trkpt>
      <trkpt lat="46.4624" lon="5.79594">
        <ele>835.6</ele>
      </trkpt>
      <trkpt lat="46.46283" lon="5.79637">
        <ele>839</ele>
      </trkpt>
      <trkpt lat="46.46301" lon="5.79645">
        <ele>840</ele>
      </trkpt>
      <trkpt lat="46.46334" lon="5.79634">
        <ele>844</ele>
      </trkpt>
      <trkpt lat="46.46355" lon="5.79624">
        <ele>844</ele>
      </trkpt>
      <trkpt lat="46.46366" lon="5.79617">
        <ele>844</ele>
      </trkpt>
      <trkpt lat="46.46379" lon="5.79616">
        <ele>844.2</ele>
      </trkpt>
      <trkpt lat="46.46485" lon="5.79639">
        <ele>857</ele>
      </trkpt>
      <trkpt lat="46.46535" lon="5.79607">
        <ele>856</ele>
      </trkpt>
      <trkpt lat="46.46564" lon="5.79556">
        <ele>842</ele>
      </trkpt>
      <trkpt lat="46.46639" lon="5.79478">
        <ele>845</ele>
      </trkpt>
      <trkpt lat="46.46685" lon="5.79439">
        <ele>851</ele>
      </trkpt>
      <trkpt lat="46.46729" lon="5.79408">
        <ele>851</ele>
      </trkpt>
      <trkpt lat="46.46794" lon="5.79357">
        <ele>852</ele>
      </trkpt>
      <trkpt lat="46.4685" lon="5.79328">
        <ele>853</ele>
      </trkpt>
      <trkpt lat="46.46886" lon="5.79306">
        <ele>851.2</ele>
      </trkpt>
      <trkpt lat="46.46974" lon="5.79305">
        <ele>853.9</ele>
      </trkpt>
      <trkpt lat="46.47021" lon="5.7929">
        <ele>849.2</ele>
      </trkpt>
      <trkpt lat="46.47045" lon="5.79301">
        <ele>849</ele>
      </trkpt>
      <trkpt lat="46.47072" lon="5.79333">
        <ele>847.2</ele>
      </trkpt>
      <trkpt lat="46.47092" lon="5.79379">
        <ele>847</ele>
      </trkpt>
      <trkpt lat="46.47113" lon="5.79419">
        <ele>852.8</ele>
      </trkpt>
      <trkpt lat="46.47195" lon="5.79482">
        <ele>842.4</ele>
      </trkpt>
      <trkpt lat="46.47227" lon="5.79479">
        <ele>840</ele>
      </trkpt>
      <trkpt lat="46.47271" lon="5.79463">
        <ele>837</ele>
      </trkpt>
      <trkpt lat="46.47349" lon="5.79441">
        <ele>839.9</ele>
      </trkpt>
      <trkpt lat="46.47402" lon="5.79424">
        <ele>842.2</ele>
      </trkpt>
      <trkpt lat="46.47451" lon="5.79367">
        <ele>838</ele>
      </trkpt>
      <trkpt lat="46.475" lon="5.79316">
        <ele>837.4</ele>
      </trkpt>
      <trkpt lat="46.4753" lon="5.79287">
        <ele>836</ele>
      </trkpt>
      <trkpt lat="46.47557" lon="5.79264">
        <ele>834</ele>
      </trkpt>
      <trkpt lat="46.47582" lon="5.79251">
        <ele>834</ele>
      </trkpt>
      <trkpt lat="46.47608" lon="5.79249">
        <ele>835</ele>
      </trkpt>
      <trkpt lat="46.47656" lon="5.79259">
        <ele>839</ele>
      </trkpt>
      <trkpt lat="46.47706" lon="5.79281">
        <ele>841</ele>
      </trkpt>
      <trkpt lat="46.4778" lon="5.79251">
        <ele>833</ele>
      </trkpt>
      <trkpt lat="46.47805" lon="5.79265">
        <ele>838</ele>
      </trkpt>
      <trkpt lat="46.47821" lon="5.79283">
        <ele>838</ele>
      </trkpt>
      <trkpt lat="46.47861" lon="5.7935">
        <ele>841</ele>
      </trkpt>
      <trkpt lat="46.4788" lon="5.79378">
        <ele>839</ele>
      </trkpt>
      <trkpt lat="46.47906" lon="5.79395">
        <ele>838.5</ele>
      </trkpt>
      <trkpt lat="46.48018" lon="5.79403">
        <ele>830.7</ele>
      </trkpt>
      <trkpt lat="46.4817" lon="5.79343">
        <ele>828.7</ele>
      </trkpt>
      <trkpt lat="46.48216" lon="5.79356">
        <ele>830</ele>
      </trkpt>
      <trkpt lat="46.48426" lon="5.79472">
        <ele>824.2</ele>
      </trkpt>
      <trkpt lat="46.48498" lon="5.79468">
        <ele>822.8</ele>
      </trkpt>
      <trkpt lat="46.48638" lon="5.79612">
        <ele>814.6</ele>
      </trkpt>
      <trkpt lat="46.48659" lon="5.79624">
        <ele>814</ele>
      </trkpt>
      <trkpt lat="46.4868" lon="5.79629">
        <ele>812</ele>
      </trkpt>
      <trkpt lat="46.48801" lon="5.79604">
        <ele>809</ele>
      </trkpt>
      <trkpt lat="46.48884" lon="5.79608">
        <ele>810.4</ele>
      </trkpt>
      <trkpt lat="46.48933" lon="5.79576">
        <ele>805</ele>
      </trkpt>
      <trkpt lat="46.48968" lon="5.79567">
        <ele>804.4</ele>
      </trkpt>
      <trkpt lat="46.49005" lon="5.7959">
        <ele>810</ele>
      </trkpt>
      <trkpt lat="46.4902" lon="5.79601">
        <ele>811</ele>
      </trkpt>
      <trkpt lat="46.49042" lon="5.79608">
        <ele>810.7</ele>
      </trkpt>
      <trkpt lat="46.49117" lon="5.79625">
        <ele>809.5</ele>
      </trkpt>
      <trkpt lat="46.49167" lon="5.79656">
        <ele>812</ele>
      </trkpt>
      <trkpt lat="46.49196" lon="5.79668">
        <ele>813</ele>
      </trkpt>
      <trkpt lat="46.49228" lon="5.79674">
        <ele>813</ele>
      </trkpt>
      <trkpt lat="46.4926" lon="5.79672">
        <ele>815</ele>
      </trkpt>
      <trkpt lat="46.49291" lon="5.79654">
        <ele>814.6</ele>
      </trkpt>
      <trkpt lat="46.49347" lon="5.79581">
        <ele>815</ele>
      </trkpt>
      <trkpt lat="46.49367" lon="5.79562">
        <ele>813</ele>
      </trkpt>
      <trkpt lat="46.49389" lon="5.79563">
        <ele>813</ele>
      </trkpt>
      <trkpt lat="46.49476" lon="5.79603">
        <ele>814.3</ele>
      </trkpt>
      <trkpt lat="46.49627" lon="5.7957">
        <ele>812.9</ele>
      </trkpt>
      <trkpt lat="46.49681" lon="5.79559">
        <ele>812</ele>
      </trkpt>
      <trkpt lat="46.49709" lon="5.79537">
        <ele>812.3</ele>
      </trkpt>
      <trkpt lat="46.4975" lon="5.79514">
        <ele>812.1</ele>
      </trkpt>
      <trkpt lat="46.49814" lon="5.79492">
        <ele>813</ele>
      </trkpt>
      <trkpt lat="46.49883" lon="5.79454">
        <ele>814.8</ele>
      </trkpt>
      <trkpt lat="46.49912" lon="5.79437">
        <ele>815</ele>
      </trkpt>
      <trkpt lat="46.49943" lon="5.7941">
        <ele>816</ele>
      </trkpt>
      <trkpt lat="46.49959" lon="5.79381">
        <ele>817</ele>
      </trkpt>
      <trkpt lat="46.49965" lon="5.7936">
        <ele>817</ele>
      </trkpt>
      <trkpt lat="46.49967" lon="5.79339">
        <ele>817.5</ele>
      </trkpt>
      <trkpt lat="46.49969" lon="5.79295">
        <ele>815</ele>
      </trkpt>
      <trkpt lat="46.49975" lon="5.79263">
        <ele>815</ele>
      </trkpt>
      <trkpt lat="46.49985" lon="5.79223">
        <ele>814</ele>
      </trkpt>
      <trkpt lat="46.49997" lon="5.79182">
        <ele>815</ele>
      </trkpt>
      <trkpt lat="46.50021" lon="5.79165">
        <ele>814</ele>
      </trkpt>
      <trkpt lat="46.50055" lon="5.7915">
        <ele>813.6</ele>
      </trkpt>
      <trkpt lat="46.50087" lon="5.79114">
        <ele>811</ele>
      </trkpt>
      <trkpt lat="46.50115" lon="5.79086">
        <ele>808</ele>
      </trkpt>
      <trkpt lat="46.50137" lon="5.79087">
        <ele>809</ele>
      </trkpt>
      <trkpt lat="46.50161" lon="5.79101">
        <ele>808.5</ele>
      </trkpt>
      <trkpt lat="46.50238" lon="5.79203">
        <ele>807.8</ele>
      </trkpt>
      <trkpt lat="46.50261" lon="5.79223">
        <ele>804</ele>
      </trkpt>
      <trkpt lat="46.50285" lon="5.7924">
        <ele>805</ele>
      </trkpt>
      <trkpt lat="46.50308" lon="5.79254">
        <ele>804</ele>
      </trkpt>
      <trkpt lat="46.5033" lon="5.79262">
        <ele>804</ele>
      </trkpt>
      <trkpt lat="46.50403" lon="5.7927">
        <ele>806</ele>
      </trkpt>
      <trkpt lat="46.50426" lon="5.79281">
        <ele>807</ele>
      </trkpt>
      <trkpt lat="46.50449" lon="5.79305">
        <ele>806</ele>
      </trkpt>
      <trkpt lat="46.50475" lon="5.79329">
        <ele>807</ele>
      </trkpt>
      <trkpt lat="46.50502" lon="5.79339">
        <ele>808.4</ele>
      </trkpt>
      <trkpt lat="46.50674" lon="5.79377">
        <ele>812.6</ele>
      </trkpt>
      <trkpt lat="46.50876" lon="5.79322">
        <ele>814</ele>
      </trkpt>
      <trkpt lat="46.50896" lon="5.7931">
        <ele>814</ele>
      </trkpt>
      <trkpt lat="46.50914" lon="5.79284">
        <ele>813.9</ele>
      </trkpt>
      <trkpt lat="46.50951" lon="5.7921">
        <ele>813</ele>
      </trkpt>
      <trkpt lat="46.51018" lon="5.79159">
        <ele>811</ele>
      </trkpt>
      <trkpt lat="46.51069" lon="5.79116">
        <ele>810</ele>
      </trkpt>
      <trkpt lat="46.51117" lon="5.79036">
        <ele>809</ele>
      </trkpt>
      <trkpt lat="46.51191" lon="5.78883">
        <ele>809.2</ele>
      </trkpt>
      <trkpt lat="46.51208" lon="5.78851">
        <ele>809</ele>
      </trkpt>
      <trkpt lat="46.51226" lon="5.78828">
        <ele>810.7</ele>
      </trkpt>
      <trkpt lat="46.51259" lon="5.78809">
        <ele>810</ele>
      </trkpt>
      <trkpt lat="46.513" lon="5.78798">
        <ele>809</ele>
      </trkpt>
      <trkpt lat="46.51417" lon="5.78766">
        <ele>813.4</ele>
      </trkpt>
      <trkpt lat="46.51476" lon="5.7875">
        <ele>816.3</ele>
      </trkpt>
      <trkpt lat="46.5152" lon="5.78756">
        <ele>820</ele>
      </trkpt>
      <trkpt lat="46.5156" lon="5.78781">
        <ele>822</ele>
      </trkpt>
      <trkpt lat="46.51635" lon="5.78839">
        <ele>824.7</ele>
      </trkpt>
      <trkpt lat="46.5166" lon="5.78853">
        <ele>825.3</ele>
      </trkpt>
      <trkpt lat="46.51684" lon="5.78863">
        <ele>827</ele>
      </trkpt>
      <trkpt lat="46.51719" lon="5.78887">
        <ele>828</ele>
      </trkpt>
      <trkpt lat="46.51823" lon="5.78985">
        <ele>827</ele>
      </trkpt>
      <trkpt lat="46.51879" lon="5.7906">
        <ele>825</ele>
      </trkpt>
      <trkpt lat="46.51935" lon="5.79143">
        <ele>820.1</ele>
      </trkpt>
      <trkpt lat="46.51956" lon="5.79165">
        <ele>820</ele>
      </trkpt>
      <trkpt lat="46.51977" lon="5.7918">
        <ele>815.1</ele>
      </trkpt>
      <trkpt lat="46.52006" lon="5.79203">
        <ele>813</ele>
      </trkpt>
      <trkpt lat="46.52034" lon="5.79232">
        <ele>811.9</ele>
      </trkpt>
      <trkpt lat="46.52069" lon="5.79279">
        <ele>806.1</ele>
      </trkpt>
      <trkpt lat="46.52103" lon="5.79301">
        <ele>805</ele>
      </trkpt>
      <trkpt lat="46.52141" lon="5.79315">
        <ele>803</ele>
      </trkpt>
      <trkpt lat="46.52165" lon="5.79328">
        <ele>802</ele>
      </trkpt>
      <trkpt lat="46.5218" lon="5.79343">
        <ele>801</ele>
      </trkpt>
      <trkpt lat="46.52219" lon="5.7944">
        <ele>801.7</ele>
      </trkpt>
      <trkpt lat="46.5227" lon="5.795">
        <ele>801.6</ele>
      </trkpt>
      <trkpt lat="46.52293" lon="5.79525">
        <ele>801</ele>
      </trkpt>
      <trkpt lat="46.52313" lon="5.79541">
        <ele>801</ele>
      </trkpt>
      <trkpt lat="46.52377" lon="5.79536">
        <ele>796.9</ele>
      </trkpt>
      <trkpt lat="46.52406" lon="5.79553">
        <ele>796</ele>
      </trkpt>
      <trkpt lat="46.5244" lon="5.79588">
        <ele>790</ele>
      </trkpt>
      <trkpt lat="46.5251" lon="5.79648">
        <ele>780.9</ele>
      </trkpt>
      <trkpt lat="46.52532" lon="5.79644">
        <ele>780</ele>
      </trkpt>
      <trkpt lat="46.5257" lon="5.79599">
        <ele>777</ele>
      </trkpt>
      <trkpt lat="46.52599" lon="5.79569">
        <ele>775</ele>
      </trkpt>
      <trkpt lat="46.52623" lon="5.79557">
        <ele>772.9</ele>
      </trkpt>
      <trkpt lat="46.5264" lon="5.79544">
        <ele>772</ele>
      </trkpt>
      <trkpt lat="46.52657" lon="5.79511">
        <ele>767</ele>
      </trkpt>
      <trkpt lat="46.52666" lon="5.79461">
        <ele>772</ele>
      </trkpt>
      <trkpt lat="46.52658" lon="5.79415">
        <ele>765.8</ele>
      </trkpt>
      <trkpt lat="46.52658" lon="5.79384">
        <ele>763</ele>
      </trkpt>
      <trkpt lat="46.52685" lon="5.79313">
        <ele>758</ele>
      </trkpt>
      <trkpt lat="46.52701" lon="5.79286">
        <ele>759</ele>
      </trkpt>
      <trkpt lat="46.52717" lon="5.79249">
        <ele>760</ele>
      </trkpt>
      <trkpt lat="46.52728" lon="5.79198">
        <ele>760</ele>
      </trkpt>
      <trkpt lat="46.52739" lon="5.79157">
        <ele>757</ele>
      </trkpt>
      <trkpt lat="46.52757" lon="5.79133">
        <ele>753</ele>
      </trkpt>
      <trkpt lat="46.52777" lon="5.79121">
        <ele>751.6</ele>
      </trkpt>
      <trkpt lat="46.52852" lon="5.79131">
        <ele>749</ele>
      </trkpt>
      <trkpt lat="46.5289" lon="5.79122">
        <ele>748.4</ele>
      </trkpt>
      <trkpt lat="46.5292" lon="5.791">
        <ele>747</ele>
      </trkpt>
      <trkpt lat="46.52952" lon="5.79062">
        <ele>752</ele>
      </trkpt>
      <trkpt lat="46.52995" lon="5.79047">
        <ele>756</ele>
      </trkpt>
      <trkpt lat="46.53074" lon="5.79068">
        <ele>759.7</ele>
      </trkpt>
      <trkpt lat="46.53139" lon="5.791">
        <ele>757.1</ele>
      </trkpt>
      <trkpt lat="46.53174" lon="5.79115">
        <ele>762</ele>
      </trkpt>
      <trkpt lat="46.5321" lon="5.79137">
        <ele>758</ele>
      </trkpt>
      <trkpt lat="46.53231" lon="5.79152">
        <ele>759</ele>
      </trkpt>
      <trkpt lat="46.53251" lon="5.79175">
        <ele>753.8</ele>
      </trkpt>
      <trkpt lat="46.53281" lon="5.79203">
        <ele>753</ele>
      </trkpt>
      <trkpt lat="46.53312" lon="5.79225">
        <ele>752.2</ele>
      </trkpt>
      <trkpt lat="46.53336" lon="5.79241">
        <ele>754</ele>
      </trkpt>
      <trkpt lat="46.53361" lon="5.79263">
        <ele>747.6</ele>
      </trkpt>
      <trkpt lat="46.53376" lon="5.79284">
        <ele>747</ele>
      </trkpt>
      <trkpt lat="46.5339" lon="5.79309">
        <ele>746</ele>
      </trkpt>
      <trkpt lat="46.53404" lon="5.79336">
        <ele>739.4</ele>
      </trkpt>
      <trkpt lat="46.53423" lon="5.79358">
        <ele>744</ele>
      </trkpt>
      <trkpt lat="46.53442" lon="5.79369">
        <ele>743</ele>
      </trkpt>
      <trkpt lat="46.5348" lon="5.7939">
        <ele>745</ele>
      </trkpt>
      <trkpt lat="46.53522" lon="5.79405">
        <ele>747</ele>
      </trkpt>
      <trkpt lat="46.53573" lon="5.79412">
        <ele>752</ele>
      </trkpt>
      <trkpt lat="46.53627" lon="5.79415">
        <ele>757.7</ele>
      </trkpt>
      <trkpt lat="46.53701" lon="5.79406">
        <ele>760.5</ele>
      </trkpt>
      <trkpt lat="46.53759" lon="5.7942">
        <ele>749</ele>
      </trkpt>
      <trkpt lat="46.53818" lon="5.79444">
        <ele>743.7</ele>
      </trkpt>
      <trkpt lat="46.53872" lon="5.79458">
        <ele>748</ele>
      </trkpt>
      <trkpt lat="46.53929" lon="5.79476">
        <ele>749</ele>
      </trkpt>
      <trkpt lat="46.53958" lon="5.7949">
        <ele>755</ele>
      </trkpt>
      <trkpt lat="46.53985" lon="5.79512">
        <ele>743.8</ele>
      </trkpt>
      <trkpt lat="46.54024" lon="5.79545">
        <ele>742.8</ele>
      </trkpt>
      <trkpt lat="46.54094" lon="5.79549">
        <ele>743</ele>
      </trkpt>
      <trkpt lat="46.54133" lon="5.79532">
        <ele>744</ele>
      </trkpt>
      <trkpt lat="46.54174" lon="5.79502">
        <ele>746</ele>
      </trkpt>
      <trkpt lat="46.54233" lon="5.79415">
        <ele>741.3</ele>
      </trkpt>
      <trkpt lat="46.54262" lon="5.79408">
        <ele>738</ele>
      </trkpt>
      <trkpt lat="46.5434" lon="5.79419">
        <ele>736.5</ele>
      </trkpt>
      <trkpt lat="46.54375" lon="5.79408">
        <ele>733</ele>
      </trkpt>
      <trkpt lat="46.54412" lon="5.79388">
        <ele>732</ele>
      </trkpt>
      <trkpt lat="46.54467" lon="5.79335">
        <ele>729</ele>
      </trkpt>
      <trkpt lat="46.54495" lon="5.79305">
        <ele>726</ele>
      </trkpt>
      <trkpt lat="46.54522" lon="5.79266">
        <ele>722.7</ele>
      </trkpt>
      <trkpt lat="46.5455" lon="5.79254">
        <ele>721</ele>
      </trkpt>
      <trkpt lat="46.54579" lon="5.79255">
        <ele>718.2</ele>
      </trkpt>
      <trkpt lat="46.54629" lon="5.79218">
        <ele>714.3</ele>
      </trkpt>
      <trkpt lat="46.54668" lon="5.79183">
        <ele>712.4</ele>
      </trkpt>
      <trkpt lat="46.54701" lon="5.79146">
        <ele>710.2</ele>
      </trkpt>
      <trkpt lat="46.54733" lon="5.79137">
        <ele>711</ele>
      </trkpt>
      <trkpt lat="46.54769" lon="5.7912">
        <ele>712</ele>
      </trkpt>
      <trkpt lat="46.5478" lon="5.79078">
        <ele>710.4</ele>
      </trkpt>
      <trkpt lat="46.54772" lon="5.79014">
        <ele>709</ele>
      </trkpt>
      <trkpt lat="46.5476" lon="5.78958">
        <ele>706</ele>
      </trkpt>
      <trkpt lat="46.54743" lon="5.78834">
        <ele>704.7</ele>
      </trkpt>
      <trkpt lat="46.54743" lon="5.78795">
        <ele>705.4</ele>
      </trkpt>
      <trkpt lat="46.54756" lon="5.7875">
        <ele>708.2</ele>
      </trkpt>
      <trkpt lat="46.54797" lon="5.78706">
        <ele>709</ele>
      </trkpt>
      <trkpt lat="46.54868" lon="5.78697">
        <ele>708.4</ele>
      </trkpt>
      <trkpt lat="46.54934" lon="5.7868">
        <ele>708</ele>
      </trkpt>
      <trkpt lat="46.54966" lon="5.78659">
        <ele>708</ele>
      </trkpt>
      <trkpt lat="46.54988" lon="5.78639">
        <ele>707.4</ele>
      </trkpt>
      <trkpt lat="46.55002" lon="5.78575">
        <ele>709.6</ele>
      </trkpt>
      <trkpt lat="46.55001" lon="5.78529">
        <ele>711</ele>
      </trkpt>
      <trkpt lat="46.54999" lon="5.78484">
        <ele>710.7</ele>
      </trkpt>
      <trkpt lat="46.55036" lon="5.78329">
        <ele>707.1</ele>
      </trkpt>
      <trkpt lat="46.5504" lon="5.78262">
        <ele>706</ele>
      </trkpt>
      <trkpt lat="46.55048" lon="5.78203">
        <ele>703.2</ele>
      </trkpt>
      <trkpt lat="46.55104" lon="5.78109">
        <ele>702</ele>
      </trkpt>
      <trkpt lat="46.5512" lon="5.78077">
        <ele>702</ele>
      </trkpt>
      <trkpt lat="46.55139" lon="5.78024">
        <ele>701</ele>
      </trkpt>
      <trkpt lat="46.55164" lon="5.77923">
        <ele>695</ele>
      </trkpt>
      <trkpt lat="46.55182" lon="5.7788">
        <ele>693</ele>
      </trkpt>
      <trkpt lat="46.55207" lon="5.77839">
        <ele>690</ele>
      </trkpt>
      <trkpt lat="46.55238" lon="5.77805">
        <ele>690</ele>
      </trkpt>
      <trkpt lat="46.55278" lon="5.77781">
        <ele>688</ele>
      </trkpt>
      <trkpt lat="46.553" lon="5.77773">
        <ele>688</ele>
      </trkpt>
      <trkpt lat="46.55325" lon="5.77757">
        <ele>684</ele>
      </trkpt>
      <trkpt lat="46.5535" lon="5.7774">
        <ele>680</ele>
      </trkpt>
      <trkpt lat="46.5539" lon="5.77701">
        <ele>677.4</ele>
      </trkpt>
      <trkpt lat="46.5545" lon="5.77678">
        <ele>677.1</ele>
      </trkpt>
      <trkpt lat="46.55467" lon="5.7766">
        <ele>673</ele>
      </trkpt>
      <trkpt lat="46.55493" lon="5.77612">
        <ele>671</ele>
      </trkpt>
      <trkpt lat="46.55516" lon="5.7756">
        <ele>671</ele>
      </trkpt>
      <trkpt lat="46.55547" lon="5.77515">
        <ele>671</ele>
      </trkpt>
      <trkpt lat="46.55566" lon="5.77472">
        <ele>671</ele>
      </trkpt>
      <trkpt lat="46.55579" lon="5.7742">
        <ele>673</ele>
      </trkpt>
      <trkpt lat="46.55594" lon="5.77391">
        <ele>672</ele>
      </trkpt>
      <trkpt lat="46.55643" lon="5.77345">
        <ele>667.6</ele>
      </trkpt>
      <trkpt lat="46.55674" lon="5.77289">
        <ele>656</ele>
      </trkpt>
      <trkpt lat="46.55691" lon="5.77234">
        <ele>652</ele>
      </trkpt>
      <trkpt lat="46.55718" lon="5.77146">
        <ele>649</ele>
      </trkpt>
      <trkpt lat="46.55746" lon="5.77079">
        <ele>648.3</ele>
      </trkpt>
      <trkpt lat="46.5576" lon="5.77034">
        <ele>648.4</ele>
      </trkpt>
      <trkpt lat="46.55761" lon="5.76943">
        <ele>644</ele>
      </trkpt>
      <trkpt lat="46.55772" lon="5.76846">
        <ele>639</ele>
      </trkpt>
      <trkpt lat="46.55775" lon="5.76757">
        <ele>638</ele>
      </trkpt>
      <trkpt lat="46.55784" lon="5.76655">
        <ele>640</ele>
      </trkpt>
      <trkpt lat="46.55769" lon="5.76614">
        <ele>640</ele>
      </trkpt>
      <trkpt lat="46.55762" lon="5.76587">
        <ele>641</ele>
      </trkpt>
      <trkpt lat="46.55756" lon="5.76558">
        <ele>642</ele>
      </trkpt>
      <trkpt lat="46.55756" lon="5.7653">
        <ele>639</ele>
      </trkpt>
      <trkpt lat="46.55761" lon="5.76508">
        <ele>640.3</ele>
      </trkpt>
      <trkpt lat="46.55783" lon="5.76457">
        <ele>636</ele>
      </trkpt>
      <trkpt lat="46.55845" lon="5.76344">
        <ele>628.3</ele>
      </trkpt>
      <trkpt lat="46.55869" lon="5.76312">
        <ele>626</ele>
      </trkpt>
      <trkpt lat="46.55901" lon="5.76293">
        <ele>622.8</ele>
      </trkpt>
      <trkpt lat="46.55964" lon="5.76274">
        <ele>616.9</ele>
      </trkpt>
      <trkpt lat="46.56018" lon="5.76234">
        <ele>610</ele>
      </trkpt>
      <trkpt lat="46.56071" lon="5.76181">
        <ele>607.2</ele>
      </trkpt>
      <trkpt lat="46.56105" lon="5.76149">
        <ele>601.7</ele>
      </trkpt>
      <trkpt lat="46.56132" lon="5.7614">
        <ele>601</ele>
      </trkpt>
      <trkpt lat="46.56156" lon="5.76135">
        <ele>601</ele>
      </trkpt>
      <trkpt lat="46.56196" lon="5.76144">
        <ele>596</ele>
      </trkpt>
      <trkpt lat="46.56237" lon="5.76155">
        <ele>594</ele>
      </trkpt>
      <trkpt lat="46.56287" lon="5.76157">
        <ele>590.1</ele>
      </trkpt>
      <trkpt lat="46.56315" lon="5.76143">
        <ele>590</ele>
      </trkpt>
      <trkpt lat="46.56342" lon="5.76114">
        <ele>590.5</ele>
      </trkpt>
      <trkpt lat="46.56386" lon="5.76024">
        <ele>578.3</ele>
      </trkpt>
      <trkpt lat="46.5642" lon="5.75952">
        <ele>575</ele>
      </trkpt>
      <trkpt lat="46.56454" lon="5.759">
        <ele>566.9</ele>
      </trkpt>
      <trkpt lat="46.56492" lon="5.75852">
        <ele>567</ele>
      </trkpt>
      <trkpt lat="46.56525" lon="5.75816">
        <ele>564</ele>
      </trkpt>
      <trkpt lat="46.56585" lon="5.75758">
        <ele>559</ele>
      </trkpt>
      <trkpt lat="46.56652" lon="5.75721">
        <ele>556</ele>
      </trkpt>
      <trkpt lat="46.56726" lon="5.75694">
        <ele>555.1</ele>
      </trkpt>
      <trkpt lat="46.56768" lon="5.75676">
        <ele>557</ele>
      </trkpt>
      <trkpt lat="46.56791" lon="5.75664">
        <ele>554</ele>
      </trkpt>
      <trkpt lat="46.56814" lon="5.75642">
        <ele>556</ele>
      </trkpt>
      <trkpt lat="46.56854" lon="5.75593">
        <ele>555.9</ele>
      </trkpt>
      <trkpt lat="46.56883" lon="5.75571">
        <ele>552</ele>
      </trkpt>
      <trkpt lat="46.56978" lon="5.75528">
        <ele>553</ele>
      </trkpt>
      <trkpt lat="46.5719" lon="5.75431">
        <ele>547</ele>
      </trkpt>
      <trkpt lat="46.57234" lon="5.75411">
        <ele>544.8</ele>
      </trkpt>
      <trkpt lat="46.57401" lon="5.75221">
        <ele>544</ele>
      </trkpt>
      <trkpt lat="46.57453" lon="5.75161">
        <ele>542.5</ele>
      </trkpt>
      <trkpt lat="46.57499" lon="5.75104">
        <ele>542.6</ele>
      </trkpt>
      <trkpt lat="46.57527" lon="5.75064">
        <ele>542.3</ele>
      </trkpt>
      <trkpt lat="46.57541" lon="5.75031">
        <ele>542</ele>
      </trkpt>
      <trkpt lat="46.57549" lon="5.74982">
        <ele>541.9</ele>
      </trkpt>
      <trkpt lat="46.57492" lon="5.74964">
        <ele>539</ele>
      </trkpt>
      <trkpt lat="46.57478" lon="5.74958">
        <ele>537</ele>
      </trkpt>
      <trkpt lat="46.57467" lon="5.74944">
        <ele>537</ele>
      </trkpt>
      <trkpt lat="46.57438" lon="5.74865">
        <ele>533.3</ele>
      </trkpt>
      <trkpt lat="46.57416" lon="5.74797">
        <ele>529.2</ele>
      </trkpt>
      <trkpt lat="46.57423" lon="5.74771">
        <ele>530</ele>
      </trkpt>
      <trkpt lat="46.57427" lon="5.74749">
        <ele>531</ele>
      </trkpt>
      <trkpt lat="46.57426" lon="5.74728">
        <ele>532.6</ele>
      </trkpt>
      <trkpt lat="46.57413" lon="5.74723">
        <ele>531</ele>
      </trkpt>
      <trkpt lat="46.57396" lon="5.74719">
        <ele>530.8</ele>
      </trkpt>
      <trkpt lat="46.57385" lon="5.74683">
        <ele>532</ele>
      </trkpt>
      <trkpt lat="46.57372" lon="5.74628">
        <ele>536.9</ele>
      </trkpt>
      <trkpt lat="46.57365" lon="5.74591">
        <ele>539</ele>
      </trkpt>
      <trkpt lat="46.57366" lon="5.7455">
        <ele>547</ele>
      </trkpt>
      <trkpt lat="46.57385" lon="5.74492">
        <ele>553</ele>
      </trkpt>
      <trkpt lat="46.57388" lon="5.74428">
        <ele>557</ele>
      </trkpt>
      <trkpt lat="46.57389" lon="5.74349">
        <ele>557.8</ele>
      </trkpt>
      <trkpt lat="46.57398" lon="5.74241">
        <ele>554</ele>
      </trkpt>
      <trkpt lat="46.57407" lon="5.74185">
        <ele>555</ele>
      </trkpt>
      <trkpt lat="46.5742" lon="5.74144">
        <ele>557</ele>
      </trkpt>
      <trkpt lat="46.57452" lon="5.7409">
        <ele>559.4</ele>
      </trkpt>
      <trkpt lat="46.57593" lon="5.73923">
        <ele>558</ele>
      </trkpt>
      <trkpt lat="46.57733" lon="5.73762">
        <ele>552</ele>
      </trkpt>
      <trkpt lat="46.57757" lon="5.73719">
        <ele>549</ele>
      </trkpt>
      <trkpt lat="46.57802" lon="5.73585">
        <ele>542</ele>
      </trkpt>
      <trkpt lat="46.57848" lon="5.73494">
        <ele>530</ele>
      </trkpt>
      <trkpt lat="46.57939" lon="5.73339">
        <ele>519</ele>
      </trkpt>
      <trkpt lat="46.57966" lon="5.73284">
        <ele>516</ele>
      </trkpt>
      <trkpt lat="46.58043" lon="5.73086">
        <ele>504</ele>
      </trkpt>
      <trkpt lat="46.58069" lon="5.72973">
        <ele>499</ele>
      </trkpt>
      <trkpt lat="46.58097" lon="5.72848">
        <ele>496.2</ele>
      </trkpt>
      <trkpt lat="46.58146" lon="5.72651">
        <ele>490</ele>
      </trkpt>
      <trkpt lat="46.58251" lon="5.72215">
        <ele>482</ele>
      </trkpt>
      <trkpt lat="46.58401" lon="5.71569">
        <ele>472</ele>
      </trkpt>
      <trkpt lat="46.58508" lon="5.71101">
        <ele>470</ele>
      </trkpt>
      <trkpt lat="46.58615" lon="5.70616">
        <ele>463</ele>
      </trkpt>
      <trkpt lat="46.58621" lon="5.70537">
        <ele>462</ele>
      </trkpt>
      <trkpt lat="46.58617" lon="5.7048">
        <ele>460.7</ele>
      </trkpt>
      <trkpt lat="46.58604" lon="5.70438">
        <ele>460</ele>
      </trkpt>
      <trkpt lat="46.58589" lon="5.70405">
        <ele>459</ele>
      </trkpt>
      <trkpt lat="46.58559" lon="5.70338">
        <ele>456.4</ele>
      </trkpt>
      <trkpt lat="46.58541" lon="5.70254">
        <ele>452</ele>
      </trkpt>
      <trkpt lat="46.58523" lon="5.70182">
        <ele>444.8</ele>
      </trkpt>
      <trkpt lat="46.58515" lon="5.70148">
        <ele>441</ele>
      </trkpt>
      <trkpt lat="46.58501" lon="5.70018">
        <ele>437</ele>
      </trkpt>
      <trkpt lat="46.58495" lon="5.69949">
        <ele>438</ele>
      </trkpt>
      <trkpt lat="46.58534" lon="5.69812">
        <ele>439</ele>
      </trkpt>
      <trkpt lat="46.58563" lon="5.69726">
        <ele>439</ele>
      </trkpt>
      <trkpt lat="46.58077" lon="5.69151">
        <ele>462</ele>
      </trkpt>
      <trkpt lat="46.57866" lon="5.68888">
        <ele>463</ele>
      </trkpt>
      <trkpt lat="46.57654" lon="5.68621">
        <ele>463.9</ele>
      </trkpt>
      <trkpt lat="46.57342" lon="5.6823">
        <ele>471</ele>
      </trkpt>
      <trkpt lat="46.57183" lon="5.68023">
        <ele>471</ele>
      </trkpt>
      <trkpt lat="46.57024" lon="5.67803">
        <ele>472</ele>
      </trkpt>
      <trkpt lat="46.56935" lon="5.67679">
        <ele>474.2</ele>
      </trkpt>
      <trkpt lat="46.56846" lon="5.67561">
        <ele>475.2</ele>
      </trkpt>
      <trkpt lat="46.56728" lon="5.67396">
        <ele>477.9</ele>
      </trkpt>
      <trkpt lat="46.56653" lon="5.67323">
        <ele>479.1</ele>
      </trkpt>
      <trkpt lat="46.56558" lon="5.6722">
        <ele>479</ele>
      </trkpt>
      <trkpt lat="46.56435" lon="5.67046">
        <ele>481</ele>
      </trkpt>
      <trkpt lat="46.56315" lon="5.66881">
        <ele>484</ele>
      </trkpt>
      <trkpt lat="46.5627" lon="5.66842">
        <ele>486</ele>
      </trkpt>
      <trkpt lat="46.5618" lon="5.66793">
        <ele>491</ele>
      </trkpt>
      <trkpt lat="46.56145" lon="5.66775">
        <ele>490</ele>
      </trkpt>
      <trkpt lat="46.56108" lon="5.66749">
        <ele>494.6</ele>
      </trkpt>
      <trkpt lat="46.56089" lon="5.66731">
        <ele>494</ele>
      </trkpt>
      <trkpt lat="46.56069" lon="5.66709">
        <ele>489.1</ele>
      </trkpt>
      <trkpt lat="46.55977" lon="5.66514">
        <ele>494</ele>
      </trkpt>
      <trkpt lat="46.55938" lon="5.6642">
        <ele>492.8</ele>
      </trkpt>
      <trkpt lat="46.55914" lon="5.66384">
        <ele>488.2</ele>
      </trkpt>
      <trkpt lat="46.55662" lon="5.66121">
        <ele>494</ele>
      </trkpt>
      <trkpt lat="46.55652" lon="5.661">
        <ele>494</ele>
      </trkpt>
      <trkpt lat="46.55643" lon="5.66072">
        <ele>494</ele>
      </trkpt>
      <trkpt lat="46.55643" lon="5.66031">
        <ele>495</ele>
      </trkpt>
      <trkpt lat="46.55653" lon="5.6599">
        <ele>495</ele>
      </trkpt>
      <trkpt lat="46.55682" lon="5.65909">
        <ele>500</ele>
      </trkpt>
      <trkpt lat="46.55679" lon="5.6587">
        <ele>502</ele>
      </trkpt>
      <trkpt lat="46.55662" lon="5.65836">
        <ele>505.8</ele>
      </trkpt>
      <trkpt lat="46.55628" lon="5.65811">
        <ele>509</ele>
      </trkpt>
      <trkpt lat="46.55594" lon="5.65795">
        <ele>511</ele>
      </trkpt>
      <trkpt lat="46.55426" lon="5.65679">
        <ele>514</ele>
      </trkpt>
      <trkpt lat="46.5537" lon="5.65643">
        <ele>521</ele>
      </trkpt>
      <trkpt lat="46.55313" lon="5.65611">
        <ele>527.6</ele>
      </trkpt>
      <trkpt lat="46.552" lon="5.65533">
        <ele>529</ele>
      </trkpt>
      <trkpt lat="46.55164" lon="5.65515">
        <ele>530</ele>
      </trkpt>
      <trkpt lat="46.55094" lon="5.65502">
        <ele>530.3</ele>
      </trkpt>
      <trkpt lat="46.54973" lon="5.65479">
        <ele>533</ele>
      </trkpt>
      <trkpt lat="46.54794" lon="5.65485">
        <ele>535.4</ele>
      </trkpt>
      <trkpt lat="46.54722" lon="5.65501">
        <ele>539</ele>
      </trkpt>
      <trkpt lat="46.5465" lon="5.65523">
        <ele>537.4</ele>
      </trkpt>
      <trkpt lat="46.54612" lon="5.65528">
        <ele>537.8</ele>
      </trkpt>
      <trkpt lat="46.54581" lon="5.65514">
        <ele>537</ele>
      </trkpt>
      <trkpt lat="46.54509" lon="5.65466">
        <ele>535.8</ele>
      </trkpt>
      <trkpt lat="46.54387" lon="5.65376">
        <ele>539.8</ele>
      </trkpt>
      <trkpt lat="46.54267" lon="5.65241">
        <ele>547</ele>
      </trkpt>
      <trkpt lat="46.54148" lon="5.65082">
        <ele>546</ele>
      </trkpt>
      <trkpt lat="46.54009" lon="5.64963">
        <ele>544</ele>
      </trkpt>
      <trkpt lat="46.5387" lon="5.64834">
        <ele>538.9</ele>
      </trkpt>
      <trkpt lat="46.53585" lon="5.64589">
        <ele>541</ele>
      </trkpt>
      <trkpt lat="46.53407" lon="5.64447">
        <ele>543</ele>
      </trkpt>
      <trkpt lat="46.53215" lon="5.64286">
        <ele>542.9</ele>
      </trkpt>
      <trkpt lat="46.53148" lon="5.64235">
        <ele>543</ele>
      </trkpt>
      <trkpt lat="46.53109" lon="5.64202">
        <ele>543.7</ele>
      </trkpt>
      <trkpt lat="46.53069" lon="5.64176">
        <ele>540</ele>
      </trkpt>
      <trkpt lat="46.53033" lon="5.64158">
        <ele>543.5</ele>
      </trkpt>
      <trkpt lat="46.52919" lon="5.64095">
        <ele>538</ele>
      </trkpt>
      <trkpt lat="46.52861" lon="5.64063">
        <ele>537</ele>
      </trkpt>
      <trkpt lat="46.52804" lon="5.64022">
        <ele>532</ele>
      </trkpt>
      <trkpt lat="46.52778" lon="5.6402">
        <ele>528</ele>
      </trkpt>
      <trkpt lat="46.52744" lon="5.64036">
        <ele>521.3</ele>
      </trkpt>
      <trkpt lat="46.52707" lon="5.63977">
        <ele>526</ele>
      </trkpt>
      <trkpt lat="46.5267" lon="5.63917">
        <ele>531</ele>
      </trkpt>
      <trkpt lat="46.52659" lon="5.63879">
        <ele>537</ele>
      </trkpt>
      <trkpt lat="46.52648" lon="5.63836">
        <ele>544</ele>
      </trkpt>
      <trkpt lat="46.52646" lon="5.63766">
        <ele>540</ele>
      </trkpt>
      <trkpt lat="46.52653" lon="5.637">
        <ele>529.7</ele>
      </trkpt>
      <trkpt lat="46.5267" lon="5.63632">
        <ele>527</ele>
      </trkpt>
      <trkpt lat="46.52688" lon="5.6354">
        <ele>519</ele>
      </trkpt>
      <trkpt lat="46.52686" lon="5.63458">
        <ele>516</ele>
      </trkpt>
      <trkpt lat="46.52672" lon="5.63347">
        <ele>512</ele>
      </trkpt>
      <trkpt lat="46.52651" lon="5.63223">
        <ele>511.7</ele>
      </trkpt>
      <trkpt lat="46.52599" lon="5.63008">
        <ele>512</ele>
      </trkpt>
      <trkpt lat="46.52547" lon="5.6281">
        <ele>509</ele>
      </trkpt>
      <trkpt lat="46.52491" lon="5.62619">
        <ele>503</ele>
      </trkpt>
      <trkpt lat="46.52463" lon="5.62559">
        <ele>498</ele>
      </trkpt>
      <trkpt lat="46.52429" lon="5.62503">
        <ele>494</ele>
      </trkpt>
      <trkpt lat="46.52405" lon="5.62463">
        <ele>492.7</ele>
      </trkpt>
      <trkpt lat="46.52392" lon="5.62432">
        <ele>492</ele>
      </trkpt>
      <trkpt lat="46.52381" lon="5.62396">
        <ele>491</ele>
      </trkpt>
      <trkpt lat="46.52369" lon="5.62331">
        <ele>488</ele>
      </trkpt>
      <trkpt lat="46.52387" lon="5.62035">
        <ele>487</ele>
      </trkpt>
      <trkpt lat="46.52394" lon="5.61896">
        <ele>486</ele>
      </trkpt>
      <trkpt lat="46.52382" lon="5.61795">
        <ele>489</ele>
      </trkpt>
      <trkpt lat="46.52366" lon="5.61707">
        <ele>495</ele>
      </trkpt>
      <trkpt lat="46.52344" lon="5.61645">
        <ele>499</ele>
      </trkpt>
      <trkpt lat="46.52292" lon="5.61589">
        <ele>498.6</ele>
      </trkpt>
      <trkpt lat="46.52139" lon="5.61437">
        <ele>499</ele>
      </trkpt>
      <trkpt lat="46.52115" lon="5.61405">
        <ele>498</ele>
      </trkpt>
      <trkpt lat="46.52096" lon="5.613">
        <ele>504</ele>
      </trkpt>
      <trkpt lat="46.52097" lon="5.61236">
        <ele>507</ele>
      </trkpt>
      <trkpt lat="46.52094" lon="5.61181">
        <ele>508.3</ele>
      </trkpt>
      <trkpt lat="46.52094" lon="5.61097">
        <ele>508</ele>
      </trkpt>
      <trkpt lat="46.52102" lon="5.61055">
        <ele>507</ele>
      </trkpt>
      <trkpt lat="46.52128" lon="5.60999">
        <ele>507</ele>
      </trkpt>
      <trkpt lat="46.52156" lon="5.60821">
        <ele>511</ele>
      </trkpt>
      <trkpt lat="46.52158" lon="5.60767">
        <ele>510</ele>
      </trkpt>
      <trkpt lat="46.52159" lon="5.60742">
        <ele>509</ele>
      </trkpt>
      <trkpt lat="46.52167" lon="5.60716">
        <ele>508</ele>
      </trkpt>
      <trkpt lat="46.52219" lon="5.6071">
        <ele>507.8</ele>
      </trkpt>
      <trkpt lat="46.52257" lon="5.60686">
        <ele>506</ele>
      </trkpt>
      <trkpt lat="46.52281" lon="5.60403">
        <ele>498</ele>
      </trkpt>
      <trkpt lat="46.52305" lon="5.60114">
        <ele>498</ele>
      </trkpt>
      <trkpt lat="46.52351" lon="5.59514">
        <ele>491</ele>
      </trkpt>
      <trkpt lat="46.52617" lon="5.56042">
        <ele>483</ele>
      </trkpt>
      <trkpt lat="46.52697" lon="5.55027">
        <ele>484</ele>
      </trkpt>
      <trkpt lat="46.52726" lon="5.54622">
        <ele>496</ele>
      </trkpt>
      <trkpt lat="46.52756" lon="5.54604">
        <ele>501</ele>
      </trkpt>
      <trkpt lat="46.52794" lon="5.54611">
        <ele>501</ele>
      </trkpt>
      <trkpt lat="46.52905" lon="5.54615">
        <ele>510</ele>
      </trkpt>
      <trkpt lat="46.53212" lon="5.54645">
        <ele>521</ele>
      </trkpt>
      <trkpt lat="46.53461" lon="5.54723">
        <ele>524</ele>
      </trkpt>
      <trkpt lat="46.53646" lon="5.54785">
        <ele>528</ele>
      </trkpt>
      <trkpt lat="46.53762" lon="5.54819">
        <ele>532</ele>
      </trkpt>
      <trkpt lat="46.53884" lon="5.54797">
        <ele>536.9</ele>
      </trkpt>
      <trkpt lat="46.53927" lon="5.54779">
        <ele>537</ele>
      </trkpt>
      <trkpt lat="46.53976" lon="5.54729">
        <ele>539</ele>
      </trkpt>
      <trkpt lat="46.54038" lon="5.54529">
        <ele>540</ele>
      </trkpt>
      <trkpt lat="46.541" lon="5.54289">
        <ele>534</ele>
      </trkpt>
      <trkpt lat="46.54143" lon="5.54139">
        <ele>529</ele>
      </trkpt>
      <trkpt lat="46.54197" lon="5.53951">
        <ele>528.9</ele>
      </trkpt>
      <trkpt lat="46.54202" lon="5.53722">
        <ele>527.4</ele>
      </trkpt>
      <trkpt lat="46.54218" lon="5.53652">
        <ele>528</ele>
      </trkpt>
      <trkpt lat="46.54269" lon="5.53542">
        <ele>526</ele>
      </trkpt>
      <trkpt lat="46.54287" lon="5.53494">
        <ele>518.9</ele>
      </trkpt>
      <trkpt lat="46.54302" lon="5.53459">
        <ele>518</ele>
      </trkpt>
      <trkpt lat="46.54331" lon="5.53435">
        <ele>523</ele>
      </trkpt>
      <trkpt lat="46.54348" lon="5.53392">
        <ele>518</ele>
      </trkpt>
      <trkpt lat="46.54359" lon="5.53341">
        <ele>511</ele>
      </trkpt>
      <trkpt lat="46.54378" lon="5.53296">
        <ele>509</ele>
      </trkpt>
      <trkpt lat="46.54397" lon="5.53272">
        <ele>508</ele>
      </trkpt>
      <trkpt lat="46.54423" lon="5.53267">
        <ele>509</ele>
      </trkpt>
      <trkpt lat="46.54496" lon="5.53251">
        <ele>503</ele>
      </trkpt>
      <trkpt lat="46.54633" lon="5.53203">
        <ele>494.8</ele>
      </trkpt>
      <trkpt lat="46.54672" lon="5.53194">
        <ele>491</ele>
      </trkpt>
      <trkpt lat="46.54742" lon="5.53196">
        <ele>490.4</ele>
      </trkpt>
      <trkpt lat="46.54804" lon="5.53184">
        <ele>487.6</ele>
      </trkpt>
      <trkpt lat="46.54855" lon="5.53148">
        <ele>484</ele>
      </trkpt>
      <trkpt lat="46.54877" lon="5.53129">
        <ele>484</ele>
      </trkpt>
      <trkpt lat="46.54899" lon="5.53094">
        <ele>482.8</ele>
      </trkpt>
      <trkpt lat="46.54936" lon="5.53015">
        <ele>480</ele>
      </trkpt>
      <trkpt lat="46.54958" lon="5.52931">
        <ele>477</ele>
      </trkpt>
      <trkpt lat="46.54976" lon="5.52873">
        <ele>479</ele>
      </trkpt>
      <trkpt lat="46.55027" lon="5.52794">
        <ele>479</ele>
      </trkpt>
      <trkpt lat="46.55055" lon="5.52742">
        <ele>478</ele>
      </trkpt>
      <trkpt lat="46.55097" lon="5.52641">
        <ele>477</ele>
      </trkpt>
      <trkpt lat="46.55085" lon="5.52577">
        <ele>478</ele>
      </trkpt>
      <trkpt lat="46.55012" lon="5.52341">
        <ele>490</ele>
      </trkpt>
      <trkpt lat="46.54976" lon="5.52296">
        <ele>492</ele>
      </trkpt>
      <trkpt lat="46.5486" lon="5.5224">
        <ele>496</ele>
      </trkpt>
      <trkpt lat="46.54807" lon="5.52208">
        <ele>500</ele>
      </trkpt>
      <trkpt lat="46.54759" lon="5.52173">
        <ele>503</ele>
      </trkpt>
      <trkpt lat="46.54705" lon="5.52146">
        <ele>507</ele>
      </trkpt>
      <trkpt lat="46.54661" lon="5.52131">
        <ele>509</ele>
      </trkpt>
      <trkpt lat="46.5461" lon="5.52083">
        <ele>514</ele>
      </trkpt>
      <trkpt lat="46.5439" lon="5.51843">
        <ele>522</ele>
      </trkpt>
      <trkpt lat="46.54335" lon="5.51781">
        <ele>524</ele>
      </trkpt>
      <trkpt lat="46.54273" lon="5.51759">
        <ele>526.3</ele>
      </trkpt>
      <trkpt lat="46.5422" lon="5.51724">
        <ele>526</ele>
      </trkpt>
      <trkpt lat="46.54164" lon="5.51654">
        <ele>526</ele>
      </trkpt>
      <trkpt lat="46.53989" lon="5.51441">
        <ele>523</ele>
      </trkpt>
      <trkpt lat="46.53814" lon="5.51246">
        <ele>532.3</ele>
      </trkpt>
      <trkpt lat="46.53659" lon="5.50925">
        <ele>520</ele>
      </trkpt>
      <trkpt lat="46.53323" lon="5.50254">
        <ele>509.9</ele>
      </trkpt>
      <trkpt lat="46.53005" lon="5.49618">
        <ele>497</ele>
      </trkpt>
      <trkpt lat="46.52889" lon="5.49478">
        <ele>498</ele>
      </trkpt>
      <trkpt lat="46.52609" lon="5.49064">
        <ele>503</ele>
      </trkpt>
      <trkpt lat="46.52577" lon="5.48961">
        <ele>504</ele>
      </trkpt>
      <trkpt lat="46.52565" lon="5.4886">
        <ele>504</ele>
      </trkpt>
      <trkpt lat="46.52567" lon="5.48787">
        <ele>505</ele>
      </trkpt>
      <trkpt lat="46.52601" lon="5.48637">
        <ele>504</ele>
      </trkpt>
      <trkpt lat="46.52607" lon="5.48588">
        <ele>504</ele>
      </trkpt>
      <trkpt lat="46.52633" lon="5.48545">
        <ele>504</ele>
      </trkpt>
      <trkpt lat="46.52643" lon="5.48504">
        <ele>503</ele>
      </trkpt>
      <trkpt lat="46.5262" lon="5.48448">
        <ele>508</ele>
      </trkpt>
      <trkpt lat="46.52607" lon="5.48375">
        <ele>506</ele>
      </trkpt>
      <trkpt lat="46.52586" lon="5.4829">
        <ele>500</ele>
      </trkpt>
      <trkpt lat="46.52542" lon="5.48238">
        <ele>498</ele>
      </trkpt>
      <trkpt lat="46.52493" lon="5.48204">
        <ele>495</ele>
      </trkpt>
      <trkpt lat="46.52432" lon="5.48178">
        <ele>491</ele>
      </trkpt>
      <trkpt lat="46.52354" lon="5.48174">
        <ele>494</ele>
      </trkpt>
      <trkpt lat="46.5235" lon="5.48157">
        <ele>479</ele>
      </trkpt>
      <trkpt lat="46.52381" lon="5.48142">
        <ele>479</ele>
      </trkpt>
      <trkpt lat="46.52512" lon="5.48107">
        <ele>467</ele>
      </trkpt>
      <trkpt lat="46.52623" lon="5.48118">
        <ele>461</ele>
      </trkpt>
      <trkpt lat="46.52757" lon="5.4815">
        <ele>456</ele>
      </trkpt>
      <trkpt lat="46.52779" lon="5.48158">
        <ele>455</ele>
      </trkpt>
      <trkpt lat="46.52816" lon="5.48131">
        <ele>454</ele>
      </trkpt>
      <trkpt lat="46.52847" lon="5.48047">
        <ele>450</ele>
      </trkpt>
      <trkpt lat="46.52942" lon="5.47687">
        <ele>439</ele>
      </trkpt>
      <trkpt lat="46.52938" lon="5.4758">
        <ele>436</ele>
      </trkpt>
      <trkpt lat="46.52942" lon="5.47459">
        <ele>439</ele>
      </trkpt>
      <trkpt lat="46.52953" lon="5.47433">
        <ele>440</ele>
      </trkpt>
      <trkpt lat="46.52977" lon="5.47414">
        <ele>442</ele>
      </trkpt>
      <trkpt lat="46.53132" lon="5.47318">
        <ele>454</ele>
      </trkpt>
      <trkpt lat="46.53198" lon="5.47322">
        <ele>457</ele>
      </trkpt>
      <trkpt lat="46.53202" lon="5.47309">
        <ele>458.2</ele>
      </trkpt>
      <trkpt lat="46.5315" lon="5.4729">
        <ele>458</ele>
      </trkpt>
      <trkpt lat="46.53116" lon="5.47266">
        <ele>461</ele>
      </trkpt>
      <trkpt lat="46.53083" lon="5.47249">
        <ele>463</ele>
      </trkpt>
      <trkpt lat="46.53014" lon="5.47217">
        <ele>465</ele>
      </trkpt>
      <trkpt lat="46.52977" lon="5.47204">
        <ele>465</ele>
      </trkpt>
      <trkpt lat="46.52967" lon="5.47184">
        <ele>465</ele>
      </trkpt>
      <trkpt lat="46.52967" lon="5.4714">
        <ele>469</ele>
      </trkpt>
      <trkpt lat="46.53021" lon="5.46884">
        <ele>479</ele>
      </trkpt>
      <trkpt lat="46.53002" lon="5.4685">
        <ele>477</ele>
      </trkpt>
      <trkpt lat="46.52896" lon="5.46729">
        <ele>466.9</ele>
      </trkpt>
      <trkpt lat="46.52825" lon="5.46686">
        <ele>465.1</ele>
      </trkpt>
      <trkpt lat="46.52778" lon="5.46653">
        <ele>457.1</ele>
      </trkpt>
      <trkpt lat="46.52815" lon="5.46635">
        <ele>455</ele>
      </trkpt>
      <trkpt lat="46.52869" lon="5.46604">
        <ele>451.8</ele>
      </trkpt>
      <trkpt lat="46.52882" lon="5.46548">
        <ele>447</ele>
      </trkpt>
      <trkpt lat="46.52884" lon="5.46458">
        <ele>449.1</ele>
      </trkpt>
      <trkpt lat="46.52897" lon="5.46399">
        <ele>457</ele>
      </trkpt>
      <trkpt lat="46.52925" lon="5.46397">
        <ele>456</ele>
      </trkpt>
      <trkpt lat="46.53001" lon="5.46402">
        <ele>462</ele>
      </trkpt>
      <trkpt lat="46.53088" lon="5.46397">
        <ele>467</ele>
      </trkpt>
      <trkpt lat="46.53203" lon="5.46373">
        <ele>476</ele>
      </trkpt>
      <trkpt lat="46.53278" lon="5.46361">
        <ele>483</ele>
      </trkpt>
      <trkpt lat="46.53313" lon="5.46363">
        <ele>484</ele>
      </trkpt>
      <trkpt lat="46.53345" lon="5.46376">
        <ele>485</ele>
      </trkpt>
      <trkpt lat="46.53354" lon="5.46364">
        <ele>489</ele>
      </trkpt>
      <trkpt lat="46.53336" lon="5.46343">
        <ele>492</ele>
      </trkpt>
      <trkpt lat="46.53287" lon="5.46313">
        <ele>495</ele>
      </trkpt>
      <trkpt lat="46.53241" lon="5.46279">
        <ele>498</ele>
      </trkpt>
      <trkpt lat="46.53145" lon="5.46191">
        <ele>507</ele>
      </trkpt>
      <trkpt lat="46.53069" lon="5.46154">
        <ele>512</ele>
      </trkpt>
      <trkpt lat="46.52974" lon="5.46087">
        <ele>514.5</ele>
      </trkpt>
      <trkpt lat="46.52933" lon="5.46053">
        <ele>525.4</ele>
      </trkpt>
      <trkpt lat="46.52918" lon="5.46036">
        <ele>527.7</ele>
      </trkpt>
      <trkpt lat="46.52825" lon="5.45989">
        <ele>530</ele>
      </trkpt>
      <trkpt lat="46.52784" lon="5.45938">
        <ele>541</ele>
      </trkpt>
      <trkpt lat="46.52772" lon="5.45859">
        <ele>551</ele>
      </trkpt>
      <trkpt lat="46.52788" lon="5.45813">
        <ele>551</ele>
      </trkpt>
      <trkpt lat="46.52825" lon="5.45762">
        <ele>547</ele>
      </trkpt>
      <trkpt lat="46.52839" lon="5.4574">
        <ele>541.1</ele>
      </trkpt>
      <trkpt lat="46.53011" lon="5.45752">
        <ele>538.2</ele>
      </trkpt>
      <trkpt lat="46.53081" lon="5.45744">
        <ele>530</ele>
      </trkpt>
      <trkpt lat="46.53161" lon="5.45744">
        <ele>524.8</ele>
      </trkpt>
      <trkpt lat="46.53237" lon="5.45732">
        <ele>520</ele>
      </trkpt>
      <trkpt lat="46.53319" lon="5.45708">
        <ele>518</ele>
      </trkpt>
      <trkpt lat="46.53386" lon="5.45707">
        <ele>515.8</ele>
      </trkpt>
      <trkpt lat="46.5344" lon="5.45712">
        <ele>510</ele>
      </trkpt>
      <trkpt lat="46.53492" lon="5.45735">
        <ele>510.3</ele>
      </trkpt>
      <trkpt lat="46.53557" lon="5.45781">
        <ele>510</ele>
      </trkpt>
      <trkpt lat="46.53577" lon="5.45747">
        <ele>495</ele>
      </trkpt>
      <trkpt lat="46.53461" lon="5.45631">
        <ele>490</ele>
      </trkpt>
      <trkpt lat="46.53376" lon="5.45565">
        <ele>484</ele>
      </trkpt>
      <trkpt lat="46.53297" lon="5.45513">
        <ele>477</ele>
      </trkpt>
      <trkpt lat="46.53172" lon="5.45528">
        <ele>470</ele>
      </trkpt>
      <trkpt lat="46.53123" lon="5.45554">
        <ele>474</ele>
      </trkpt>
      <trkpt lat="46.53017" lon="5.455">
        <ele>462.1</ele>
      </trkpt>
      <trkpt lat="46.52971" lon="5.45465">
        <ele>464.3</ele>
      </trkpt>
      <trkpt lat="46.52961" lon="5.45386">
        <ele>456</ele>
      </trkpt>
      <trkpt lat="46.52971" lon="5.45311">
        <ele>448</ele>
      </trkpt>
      <trkpt lat="46.52965" lon="5.4526">
        <ele>445</ele>
      </trkpt>
      <trkpt lat="46.52847" lon="5.4518">
        <ele>446</ele>
      </trkpt>
      <trkpt lat="46.52784" lon="5.45125">
        <ele>445</ele>
      </trkpt>
      <trkpt lat="46.52785" lon="5.45088">
        <ele>442.5</ele>
      </trkpt>
      <trkpt lat="46.52952" lon="5.44979">
        <ele>428</ele>
      </trkpt>
      <trkpt lat="46.5301" lon="5.44906">
        <ele>421</ele>
      </trkpt>
      <trkpt lat="46.52966" lon="5.44442">
        <ele>402.3</ele>
      </trkpt>
      <trkpt lat="46.53007" lon="5.44281">
        <ele>398</ele>
      </trkpt>
      <trkpt lat="46.53098" lon="5.44191">
        <ele>400</ele>
      </trkpt>
      <trkpt lat="46.53117" lon="5.44146">
        <ele>394</ele>
      </trkpt>
      <trkpt lat="46.53091" lon="5.44063">
        <ele>387</ele>
      </trkpt>
      <trkpt lat="46.53065" lon="5.44003">
        <ele>391</ele>
      </trkpt>
      <trkpt lat="46.52992" lon="5.43859">
        <ele>385</ele>
      </trkpt>
      <trkpt lat="46.5298" lon="5.43801">
        <ele>381</ele>
      </trkpt>
      <trkpt lat="46.53023" lon="5.43633">
        <ele>367</ele>
      </trkpt>
      <trkpt lat="46.53038" lon="5.43311">
        <ele>369</ele>
      </trkpt>
      <trkpt lat="46.53047" lon="5.43276">
        <ele>371</ele>
      </trkpt>
      <trkpt lat="46.53066" lon="5.43271">
        <ele>373</ele>
      </trkpt>
      <trkpt lat="46.53088" lon="5.43264">
        <ele>375</ele>
      </trkpt>
      <trkpt lat="46.53145" lon="5.4328">
        <ele>376</ele>
      </trkpt>
      <trkpt lat="46.53227" lon="5.43303">
        <ele>379</ele>
      </trkpt>
      <trkpt lat="46.53371" lon="5.43361">
        <ele>386</ele>
      </trkpt>
      <trkpt lat="46.53416" lon="5.43359">
        <ele>389</ele>
      </trkpt>
      <trkpt lat="46.53432" lon="5.43314">
        <ele>394</ele>
      </trkpt>
      <trkpt lat="46.53417" lon="5.43276">
        <ele>396</ele>
      </trkpt>
      <trkpt lat="46.53423" lon="5.43202">
        <ele>398.3</ele>
      </trkpt>
      <trkpt lat="46.53439" lon="5.4298">
        <ele>401.1</ele>
      </trkpt>
      <trkpt lat="46.53442" lon="5.42859">
        <ele>407</ele>
      </trkpt>
      <trkpt lat="46.53444" lon="5.42758">
        <ele>412</ele>
      </trkpt>
      <trkpt lat="46.53435" lon="5.42685">
        <ele>412</ele>
      </trkpt>
      <trkpt lat="46.53407" lon="5.42631">
        <ele>410</ele>
      </trkpt>
      <trkpt lat="46.53371" lon="5.42573">
        <ele>403</ele>
      </trkpt>
      <trkpt lat="46.53333" lon="5.4248">
        <ele>406.5</ele>
      </trkpt>
      <trkpt lat="46.53293" lon="5.42376">
        <ele>396</ele>
      </trkpt>
      <trkpt lat="46.53274" lon="5.42307">
        <ele>398</ele>
      </trkpt>
      <trkpt lat="46.53266" lon="5.42254">
        <ele>401</ele>
      </trkpt>
      <trkpt lat="46.53234" lon="5.42204">
        <ele>393</ele>
      </trkpt>
      <trkpt lat="46.53219" lon="5.4211">
        <ele>390</ele>
      </trkpt>
      <trkpt lat="46.53203" lon="5.42048">
        <ele>383</ele>
      </trkpt>
      <trkpt lat="46.53219" lon="5.41996">
        <ele>387</ele>
      </trkpt>
      <trkpt lat="46.53241" lon="5.41938">
        <ele>390</ele>
      </trkpt>
      <trkpt lat="46.53263" lon="5.41893">
        <ele>394</ele>
      </trkpt>
      <trkpt lat="46.53277" lon="5.41852">
        <ele>394</ele>
      </trkpt>
      <trkpt lat="46.53272" lon="5.41809">
        <ele>385</ele>
      </trkpt>
      <trkpt lat="46.53274" lon="5.41747">
        <ele>376</ele>
      </trkpt>
      <trkpt lat="46.53299" lon="5.41709">
        <ele>375</ele>
      </trkpt>
      <trkpt lat="46.53333" lon="5.41668">
        <ele>374</ele>
      </trkpt>
      <trkpt lat="46.53376" lon="5.41646">
        <ele>379</ele>
      </trkpt>
      <trkpt lat="46.53408" lon="5.41595">
        <ele>374</ele>
      </trkpt>
      <trkpt lat="46.53432" lon="5.41511">
        <ele>362</ele>
      </trkpt>
      <trkpt lat="46.53436" lon="5.41445">
        <ele>352</ele>
      </trkpt>
      <trkpt lat="46.53445" lon="5.41406">
        <ele>344</ele>
      </trkpt>
      <trkpt lat="46.53458" lon="5.41391">
        <ele>346</ele>
      </trkpt>
      <trkpt lat="46.5351" lon="5.41404">
        <ele>356</ele>
      </trkpt>
      <trkpt lat="46.53543" lon="5.414">
        <ele>351</ele>
      </trkpt>
      <trkpt lat="46.53578" lon="5.4137">
        <ele>348</ele>
      </trkpt>
      <trkpt lat="46.53622" lon="5.41367">
        <ele>352</ele>
      </trkpt>
      <trkpt lat="46.5365" lon="5.41334">
        <ele>354</ele>
      </trkpt>
      <trkpt lat="46.5365" lon="5.41301">
        <ele>354</ele>
      </trkpt>
      <trkpt lat="46.53526" lon="5.41126">
        <ele>332.5</ele>
      </trkpt>
      <trkpt lat="46.53489" lon="5.41023">
        <ele>319.9</ele>
      </trkpt>
      <trkpt lat="46.53494" lon="5.40934">
        <ele>311</ele>
      </trkpt>
      <trkpt lat="46.53591" lon="5.40722">
        <ele>298</ele>
      </trkpt>
      <trkpt lat="46.53663" lon="5.40548">
        <ele>289</ele>
      </trkpt>
      <trkpt lat="46.53759" lon="5.4029">
        <ele>277</ele>
      </trkpt>
      <trkpt lat="46.53835" lon="5.39992">
        <ele>271</ele>
      </trkpt>
      <trkpt lat="46.53859" lon="5.39909">
        <ele>264</ele>
      </trkpt>
      <trkpt lat="46.53888" lon="5.39831">
        <ele>262</ele>
      </trkpt>
      <trkpt lat="46.53925" lon="5.39763">
        <ele>262</ele>
      </trkpt>
      <trkpt lat="46.53953" lon="5.39722">
        <ele>262</ele>
      </trkpt>
      <trkpt lat="46.53962" lon="5.39705">
        <ele>261</ele>
      </trkpt>
      <trkpt lat="46.53968" lon="5.39685">
        <ele>261</ele>
      </trkpt>
      <trkpt lat="46.5397" lon="5.39662">
        <ele>261</ele>
      </trkpt>
      <trkpt lat="46.53961" lon="5.39632">
        <ele>261</ele>
      </trkpt>
      <trkpt lat="46.53952" lon="5.39614">
        <ele>260</ele>
      </trkpt>
      <trkpt lat="46.53919" lon="5.39593">
        <ele>261</ele>
      </trkpt>
      <trkpt lat="46.538" lon="5.39517">
        <ele>258</ele>
      </trkpt>
      <trkpt lat="46.53684" lon="5.39443">
        <ele>255</ele>
      </trkpt>
      <trkpt lat="46.5357" lon="5.39371">
        <ele>249</ele>
      </trkpt>
      <trkpt lat="46.53405" lon="5.39268">
        <ele>245</ele>
      </trkpt>
      <trkpt lat="46.53343" lon="5.39228">
        <ele>244</ele>
      </trkpt>
      <trkpt lat="46.532" lon="5.39141">
        <ele>242</ele>
      </trkpt>
      <trkpt lat="46.53139" lon="5.39107">
        <ele>244</ele>
      </trkpt>
      <trkpt lat="46.53084" lon="5.39086">
        <ele>242</ele>
      </trkpt>
      <trkpt lat="46.5305" lon="5.39076">
        <ele>239</ele>
      </trkpt>
      <trkpt lat="46.53012" lon="5.3905">
        <ele>238</ele>
      </trkpt>
      <trkpt lat="46.52997" lon="5.39053">
        <ele>236</ele>
      </trkpt>
      <trkpt lat="46.5298" lon="5.39071">
        <ele>236</ele>
      </trkpt>
      <trkpt lat="46.52962" lon="5.39097">
        <ele>236</ele>
      </trkpt>
      <trkpt lat="46.52946" lon="5.39116">
        <ele>235</ele>
      </trkpt>
      <trkpt lat="46.52929" lon="5.39124">
        <ele>234</ele>
      </trkpt>
      <trkpt lat="46.52867" lon="5.39145">
        <ele>225</ele>
      </trkpt>
      <trkpt lat="46.52793" lon="5.39169">
        <ele>224</ele>
      </trkpt>
      <trkpt lat="46.52771" lon="5.39171">
        <ele>223</ele>
      </trkpt>
      <trkpt lat="46.52716" lon="5.39154">
        <ele>224</ele>
      </trkpt>
      <trkpt lat="46.52681" lon="5.39132">
        <ele>226</ele>
      </trkpt>
      <trkpt lat="46.52646" lon="5.39106">
        <ele>230</ele>
      </trkpt>
      <trkpt lat="46.52614" lon="5.39075">
        <ele>229</ele>
      </trkpt>
      <trkpt lat="46.52581" lon="5.39049">
        <ele>234</ele>
      </trkpt>
      <trkpt lat="46.52537" lon="5.39015">
        <ele>235</ele>
      </trkpt>
      <trkpt lat="46.52495" lon="5.3899">
        <ele>236</ele>
      </trkpt>
      <trkpt lat="46.52369" lon="5.38929">
        <ele>240</ele>
      </trkpt>
      <trkpt lat="46.52266" lon="5.38882">
        <ele>237</ele>
      </trkpt>
      <trkpt lat="46.52181" lon="5.38843">
        <ele>239</ele>
      </trkpt>
      <trkpt lat="46.52133" lon="5.38838">
        <ele>242</ele>
      </trkpt>
      <trkpt lat="46.5205" lon="5.38828">
        <ele>245</ele>
      </trkpt>
      <trkpt lat="46.51981" lon="5.38818">
        <ele>249</ele>
      </trkpt>
      <trkpt lat="46.51904" lon="5.38819">
        <ele>253</ele>
      </trkpt>
      <trkpt lat="46.51807" lon="5.38817">
        <ele>258</ele>
      </trkpt>
      <trkpt lat="46.5173" lon="5.38815">
        <ele>261</ele>
      </trkpt>
      <trkpt lat="46.51711" lon="5.38812">
        <ele>260</ele>
      </trkpt>
      <trkpt lat="46.51692" lon="5.38798">
        <ele>260</ele>
      </trkpt>
      <trkpt lat="46.51692" lon="5.38778">
        <ele>260</ele>
      </trkpt>
      <trkpt lat="46.51655" lon="5.38781">
        <ele>257</ele>
      </trkpt>
      <trkpt lat="46.51593" lon="5.38796">
        <ele>256</ele>
      </trkpt>
      <trkpt lat="46.51548" lon="5.38803">
        <ele>253</ele>
      </trkpt>
      <trkpt lat="46.51503" lon="5.38803">
        <ele>252</ele>
      </trkpt>
      <trkpt lat="46.51448" lon="5.38802">
        <ele>252</ele>
      </trkpt>
      <trkpt lat="46.51402" lon="5.38811">
        <ele>255</ele>
      </trkpt>
      <trkpt lat="46.5121" lon="5.38799">
        <ele>261</ele>
      </trkpt>
      <trkpt lat="46.51113" lon="5.3879">
        <ele>259</ele>
      </trkpt>
      <trkpt lat="46.51013" lon="5.3877">
        <ele>255</ele>
      </trkpt>
      <trkpt lat="46.50913" lon="5.3875">
        <ele>255</ele>
      </trkpt>
      <trkpt lat="46.50812" lon="5.38727">
        <ele>255</ele>
      </trkpt>
      <trkpt lat="46.50722" lon="5.38707">
        <ele>254</ele>
      </trkpt>
      <trkpt lat="46.50685" lon="5.3869">
        <ele>254</ele>
      </trkpt>
      <trkpt lat="46.50651" lon="5.38679">
        <ele>253</ele>
      </trkpt>
      <trkpt lat="46.50602" lon="5.38663">
        <ele>252</ele>
      </trkpt>
      <trkpt lat="46.50554" lon="5.38652">
        <ele>256</ele>
      </trkpt>
      <trkpt lat="46.505" lon="5.38638">
        <ele>262</ele>
      </trkpt>
      <trkpt lat="46.5045" lon="5.3861">
        <ele>264</ele>
      </trkpt>
      <trkpt lat="46.50347" lon="5.38528">
        <ele>265</ele>
      </trkpt>
      <trkpt lat="46.50295" lon="5.3846">
        <ele>262</ele>
      </trkpt>
      <trkpt lat="46.50241" lon="5.38403">
        <ele>259</ele>
      </trkpt>
      <trkpt lat="46.50219" lon="5.38372">
        <ele>259</ele>
      </trkpt>
      <trkpt lat="46.50153" lon="5.38576">
        <ele>267</ele>
      </trkpt>
      <trkpt lat="46.50144" lon="5.38609">
        <ele>270</ele>
      </trkpt>
      <trkpt lat="46.50134" lon="5.38644">
        <ele>271</ele>
      </trkpt>
      <trkpt lat="46.50134" lon="5.38669">
        <ele>274</ele>
      </trkpt>
      <trkpt lat="46.50118" lon="5.38697">
        <ele>274.6</ele>
      </trkpt>
      <trkpt lat="46.50063" lon="5.38701">
        <ele>275</ele>
      </trkpt>
      <trkpt lat="46.49978" lon="5.38719">
        <ele>278</ele>
      </trkpt>
      <trkpt lat="46.49812" lon="5.3875">
        <ele>278</ele>
      </trkpt>
      <trkpt lat="46.49744" lon="5.38763">
        <ele>276</ele>
      </trkpt>
      <trkpt lat="46.49649" lon="5.38785">
        <ele>277</ele>
      </trkpt>
      <trkpt lat="46.49601" lon="5.38793">
        <ele>277</ele>
      </trkpt>
      <trkpt lat="46.49557" lon="5.38794">
        <ele>278.5</ele>
      </trkpt>
    </trkseg>
  </trk>
</gpx>